<?xml version="1.0" encoding="UTF-8" standalone="no" ?>
<gpx xmlns="http://www.topografix.com/GPX/1/1" xmlns:xsi="http://www.w3.org/2001/XMLSchema-instance" xsi:schemaLocation="http://www.topografix.com/GPX/1/1 http://www.topografix.com/GPX/1/1/gpx.xsd" version="1.1" creator="VisuGPX - https://www.visugpx.com">
  <metadata>
    <name>83 - VTT - Roc Azur.</name>
    <desc><![CDATA[Roc d'Azur panne de batteries]]></desc>
  </metadata>
  <trk>
    <name><![CDATA[ACTIVE LOG]]></name>
    <trkseg>
      <trkpt lat="43.41829" lon="6.73698">
        <ele>10.711792</ele>
        <time>2013-10-13T08:44:29Z</time>
      </trkpt>
      <trkpt lat="43.41828" lon="6.73698">
        <ele>10.711792</ele>
        <time>2013-10-13T08:44:30Z</time>
      </trkpt>
      <trkpt lat="43.41828" lon="6.73699">
        <ele>11.673218</ele>
        <time>2013-10-13T08:44:32Z</time>
      </trkpt>
      <trkpt lat="43.4183" lon="6.73699">
        <ele>11.192505</ele>
        <time>2013-10-13T08:45:02Z</time>
      </trkpt>
      <trkpt lat="43.41829" lon="6.737">
        <ele>11.192505</ele>
        <time>2013-10-13T08:45:54Z</time>
      </trkpt>
      <trkpt lat="43.41829" lon="6.73699">
        <ele>9.75061</ele>
        <time>2013-10-13T08:47:07Z</time>
      </trkpt>
      <trkpt lat="43.41829" lon="6.73699">
        <ele>11.192505</ele>
        <time>2013-10-13T08:48:38Z</time>
      </trkpt>
      <trkpt lat="43.41829" lon="6.73699">
        <ele>11.673218</ele>
        <time>2013-10-13T08:49:13Z</time>
      </trkpt>
      <trkpt lat="43.41829" lon="6.73699">
        <ele>11.192505</ele>
        <time>2013-10-13T08:49:29Z</time>
      </trkpt>
      <trkpt lat="43.41796" lon="6.73692">
        <ele>11.192505</ele>
        <time>2013-10-13T08:49:40Z</time>
      </trkpt>
      <trkpt lat="43.41698" lon="6.73668">
        <ele>11.192505</ele>
        <time>2013-10-13T08:49:59Z</time>
      </trkpt>
      <trkpt lat="43.41689" lon="6.73664">
        <ele>11.192505</ele>
        <time>2013-10-13T08:50:01Z</time>
      </trkpt>
      <trkpt lat="43.41638" lon="6.73599">
        <ele>12.153809</ele>
        <time>2013-10-13T08:50:15Z</time>
      </trkpt>
      <trkpt lat="43.41626" lon="6.73578">
        <ele>11.673218</ele>
        <time>2013-10-13T08:50:19Z</time>
      </trkpt>
      <trkpt lat="43.41622" lon="6.73554">
        <ele>12.153809</ele>
        <time>2013-10-13T08:50:23Z</time>
      </trkpt>
      <trkpt lat="43.41626" lon="6.73529">
        <ele>11.673218</ele>
        <time>2013-10-13T08:50:27Z</time>
      </trkpt>
      <trkpt lat="43.41646" lon="6.73506">
        <ele>10.711792</ele>
        <time>2013-10-13T08:50:33Z</time>
      </trkpt>
      <trkpt lat="43.41759" lon="6.73484">
        <ele>11.192505</ele>
        <time>2013-10-13T08:50:56Z</time>
      </trkpt>
      <trkpt lat="43.41783" lon="6.73477">
        <ele>11.192505</ele>
        <time>2013-10-13T08:51:01Z</time>
      </trkpt>
      <trkpt lat="43.41817" lon="6.73438">
        <ele>10.711792</ele>
        <time>2013-10-13T08:51:10Z</time>
      </trkpt>
      <trkpt lat="43.41823" lon="6.73419">
        <ele>11.192505</ele>
        <time>2013-10-13T08:51:13Z</time>
      </trkpt>
      <trkpt lat="43.41825" lon="6.73374">
        <ele>11.192505</ele>
        <time>2013-10-13T08:51:20Z</time>
      </trkpt>
      <trkpt lat="43.41792" lon="6.73257">
        <ele>11.192505</ele>
        <time>2013-10-13T08:51:40Z</time>
      </trkpt>
      <trkpt lat="43.4175" lon="6.73136">
        <ele>11.192505</ele>
        <time>2013-10-13T08:52:03Z</time>
      </trkpt>
      <trkpt lat="43.41714" lon="6.73025">
        <ele>10.231201</ele>
        <time>2013-10-13T08:52:25Z</time>
      </trkpt>
      <trkpt lat="43.4168" lon="6.72922">
        <ele>11.192505</ele>
        <time>2013-10-13T08:52:46Z</time>
      </trkpt>
      <trkpt lat="43.41657" lon="6.72845">
        <ele>10.231201</ele>
        <time>2013-10-13T08:53:01Z</time>
      </trkpt>
      <trkpt lat="43.41628" lon="6.72816">
        <ele>10.231201</ele>
        <time>2013-10-13T08:53:09Z</time>
      </trkpt>
      <trkpt lat="43.41609" lon="6.72812">
        <ele>10.711792</ele>
        <time>2013-10-13T08:53:13Z</time>
      </trkpt>
      <trkpt lat="43.41585" lon="6.72818">
        <ele>10.711792</ele>
        <time>2013-10-13T08:53:18Z</time>
      </trkpt>
      <trkpt lat="43.41528" lon="6.7285">
        <ele>10.231201</ele>
        <time>2013-10-13T08:53:30Z</time>
      </trkpt>
      <trkpt lat="43.41502" lon="6.72875">
        <ele>10.711792</ele>
        <time>2013-10-13T08:53:36Z</time>
      </trkpt>
      <trkpt lat="43.41449" lon="6.72954">
        <ele>10.711792</ele>
        <time>2013-10-13T08:53:52Z</time>
      </trkpt>
      <trkpt lat="43.41442" lon="6.72964">
        <ele>9.75061</ele>
        <time>2013-10-13T08:53:54Z</time>
      </trkpt>
      <trkpt lat="43.41394" lon="6.73031">
        <ele>10.231201</ele>
        <time>2013-10-13T08:54:06Z</time>
      </trkpt>
      <trkpt lat="43.41333" lon="6.73124">
        <ele>11.192505</ele>
        <time>2013-10-13T08:54:22Z</time>
      </trkpt>
      <trkpt lat="43.41326" lon="6.73155">
        <ele>10.231201</ele>
        <time>2013-10-13T08:54:26Z</time>
      </trkpt>
      <trkpt lat="43.41314" lon="6.73172">
        <ele>10.231201</ele>
        <time>2013-10-13T08:54:30Z</time>
      </trkpt>
      <trkpt lat="43.4129" lon="6.73184">
        <ele>9.75061</ele>
        <time>2013-10-13T08:54:35Z</time>
      </trkpt>
      <trkpt lat="43.41282" lon="6.73193">
        <ele>9.269897</ele>
        <time>2013-10-13T08:54:37Z</time>
      </trkpt>
      <trkpt lat="43.41241" lon="6.73189">
        <ele>10.231201</ele>
        <time>2013-10-13T08:54:45Z</time>
      </trkpt>
      <trkpt lat="43.41223" lon="6.73191">
        <ele>10.711792</ele>
        <time>2013-10-13T08:54:53Z</time>
      </trkpt>
      <trkpt lat="43.41221" lon="6.73189">
        <ele>10.711792</ele>
        <time>2013-10-13T08:54:55Z</time>
      </trkpt>
      <trkpt lat="43.41192" lon="6.7315">
        <ele>10.711792</ele>
        <time>2013-10-13T08:55:06Z</time>
      </trkpt>
      <trkpt lat="43.41178" lon="6.73128">
        <ele>9.269897</ele>
        <time>2013-10-13T08:55:11Z</time>
      </trkpt>
      <trkpt lat="43.4118" lon="6.73106">
        <ele>9.75061</ele>
        <time>2013-10-13T08:55:15Z</time>
      </trkpt>
      <trkpt lat="43.41235" lon="6.73023">
        <ele>10.231201</ele>
        <time>2013-10-13T08:55:32Z</time>
      </trkpt>
      <trkpt lat="43.41253" lon="6.72999">
        <ele>9.75061</ele>
        <time>2013-10-13T08:55:37Z</time>
      </trkpt>
      <trkpt lat="43.41255" lon="6.72975">
        <ele>10.711792</ele>
        <time>2013-10-13T08:55:42Z</time>
      </trkpt>
      <trkpt lat="43.41243" lon="6.72895">
        <ele>11.673218</ele>
        <time>2013-10-13T08:55:54Z</time>
      </trkpt>
      <trkpt lat="43.41231" lon="6.72869">
        <ele>11.192505</ele>
        <time>2013-10-13T08:55:58Z</time>
      </trkpt>
      <trkpt lat="43.41222" lon="6.72858">
        <ele>11.192505</ele>
        <time>2013-10-13T08:56:00Z</time>
      </trkpt>
      <trkpt lat="43.41184" lon="6.72832">
        <ele>10.231201</ele>
        <time>2013-10-13T08:56:07Z</time>
      </trkpt>
      <trkpt lat="43.41176" lon="6.728">
        <ele>9.75061</ele>
        <time>2013-10-13T08:56:13Z</time>
      </trkpt>
      <trkpt lat="43.41186" lon="6.72769">
        <ele>10.231201</ele>
        <time>2013-10-13T08:56:18Z</time>
      </trkpt>
      <trkpt lat="43.41194" lon="6.72749">
        <ele>10.231201</ele>
        <time>2013-10-13T08:56:21Z</time>
      </trkpt>
      <trkpt lat="43.41194" lon="6.7269">
        <ele>10.231201</ele>
        <time>2013-10-13T08:56:30Z</time>
      </trkpt>
      <trkpt lat="43.4119" lon="6.72685">
        <ele>9.75061</ele>
        <time>2013-10-13T08:56:31Z</time>
      </trkpt>
      <trkpt lat="43.41184" lon="6.72675">
        <ele>9.269897</ele>
        <time>2013-10-13T08:56:33Z</time>
      </trkpt>
      <trkpt lat="43.41175" lon="6.72659">
        <ele>9.75061</ele>
        <time>2013-10-13T08:56:36Z</time>
      </trkpt>
      <trkpt lat="43.41158" lon="6.72638">
        <ele>10.231201</ele>
        <time>2013-10-13T08:56:41Z</time>
      </trkpt>
      <trkpt lat="43.41126" lon="6.726">
        <ele>9.75061</ele>
        <time>2013-10-13T08:56:54Z</time>
      </trkpt>
      <trkpt lat="43.41126" lon="6.72586">
        <ele>10.711792</ele>
        <time>2013-10-13T08:57:09Z</time>
      </trkpt>
      <trkpt lat="43.4113" lon="6.72579">
        <ele>10.711792</ele>
        <time>2013-10-13T08:57:21Z</time>
      </trkpt>
      <trkpt lat="43.41134" lon="6.72572">
        <ele>9.75061</ele>
        <time>2013-10-13T08:57:37Z</time>
      </trkpt>
      <trkpt lat="43.41139" lon="6.72567">
        <ele>10.231201</ele>
        <time>2013-10-13T08:57:50Z</time>
      </trkpt>
      <trkpt lat="43.41141" lon="6.72563">
        <ele>10.711792</ele>
        <time>2013-10-13T08:58:06Z</time>
      </trkpt>
      <trkpt lat="43.41146" lon="6.72555">
        <ele>10.231201</ele>
        <time>2013-10-13T08:58:22Z</time>
      </trkpt>
      <trkpt lat="43.41148" lon="6.7255">
        <ele>10.711792</ele>
        <time>2013-10-13T08:58:36Z</time>
      </trkpt>
      <trkpt lat="43.41147" lon="6.7254">
        <ele>10.711792</ele>
        <time>2013-10-13T08:58:52Z</time>
      </trkpt>
      <trkpt lat="43.41146" lon="6.72534">
        <ele>10.231201</ele>
        <time>2013-10-13T08:59:05Z</time>
      </trkpt>
      <trkpt lat="43.41145" lon="6.72526">
        <ele>9.75061</ele>
        <time>2013-10-13T08:59:17Z</time>
      </trkpt>
      <trkpt lat="43.41145" lon="6.72522">
        <ele>9.75061</ele>
        <time>2013-10-13T08:59:20Z</time>
      </trkpt>
      <trkpt lat="43.41146" lon="6.72515">
        <ele>9.75061</ele>
        <time>2013-10-13T08:59:27Z</time>
      </trkpt>
      <trkpt lat="43.41149" lon="6.72504">
        <ele>10.231201</ele>
        <time>2013-10-13T08:59:32Z</time>
      </trkpt>
      <trkpt lat="43.41159" lon="6.72466">
        <ele>10.231201</ele>
        <time>2013-10-13T08:59:46Z</time>
      </trkpt>
      <trkpt lat="43.41173" lon="6.72457">
        <ele>10.711792</ele>
        <time>2013-10-13T08:59:52Z</time>
      </trkpt>
      <trkpt lat="43.41191" lon="6.7247">
        <ele>10.231201</ele>
        <time>2013-10-13T08:59:59Z</time>
      </trkpt>
      <trkpt lat="43.41185" lon="6.72493">
        <ele>12.634399</ele>
        <time>2013-10-13T09:00:07Z</time>
      </trkpt>
      <trkpt lat="43.41158" lon="6.72507">
        <ele>13.595825</ele>
        <time>2013-10-13T09:00:17Z</time>
      </trkpt>
      <trkpt lat="43.41089" lon="6.72462">
        <ele>13.595825</ele>
        <time>2013-10-13T09:00:35Z</time>
      </trkpt>
      <trkpt lat="43.41077" lon="6.72454">
        <ele>14.076416</ele>
        <time>2013-10-13T09:00:38Z</time>
      </trkpt>
      <trkpt lat="43.41064" lon="6.72437">
        <ele>13.115112</ele>
        <time>2013-10-13T09:00:42Z</time>
      </trkpt>
      <trkpt lat="43.41049" lon="6.72423">
        <ele>11.673218</ele>
        <time>2013-10-13T09:00:51Z</time>
      </trkpt>
      <trkpt lat="43.41042" lon="6.72419">
        <ele>13.115112</ele>
        <time>2013-10-13T09:01:04Z</time>
      </trkpt>
      <trkpt lat="43.40983" lon="6.72409">
        <ele>12.634399</ele>
        <time>2013-10-13T09:01:17Z</time>
      </trkpt>
      <trkpt lat="43.40928" lon="6.7242">
        <ele>12.634399</ele>
        <time>2013-10-13T09:01:26Z</time>
      </trkpt>
      <trkpt lat="43.40904" lon="6.72389">
        <ele>11.192505</ele>
        <time>2013-10-13T09:01:32Z</time>
      </trkpt>
      <trkpt lat="43.40874" lon="6.72336">
        <ele>11.673218</ele>
        <time>2013-10-13T09:01:40Z</time>
      </trkpt>
      <trkpt lat="43.40867" lon="6.72333">
        <ele>11.192505</ele>
        <time>2013-10-13T09:01:41Z</time>
      </trkpt>
      <trkpt lat="43.40824" lon="6.7233">
        <ele>10.711792</ele>
        <time>2013-10-13T09:01:48Z</time>
      </trkpt>
      <trkpt lat="43.40746" lon="6.72301">
        <ele>11.673218</ele>
        <time>2013-10-13T09:02:01Z</time>
      </trkpt>
      <trkpt lat="43.40731" lon="6.72251">
        <ele>10.711792</ele>
        <time>2013-10-13T09:02:08Z</time>
      </trkpt>
      <trkpt lat="43.40734" lon="6.72243">
        <ele>12.153809</ele>
        <time>2013-10-13T09:02:09Z</time>
      </trkpt>
      <trkpt lat="43.40755" lon="6.72199">
        <ele>11.673218</ele>
        <time>2013-10-13T09:02:15Z</time>
      </trkpt>
      <trkpt lat="43.40788" lon="6.7212">
        <ele>11.673218</ele>
        <time>2013-10-13T09:02:26Z</time>
      </trkpt>
      <trkpt lat="43.40789" lon="6.72072">
        <ele>10.231201</ele>
        <time>2013-10-13T09:02:32Z</time>
      </trkpt>
      <trkpt lat="43.40812" lon="6.71964">
        <ele>10.231201</ele>
        <time>2013-10-13T09:02:46Z</time>
      </trkpt>
      <trkpt lat="43.40853" lon="6.71858">
        <ele>9.75061</ele>
        <time>2013-10-13T09:03:01Z</time>
      </trkpt>
      <trkpt lat="43.40886" lon="6.71803">
        <ele>10.231201</ele>
        <time>2013-10-13T09:03:10Z</time>
      </trkpt>
      <trkpt lat="43.40894" lon="6.71783">
        <ele>10.231201</ele>
        <time>2013-10-13T09:03:13Z</time>
      </trkpt>
      <trkpt lat="43.40902" lon="6.71738">
        <ele>10.231201</ele>
        <time>2013-10-13T09:03:19Z</time>
      </trkpt>
      <trkpt lat="43.40922" lon="6.71642">
        <ele>10.231201</ele>
        <time>2013-10-13T09:03:31Z</time>
      </trkpt>
      <trkpt lat="43.40945" lon="6.715">
        <ele>10.231201</ele>
        <time>2013-10-13T09:03:49Z</time>
      </trkpt>
      <trkpt lat="43.4096" lon="6.7147">
        <ele>11.192505</ele>
        <time>2013-10-13T09:03:54Z</time>
      </trkpt>
      <trkpt lat="43.41037" lon="6.71415">
        <ele>10.231201</ele>
        <time>2013-10-13T09:04:09Z</time>
      </trkpt>
      <trkpt lat="43.41091" lon="6.71325">
        <ele>10.711792</ele>
        <time>2013-10-13T09:04:24Z</time>
      </trkpt>
      <trkpt lat="43.41102" lon="6.71306">
        <ele>10.231201</ele>
        <time>2013-10-13T09:04:27Z</time>
      </trkpt>
      <trkpt lat="43.4111" lon="6.71295">
        <ele>10.231201</ele>
        <time>2013-10-13T09:04:29Z</time>
      </trkpt>
      <trkpt lat="43.41129" lon="6.71279">
        <ele>9.75061</ele>
        <time>2013-10-13T09:04:33Z</time>
      </trkpt>
      <trkpt lat="43.41145" lon="6.71273">
        <ele>10.231201</ele>
        <time>2013-10-13T09:04:36Z</time>
      </trkpt>
      <trkpt lat="43.41164" lon="6.71257">
        <ele>10.231201</ele>
        <time>2013-10-13T09:04:40Z</time>
      </trkpt>
      <trkpt lat="43.41229" lon="6.71185">
        <ele>10.711792</ele>
        <time>2013-10-13T09:04:54Z</time>
      </trkpt>
      <trkpt lat="43.41276" lon="6.71069">
        <ele>9.75061</ele>
        <time>2013-10-13T09:05:11Z</time>
      </trkpt>
      <trkpt lat="43.41341" lon="6.70976">
        <ele>10.711792</ele>
        <time>2013-10-13T09:05:27Z</time>
      </trkpt>
      <trkpt lat="43.41405" lon="6.70881">
        <ele>10.231201</ele>
        <time>2013-10-13T09:05:43Z</time>
      </trkpt>
      <trkpt lat="43.41429" lon="6.70811">
        <ele>9.75061</ele>
        <time>2013-10-13T09:05:53Z</time>
      </trkpt>
      <trkpt lat="43.4143" lon="6.70779">
        <ele>11.192505</ele>
        <time>2013-10-13T09:05:57Z</time>
      </trkpt>
      <trkpt lat="43.41444" lon="6.70724">
        <ele>10.711792</ele>
        <time>2013-10-13T09:06:05Z</time>
      </trkpt>
      <trkpt lat="43.41452" lon="6.7069">
        <ele>10.231201</ele>
        <time>2013-10-13T09:06:10Z</time>
      </trkpt>
      <trkpt lat="43.41445" lon="6.70662">
        <ele>9.269897</ele>
        <time>2013-10-13T09:06:14Z</time>
      </trkpt>
      <trkpt lat="43.41435" lon="6.70654">
        <ele>9.75061</ele>
        <time>2013-10-13T09:06:16Z</time>
      </trkpt>
      <trkpt lat="43.41394" lon="6.70636">
        <ele>9.269897</ele>
        <time>2013-10-13T09:06:23Z</time>
      </trkpt>
      <trkpt lat="43.41373" lon="6.7064">
        <ele>9.269897</ele>
        <time>2013-10-13T09:06:27Z</time>
      </trkpt>
      <trkpt lat="43.41349" lon="6.70661">
        <ele>8.789185</ele>
        <time>2013-10-13T09:06:36Z</time>
      </trkpt>
      <trkpt lat="43.41332" lon="6.70641">
        <ele>9.269897</ele>
        <time>2013-10-13T09:06:42Z</time>
      </trkpt>
      <trkpt lat="43.41309" lon="6.7061">
        <ele>9.269897</ele>
        <time>2013-10-13T09:06:49Z</time>
      </trkpt>
      <trkpt lat="43.41302" lon="6.70602">
        <ele>9.75061</ele>
        <time>2013-10-13T09:06:51Z</time>
      </trkpt>
      <trkpt lat="43.41288" lon="6.70587">
        <ele>10.231201</ele>
        <time>2013-10-13T09:06:55Z</time>
      </trkpt>
      <trkpt lat="43.41257" lon="6.70559">
        <ele>11.673218</ele>
        <time>2013-10-13T09:07:04Z</time>
      </trkpt>
      <trkpt lat="43.41257" lon="6.70528">
        <ele>12.634399</ele>
        <time>2013-10-13T09:07:10Z</time>
      </trkpt>
      <trkpt lat="43.41322" lon="6.7038">
        <ele>11.673218</ele>
        <time>2013-10-13T09:07:35Z</time>
      </trkpt>
      <trkpt lat="43.41334" lon="6.70275">
        <ele>11.673218</ele>
        <time>2013-10-13T09:07:50Z</time>
      </trkpt>
      <trkpt lat="43.41311" lon="6.70163">
        <ele>13.115112</ele>
        <time>2013-10-13T09:08:08Z</time>
      </trkpt>
      <trkpt lat="43.41289" lon="6.70112">
        <ele>12.634399</ele>
        <time>2013-10-13T09:08:17Z</time>
      </trkpt>
      <trkpt lat="43.41287" lon="6.70106">
        <ele>12.634399</ele>
        <time>2013-10-13T09:08:18Z</time>
      </trkpt>
      <trkpt lat="43.41281" lon="6.70094">
        <ele>13.115112</ele>
        <time>2013-10-13T09:08:20Z</time>
      </trkpt>
      <trkpt lat="43.4128" lon="6.70063">
        <ele>15.518433</ele>
        <time>2013-10-13T09:08:26Z</time>
      </trkpt>
      <trkpt lat="43.41278" lon="6.70031">
        <ele>13.115112</ele>
        <time>2013-10-13T09:08:30Z</time>
      </trkpt>
      <trkpt lat="43.41277" lon="6.70013">
        <ele>12.634399</ele>
        <time>2013-10-13T09:08:32Z</time>
      </trkpt>
      <trkpt lat="43.41249" lon="6.69883">
        <ele>12.634399</ele>
        <time>2013-10-13T09:08:49Z</time>
      </trkpt>
      <trkpt lat="43.41247" lon="6.69876">
        <ele>13.115112</ele>
        <time>2013-10-13T09:08:50Z</time>
      </trkpt>
      <trkpt lat="43.41234" lon="6.69844">
        <ele>13.115112</ele>
        <time>2013-10-13T09:08:55Z</time>
      </trkpt>
      <trkpt lat="43.41223" lon="6.69826">
        <ele>12.634399</ele>
        <time>2013-10-13T09:08:58Z</time>
      </trkpt>
      <trkpt lat="43.41196" lon="6.69744">
        <ele>12.634399</ele>
        <time>2013-10-13T09:09:09Z</time>
      </trkpt>
      <trkpt lat="43.41182" lon="6.69718">
        <ele>12.634399</ele>
        <time>2013-10-13T09:09:13Z</time>
      </trkpt>
      <trkpt lat="43.41175" lon="6.69705">
        <ele>12.634399</ele>
        <time>2013-10-13T09:09:15Z</time>
      </trkpt>
      <trkpt lat="43.41135" lon="6.69691">
        <ele>13.595825</ele>
        <time>2013-10-13T09:09:24Z</time>
      </trkpt>
      <trkpt lat="43.41126" lon="6.69714">
        <ele>13.595825</ele>
        <time>2013-10-13T09:09:28Z</time>
      </trkpt>
      <trkpt lat="43.41113" lon="6.6975">
        <ele>17.441162</ele>
        <time>2013-10-13T09:09:36Z</time>
      </trkpt>
      <trkpt lat="43.41092" lon="6.69785">
        <ele>21.286377</ele>
        <time>2013-10-13T09:09:48Z</time>
      </trkpt>
      <trkpt lat="43.41077" lon="6.69818">
        <ele>24.651001</ele>
        <time>2013-10-13T09:09:59Z</time>
      </trkpt>
      <trkpt lat="43.41059" lon="6.69871">
        <ele>28.015503</ele>
        <time>2013-10-13T09:10:16Z</time>
      </trkpt>
      <trkpt lat="43.41044" lon="6.69905">
        <ele>31.860718</ele>
        <time>2013-10-13T09:10:30Z</time>
      </trkpt>
      <trkpt lat="43.41048" lon="6.69915">
        <ele>32.341553</ele>
        <time>2013-10-13T09:10:34Z</time>
      </trkpt>
      <trkpt lat="43.41037" lon="6.69948">
        <ele>35.225464</ele>
        <time>2013-10-13T09:10:48Z</time>
      </trkpt>
      <trkpt lat="43.41029" lon="6.69984">
        <ele>38.590088</ele>
        <time>2013-10-13T09:11:04Z</time>
      </trkpt>
      <trkpt lat="43.41031" lon="6.70013">
        <ele>41.954712</ele>
        <time>2013-10-13T09:11:17Z</time>
      </trkpt>
      <trkpt lat="43.41033" lon="6.70045">
        <ele>45.319214</ele>
        <time>2013-10-13T09:11:32Z</time>
      </trkpt>
      <trkpt lat="43.41043" lon="6.70085">
        <ele>48.203369</ele>
        <time>2013-10-13T09:11:49Z</time>
      </trkpt>
      <trkpt lat="43.41045" lon="6.70101">
        <ele>48.68396</ele>
        <time>2013-10-13T09:11:59Z</time>
      </trkpt>
      <trkpt lat="43.41038" lon="6.70119">
        <ele>49.645264</ele>
        <time>2013-10-13T09:12:11Z</time>
      </trkpt>
      <trkpt lat="43.41036" lon="6.70125">
        <ele>50.606567</ele>
        <time>2013-10-13T09:12:16Z</time>
      </trkpt>
      <trkpt lat="43.41031" lon="6.70123">
        <ele>53.009766</ele>
        <time>2013-10-13T09:12:22Z</time>
      </trkpt>
      <trkpt lat="43.41028" lon="6.70123">
        <ele>54.451782</ele>
        <time>2013-10-13T09:12:24Z</time>
      </trkpt>
      <trkpt lat="43.4101" lon="6.7014">
        <ele>56.374512</ele>
        <time>2013-10-13T09:12:38Z</time>
      </trkpt>
      <trkpt lat="43.41005" lon="6.70152">
        <ele>57.335815</ele>
        <time>2013-10-13T09:12:43Z</time>
      </trkpt>
      <trkpt lat="43.40971" lon="6.70138">
        <ele>55.893799</ele>
        <time>2013-10-13T09:12:52Z</time>
      </trkpt>
      <trkpt lat="43.40955" lon="6.70144">
        <ele>58.77771</ele>
        <time>2013-10-13T09:13:01Z</time>
      </trkpt>
      <trkpt lat="43.40945" lon="6.70156">
        <ele>61.661743</ele>
        <time>2013-10-13T09:13:10Z</time>
      </trkpt>
      <trkpt lat="43.4093" lon="6.70168">
        <ele>65.026367</ele>
        <time>2013-10-13T09:13:20Z</time>
      </trkpt>
      <trkpt lat="43.40923" lon="6.7017">
        <ele>66.468262</ele>
        <time>2013-10-13T09:13:24Z</time>
      </trkpt>
      <trkpt lat="43.40889" lon="6.70177">
        <ele>66.948975</ele>
        <time>2013-10-13T09:13:36Z</time>
      </trkpt>
      <trkpt lat="43.40878" lon="6.70202">
        <ele>66.948975</ele>
        <time>2013-10-13T09:13:42Z</time>
      </trkpt>
      <trkpt lat="43.4084" lon="6.7024">
        <ele>63.584351</ele>
        <time>2013-10-13T09:13:52Z</time>
      </trkpt>
      <trkpt lat="43.40834" lon="6.70241">
        <ele>64.065063</ele>
        <time>2013-10-13T09:13:53Z</time>
      </trkpt>
      <trkpt lat="43.40816" lon="6.70245">
        <ele>63.103638</ele>
        <time>2013-10-13T09:13:56Z</time>
      </trkpt>
      <trkpt lat="43.40797" lon="6.70242">
        <ele>63.103638</ele>
        <time>2013-10-13T09:14:00Z</time>
      </trkpt>
      <trkpt lat="43.40768" lon="6.70227">
        <ele>64.545654</ele>
        <time>2013-10-13T09:14:07Z</time>
      </trkpt>
      <trkpt lat="43.40735" lon="6.70194">
        <ele>66.948975</ele>
        <time>2013-10-13T09:14:20Z</time>
      </trkpt>
      <trkpt lat="43.40714" lon="6.70184">
        <ele>69.832886</ele>
        <time>2013-10-13T09:14:31Z</time>
      </trkpt>
      <trkpt lat="43.40702" lon="6.70175">
        <ele>72.716919</ele>
        <time>2013-10-13T09:14:38Z</time>
      </trkpt>
      <trkpt lat="43.407" lon="6.70174">
        <ele>72.716919</ele>
        <time>2013-10-13T09:14:39Z</time>
      </trkpt>
      <trkpt lat="43.40659" lon="6.70157">
        <ele>74.158813</ele>
        <time>2013-10-13T09:14:54Z</time>
      </trkpt>
      <trkpt lat="43.40601" lon="6.70126">
        <ele>73.678223</ele>
        <time>2013-10-13T09:15:10Z</time>
      </trkpt>
      <trkpt lat="43.40581" lon="6.70117">
        <ele>73.197632</ele>
        <time>2013-10-13T09:15:14Z</time>
      </trkpt>
      <trkpt lat="43.40557" lon="6.70114">
        <ele>72.236206</ele>
        <time>2013-10-13T09:15:18Z</time>
      </trkpt>
      <trkpt lat="43.40487" lon="6.70102">
        <ele>73.678223</ele>
        <time>2013-10-13T09:15:34Z</time>
      </trkpt>
      <trkpt lat="43.40463" lon="6.70105">
        <ele>76.562134</ele>
        <time>2013-10-13T09:15:45Z</time>
      </trkpt>
      <trkpt lat="43.40456" lon="6.70105">
        <ele>78.965454</ele>
        <time>2013-10-13T09:15:49Z</time>
      </trkpt>
      <trkpt lat="43.40437" lon="6.70098">
        <ele>82.330078</ele>
        <time>2013-10-13T09:16:01Z</time>
      </trkpt>
      <trkpt lat="43.404" lon="6.70075">
        <ele>85.213989</ele>
        <time>2013-10-13T09:16:19Z</time>
      </trkpt>
      <trkpt lat="43.40358" lon="6.70059">
        <ele>87.136597</ele>
        <time>2013-10-13T09:16:34Z</time>
      </trkpt>
      <trkpt lat="43.40316" lon="6.7003">
        <ele>87.617188</ele>
        <time>2013-10-13T09:16:48Z</time>
      </trkpt>
      <trkpt lat="43.40267" lon="6.69976">
        <ele>87.617188</ele>
        <time>2013-10-13T09:17:02Z</time>
      </trkpt>
      <trkpt lat="43.40246" lon="6.69955">
        <ele>85.213989</ele>
        <time>2013-10-13T09:17:07Z</time>
      </trkpt>
      <trkpt lat="43.40241" lon="6.69951">
        <ele>83.291382</ele>
        <time>2013-10-13T09:17:08Z</time>
      </trkpt>
      <trkpt lat="43.40218" lon="6.69946">
        <ele>79.926636</ele>
        <time>2013-10-13T09:17:13Z</time>
      </trkpt>
      <trkpt lat="43.40208" lon="6.69953">
        <ele>78.004028</ele>
        <time>2013-10-13T09:17:15Z</time>
      </trkpt>
      <trkpt lat="43.40182" lon="6.69975">
        <ele>74.158813</ele>
        <time>2013-10-13T09:17:19Z</time>
      </trkpt>
      <trkpt lat="43.40164" lon="6.69997">
        <ele>71.755493</ele>
        <time>2013-10-13T09:17:22Z</time>
      </trkpt>
      <trkpt lat="43.40112" lon="6.70057">
        <ele>71.274902</ele>
        <time>2013-10-13T09:17:31Z</time>
      </trkpt>
      <trkpt lat="43.40092" lon="6.70092">
        <ele>75.120239</ele>
        <time>2013-10-13T09:17:40Z</time>
      </trkpt>
      <trkpt lat="43.40091" lon="6.70094">
        <ele>75.120239</ele>
        <time>2013-10-13T09:17:41Z</time>
      </trkpt>
      <trkpt lat="43.40079" lon="6.70117">
        <ele>78.484741</ele>
        <time>2013-10-13T09:17:52Z</time>
      </trkpt>
      <trkpt lat="43.40063" lon="6.70131">
        <ele>82.330078</ele>
        <time>2013-10-13T09:18:04Z</time>
      </trkpt>
      <trkpt lat="43.40037" lon="6.70119">
        <ele>85.213989</ele>
        <time>2013-10-13T09:18:21Z</time>
      </trkpt>
      <trkpt lat="43.40015" lon="6.70108">
        <ele>88.578735</ele>
        <time>2013-10-13T09:18:36Z</time>
      </trkpt>
      <trkpt lat="43.39993" lon="6.70107">
        <ele>91.943237</ele>
        <time>2013-10-13T09:18:50Z</time>
      </trkpt>
      <trkpt lat="43.39963" lon="6.70119">
        <ele>95.307739</ele>
        <time>2013-10-13T09:19:10Z</time>
      </trkpt>
      <trkpt lat="43.39951" lon="6.70123">
        <ele>98.191895</ele>
        <time>2013-10-13T09:19:19Z</time>
      </trkpt>
      <trkpt lat="43.39933" lon="6.70129">
        <ele>101.075684</ele>
        <time>2013-10-13T09:19:34Z</time>
      </trkpt>
      <trkpt lat="43.39932" lon="6.70129">
        <ele>101.556396</ele>
        <time>2013-10-13T09:19:35Z</time>
      </trkpt>
      <trkpt lat="43.39924" lon="6.70133">
        <ele>103.959717</ele>
        <time>2013-10-13T09:19:42Z</time>
      </trkpt>
      <trkpt lat="43.39904" lon="6.70137">
        <ele>106.843628</ele>
        <time>2013-10-13T09:19:56Z</time>
      </trkpt>
      <trkpt lat="43.39876" lon="6.70159">
        <ele>109.727661</ele>
        <time>2013-10-13T09:20:15Z</time>
      </trkpt>
      <trkpt lat="43.39837" lon="6.70188">
        <ele>110.688843</ele>
        <time>2013-10-13T09:20:30Z</time>
      </trkpt>
      <trkpt lat="43.39755" lon="6.70178">
        <ele>110.208252</ele>
        <time>2013-10-13T09:20:50Z</time>
      </trkpt>
      <trkpt lat="43.39692" lon="6.70159">
        <ele>108.285645</ele>
        <time>2013-10-13T09:21:03Z</time>
      </trkpt>
      <trkpt lat="43.39648" lon="6.7012">
        <ele>110.208252</ele>
        <time>2013-10-13T09:21:17Z</time>
      </trkpt>
      <trkpt lat="43.39637" lon="6.70099">
        <ele>113.572998</ele>
        <time>2013-10-13T09:21:25Z</time>
      </trkpt>
      <trkpt lat="43.39635" lon="6.70094">
        <ele>115.014893</ele>
        <time>2013-10-13T09:21:27Z</time>
      </trkpt>
      <trkpt lat="43.39614" lon="6.70065">
        <ele>116.456787</ele>
        <time>2013-10-13T09:21:41Z</time>
      </trkpt>
      <trkpt lat="43.39573" lon="6.70073">
        <ele>118.379395</ele>
        <time>2013-10-13T09:21:56Z</time>
      </trkpt>
      <trkpt lat="43.3953" lon="6.70096">
        <ele>115.014893</ele>
        <time>2013-10-13T09:22:06Z</time>
      </trkpt>
      <trkpt lat="43.39524" lon="6.70099">
        <ele>114.53418</ele>
        <time>2013-10-13T09:22:07Z</time>
      </trkpt>
      <trkpt lat="43.39453" lon="6.70105">
        <ele>114.053589</ele>
        <time>2013-10-13T09:22:20Z</time>
      </trkpt>
      <trkpt lat="43.39427" lon="6.70099">
        <ele>110.208252</ele>
        <time>2013-10-13T09:22:24Z</time>
      </trkpt>
      <trkpt lat="43.39421" lon="6.70098">
        <ele>110.688843</ele>
        <time>2013-10-13T09:22:25Z</time>
      </trkpt>
      <trkpt lat="43.39357" lon="6.70069">
        <ele>109.727661</ele>
        <time>2013-10-13T09:22:37Z</time>
      </trkpt>
      <trkpt lat="43.39353" lon="6.70065">
        <ele>109.727661</ele>
        <time>2013-10-13T09:22:38Z</time>
      </trkpt>
      <trkpt lat="43.39293" lon="6.69986">
        <ele>109.246948</ele>
        <time>2013-10-13T09:22:52Z</time>
      </trkpt>
      <trkpt lat="43.39261" lon="6.69946">
        <ele>112.611572</ele>
        <time>2013-10-13T09:23:03Z</time>
      </trkpt>
      <trkpt lat="43.39245" lon="6.69936">
        <ele>112.130981</ele>
        <time>2013-10-13T09:23:07Z</time>
      </trkpt>
      <trkpt lat="43.39231" lon="6.69932">
        <ele>111.650269</ele>
        <time>2013-10-13T09:23:10Z</time>
      </trkpt>
      <trkpt lat="43.39202" lon="6.69905">
        <ele>108.766235</ele>
        <time>2013-10-13T09:23:16Z</time>
      </trkpt>
      <trkpt lat="43.39173" lon="6.69869">
        <ele>109.727661</ele>
        <time>2013-10-13T09:23:24Z</time>
      </trkpt>
      <trkpt lat="43.39162" lon="6.69862">
        <ele>113.092285</ele>
        <time>2013-10-13T09:23:29Z</time>
      </trkpt>
      <trkpt lat="43.39159" lon="6.6986">
        <ele>113.572998</ele>
        <time>2013-10-13T09:23:31Z</time>
      </trkpt>
      <trkpt lat="43.39141" lon="6.69849">
        <ele>117.418213</ele>
        <time>2013-10-13T09:23:42Z</time>
      </trkpt>
      <trkpt lat="43.3913" lon="6.69822">
        <ele>119.821411</ele>
        <time>2013-10-13T09:23:55Z</time>
      </trkpt>
      <trkpt lat="43.39127" lon="6.69782">
        <ele>122.224731</ele>
        <time>2013-10-13T09:24:11Z</time>
      </trkpt>
      <trkpt lat="43.39128" lon="6.69743">
        <ele>125.589355</ele>
        <time>2013-10-13T09:24:31Z</time>
      </trkpt>
      <trkpt lat="43.39126" lon="6.69716">
        <ele>128.473389</ele>
        <time>2013-10-13T09:24:45Z</time>
      </trkpt>
      <trkpt lat="43.39118" lon="6.69684">
        <ele>131.837891</ele>
        <time>2013-10-13T09:25:02Z</time>
      </trkpt>
      <trkpt lat="43.39113" lon="6.69668">
        <ele>134.721924</ele>
        <time>2013-10-13T09:25:10Z</time>
      </trkpt>
      <trkpt lat="43.39107" lon="6.69633">
        <ele>137.605835</ele>
        <time>2013-10-13T09:25:27Z</time>
      </trkpt>
      <trkpt lat="43.391" lon="6.69604">
        <ele>140.970459</ele>
        <time>2013-10-13T09:25:43Z</time>
      </trkpt>
      <trkpt lat="43.39094" lon="6.69584">
        <ele>144.335205</ele>
        <time>2013-10-13T09:25:55Z</time>
      </trkpt>
      <trkpt lat="43.3909" lon="6.6957">
        <ele>145.7771</ele>
        <time>2013-10-13T09:26:03Z</time>
      </trkpt>
      <trkpt lat="43.39078" lon="6.69543">
        <ele>148.661011</ele>
        <time>2013-10-13T09:26:20Z</time>
      </trkpt>
      <trkpt lat="43.39055" lon="6.69526">
        <ele>151.544922</ele>
        <time>2013-10-13T09:26:39Z</time>
      </trkpt>
      <trkpt lat="43.39035" lon="6.69513">
        <ele>154.909546</ele>
        <time>2013-10-13T09:26:55Z</time>
      </trkpt>
      <trkpt lat="43.39023" lon="6.69503">
        <ele>158.27417</ele>
        <time>2013-10-13T09:27:05Z</time>
      </trkpt>
      <trkpt lat="43.39001" lon="6.69484">
        <ele>160.196899</ele>
        <time>2013-10-13T09:27:22Z</time>
      </trkpt>
      <trkpt lat="43.38981" lon="6.69468">
        <ele>163.561523</ele>
        <time>2013-10-13T09:27:38Z</time>
      </trkpt>
      <trkpt lat="43.38967" lon="6.69449">
        <ele>166.926025</ele>
        <time>2013-10-13T09:27:53Z</time>
      </trkpt>
      <trkpt lat="43.38963" lon="6.6944">
        <ele>168.848755</ele>
        <time>2013-10-13T09:27:59Z</time>
      </trkpt>
      <trkpt lat="43.38953" lon="6.69408">
        <ele>171.252075</ele>
        <time>2013-10-13T09:28:18Z</time>
      </trkpt>
      <trkpt lat="43.38945" lon="6.69382">
        <ele>174.616577</ele>
        <time>2013-10-13T09:28:33Z</time>
      </trkpt>
      <trkpt lat="43.38935" lon="6.69355">
        <ele>177.981201</ele>
        <time>2013-10-13T09:28:50Z</time>
      </trkpt>
      <trkpt lat="43.38925" lon="6.69338">
        <ele>180.865234</ele>
        <time>2013-10-13T09:29:02Z</time>
      </trkpt>
      <trkpt lat="43.3892" lon="6.6933">
        <ele>183.268433</ele>
        <time>2013-10-13T09:29:13Z</time>
      </trkpt>
      <trkpt lat="43.38909" lon="6.69312">
        <ele>185.671753</ele>
        <time>2013-10-13T09:29:34Z</time>
      </trkpt>
      <trkpt lat="43.38891" lon="6.69304">
        <ele>189.036377</ele>
        <time>2013-10-13T09:29:50Z</time>
      </trkpt>
      <trkpt lat="43.38869" lon="6.69294">
        <ele>192.401123</ele>
        <time>2013-10-13T09:30:10Z</time>
      </trkpt>
      <trkpt lat="43.38849" lon="6.69283">
        <ele>195.284912</ele>
        <time>2013-10-13T09:30:29Z</time>
      </trkpt>
      <trkpt lat="43.38835" lon="6.69274">
        <ele>198.649536</ele>
        <time>2013-10-13T09:30:45Z</time>
      </trkpt>
      <trkpt lat="43.38818" lon="6.69262">
        <ele>200.572266</ele>
        <time>2013-10-13T09:31:03Z</time>
      </trkpt>
      <trkpt lat="43.38805" lon="6.69239">
        <ele>203.456177</ele>
        <time>2013-10-13T09:31:21Z</time>
      </trkpt>
      <trkpt lat="43.3879" lon="6.69217">
        <ele>206.820679</ele>
        <time>2013-10-13T09:31:40Z</time>
      </trkpt>
      <trkpt lat="43.38784" lon="6.69211">
        <ele>209.704834</ele>
        <time>2013-10-13T09:31:47Z</time>
      </trkpt>
      <trkpt lat="43.38773" lon="6.69203">
        <ele>209.704834</ele>
        <time>2013-10-13T09:31:58Z</time>
      </trkpt>
      <trkpt lat="43.38761" lon="6.69187">
        <ele>210.666016</ele>
        <time>2013-10-13T09:32:16Z</time>
      </trkpt>
      <trkpt lat="43.38738" lon="6.69161">
        <ele>212.588623</ele>
        <time>2013-10-13T09:32:33Z</time>
      </trkpt>
      <trkpt lat="43.3871" lon="6.69137">
        <ele>211.146729</ele>
        <time>2013-10-13T09:32:52Z</time>
      </trkpt>
      <trkpt lat="43.38711" lon="6.69135">
        <ele>213.069336</ele>
        <time>2013-10-13T09:32:54Z</time>
      </trkpt>
      <trkpt lat="43.38716" lon="6.6912">
        <ele>216.43396</ele>
        <time>2013-10-13T09:33:09Z</time>
      </trkpt>
      <trkpt lat="43.38726" lon="6.69111">
        <ele>219.798584</ele>
        <time>2013-10-13T09:33:23Z</time>
      </trkpt>
      <trkpt lat="43.38729" lon="6.69108">
        <ele>220.279175</ele>
        <time>2013-10-13T09:33:28Z</time>
      </trkpt>
      <trkpt lat="43.38749" lon="6.69107">
        <ele>222.201782</ele>
        <time>2013-10-13T09:33:47Z</time>
      </trkpt>
      <trkpt lat="43.3877" lon="6.69122">
        <ele>224.605225</ele>
        <time>2013-10-13T09:34:05Z</time>
      </trkpt>
      <trkpt lat="43.38772" lon="6.69123">
        <ele>224.124512</ele>
        <time>2013-10-13T09:34:07Z</time>
      </trkpt>
      <trkpt lat="43.38775" lon="6.69126">
        <ele>224.124512</ele>
        <time>2013-10-13T09:34:21Z</time>
      </trkpt>
      <trkpt lat="43.38777" lon="6.69127">
        <ele>225.085938</ele>
        <time>2013-10-13T09:34:42Z</time>
      </trkpt>
      <trkpt lat="43.38774" lon="6.69125">
        <ele>223.163208</ele>
        <time>2013-10-13T09:35:07Z</time>
      </trkpt>
      <trkpt lat="43.38775" lon="6.69125">
        <ele>225.566528</ele>
        <time>2013-10-13T09:36:28Z</time>
      </trkpt>
      <trkpt lat="43.38776" lon="6.69126">
        <ele>224.605225</ele>
        <time>2013-10-13T09:36:44Z</time>
      </trkpt>
      <trkpt lat="43.38777" lon="6.69126">
        <ele>225.566528</ele>
        <time>2013-10-13T09:36:45Z</time>
      </trkpt>
      <trkpt lat="43.38802" lon="6.69141">
        <ele>225.566528</ele>
        <time>2013-10-13T09:37:01Z</time>
      </trkpt>
      <trkpt lat="43.38827" lon="6.69134">
        <ele>224.605225</ele>
        <time>2013-10-13T09:37:10Z</time>
      </trkpt>
      <trkpt lat="43.38845" lon="6.69119">
        <ele>221.240601</ele>
        <time>2013-10-13T09:37:16Z</time>
      </trkpt>
      <trkpt lat="43.38852" lon="6.69114">
        <ele>219.317993</ele>
        <time>2013-10-13T09:37:18Z</time>
      </trkpt>
      <trkpt lat="43.38891" lon="6.69084">
        <ele>214.991943</ele>
        <time>2013-10-13T09:37:28Z</time>
      </trkpt>
      <trkpt lat="43.38894" lon="6.69081">
        <ele>214.991943</ele>
        <time>2013-10-13T09:37:29Z</time>
      </trkpt>
      <trkpt lat="43.3891" lon="6.69066">
        <ele>213.069336</ele>
        <time>2013-10-13T09:37:34Z</time>
      </trkpt>
      <trkpt lat="43.3893" lon="6.69053">
        <ele>209.704834</ele>
        <time>2013-10-13T09:37:40Z</time>
      </trkpt>
      <trkpt lat="43.38946" lon="6.69048">
        <ele>206.820679</ele>
        <time>2013-10-13T09:37:44Z</time>
      </trkpt>
      <trkpt lat="43.38949" lon="6.69047">
        <ele>206.820679</ele>
        <time>2013-10-13T09:37:45Z</time>
      </trkpt>
      <trkpt lat="43.38956" lon="6.69044">
        <ele>206.340088</ele>
        <time>2013-10-13T09:37:47Z</time>
      </trkpt>
      <trkpt lat="43.38991" lon="6.69038">
        <ele>201.533569</ele>
        <time>2013-10-13T09:37:58Z</time>
      </trkpt>
      <trkpt lat="43.39002" lon="6.69034">
        <ele>199.61084</ele>
        <time>2013-10-13T09:38:02Z</time>
      </trkpt>
      <trkpt lat="43.3901" lon="6.69031">
        <ele>197.688232</ele>
        <time>2013-10-13T09:38:05Z</time>
      </trkpt>
      <trkpt lat="43.39019" lon="6.69027">
        <ele>196.246338</ele>
        <time>2013-10-13T09:38:08Z</time>
      </trkpt>
      <trkpt lat="43.39036" lon="6.69019">
        <ele>192.881714</ele>
        <time>2013-10-13T09:38:15Z</time>
      </trkpt>
      <trkpt lat="43.39047" lon="6.69014">
        <ele>190.958984</ele>
        <time>2013-10-13T09:38:26Z</time>
      </trkpt>
      <trkpt lat="43.39055" lon="6.69008">
        <ele>188.555786</ele>
        <time>2013-10-13T09:38:33Z</time>
      </trkpt>
      <trkpt lat="43.39068" lon="6.68999">
        <ele>185.671753</ele>
        <time>2013-10-13T09:38:41Z</time>
      </trkpt>
      <trkpt lat="43.39075" lon="6.68996">
        <ele>184.229858</ele>
        <time>2013-10-13T09:38:56Z</time>
      </trkpt>
      <trkpt lat="43.39088" lon="6.68991">
        <ele>180.865234</ele>
        <time>2013-10-13T09:39:09Z</time>
      </trkpt>
      <trkpt lat="43.39099" lon="6.68977">
        <ele>178.942627</ele>
        <time>2013-10-13T09:39:20Z</time>
      </trkpt>
      <trkpt lat="43.39104" lon="6.68969">
        <ele>177.02002</ele>
        <time>2013-10-13T09:39:25Z</time>
      </trkpt>
      <trkpt lat="43.39111" lon="6.68964">
        <ele>175.09729</ele>
        <time>2013-10-13T09:39:30Z</time>
      </trkpt>
      <trkpt lat="43.39122" lon="6.68958">
        <ele>172.69397</ele>
        <time>2013-10-13T09:39:44Z</time>
      </trkpt>
      <trkpt lat="43.39126" lon="6.68956">
        <ele>172.213257</ele>
        <time>2013-10-13T09:39:58Z</time>
      </trkpt>
      <trkpt lat="43.39142" lon="6.68951">
        <ele>167.406738</ele>
        <time>2013-10-13T09:40:04Z</time>
      </trkpt>
      <trkpt lat="43.39145" lon="6.68951">
        <ele>167.406738</ele>
        <time>2013-10-13T09:40:05Z</time>
      </trkpt>
      <trkpt lat="43.39148" lon="6.68952">
        <ele>166.926025</ele>
        <time>2013-10-13T09:40:06Z</time>
      </trkpt>
      <trkpt lat="43.39167" lon="6.68934">
        <ele>165.003418</ele>
        <time>2013-10-13T09:40:12Z</time>
      </trkpt>
      <trkpt lat="43.39175" lon="6.68928">
        <ele>163.080811</ele>
        <time>2013-10-13T09:40:14Z</time>
      </trkpt>
      <trkpt lat="43.39183" lon="6.68922">
        <ele>162.119507</ele>
        <time>2013-10-13T09:40:16Z</time>
      </trkpt>
      <trkpt lat="43.39202" lon="6.68921">
        <ele>158.754761</ele>
        <time>2013-10-13T09:40:20Z</time>
      </trkpt>
      <trkpt lat="43.39208" lon="6.68921">
        <ele>158.754761</ele>
        <time>2013-10-13T09:40:21Z</time>
      </trkpt>
      <trkpt lat="43.39231" lon="6.68918">
        <ele>157.312866</ele>
        <time>2013-10-13T09:40:25Z</time>
      </trkpt>
      <trkpt lat="43.39268" lon="6.68924">
        <ele>154.428955</ele>
        <time>2013-10-13T09:40:35Z</time>
      </trkpt>
      <trkpt lat="43.39274" lon="6.68925">
        <ele>152.986938</ele>
        <time>2013-10-13T09:40:38Z</time>
      </trkpt>
      <trkpt lat="43.39274" lon="6.68925">
        <ele>151.064209</ele>
        <time>2013-10-13T09:40:39Z</time>
      </trkpt>
      <trkpt lat="43.39274" lon="6.68926">
        <ele>152.025757</ele>
        <time>2013-10-13T09:40:52Z</time>
      </trkpt>
      <trkpt lat="43.39274" lon="6.68926">
        <ele>151.544922</ele>
        <time>2013-10-13T09:40:59Z</time>
      </trkpt>
      <trkpt lat="43.39291" lon="6.68914">
        <ele>148.18042</ele>
        <time>2013-10-13T09:41:09Z</time>
      </trkpt>
      <trkpt lat="43.39305" lon="6.68906">
        <ele>144.815796</ele>
        <time>2013-10-13T09:41:14Z</time>
      </trkpt>
      <trkpt lat="43.39337" lon="6.68885">
        <ele>141.45105</ele>
        <time>2013-10-13T09:41:24Z</time>
      </trkpt>
      <trkpt lat="43.39346" lon="6.68889">
        <ele>138.086548</ele>
        <time>2013-10-13T09:41:27Z</time>
      </trkpt>
      <trkpt lat="43.3937" lon="6.68898">
        <ele>134.721924</ele>
        <time>2013-10-13T09:41:33Z</time>
      </trkpt>
      <trkpt lat="43.39376" lon="6.68901">
        <ele>133.760498</ele>
        <time>2013-10-13T09:41:35Z</time>
      </trkpt>
      <trkpt lat="43.39389" lon="6.68908">
        <ele>132.318604</ele>
        <time>2013-10-13T09:41:39Z</time>
      </trkpt>
      <trkpt lat="43.39406" lon="6.68914">
        <ele>129.915283</ele>
        <time>2013-10-13T09:41:43Z</time>
      </trkpt>
      <trkpt lat="43.39432" lon="6.68928">
        <ele>126.069946</ele>
        <time>2013-10-13T09:41:51Z</time>
      </trkpt>
      <trkpt lat="43.39435" lon="6.68929">
        <ele>126.069946</ele>
        <time>2013-10-13T09:41:52Z</time>
      </trkpt>
      <trkpt lat="43.39451" lon="6.68924">
        <ele>125.108765</ele>
        <time>2013-10-13T09:41:56Z</time>
      </trkpt>
      <trkpt lat="43.39473" lon="6.68904">
        <ele>121.744141</ele>
        <time>2013-10-13T09:42:04Z</time>
      </trkpt>
      <trkpt lat="43.39483" lon="6.68895">
        <ele>118.860107</ele>
        <time>2013-10-13T09:42:08Z</time>
      </trkpt>
      <trkpt lat="43.39497" lon="6.68884">
        <ele>115.495605</ele>
        <time>2013-10-13T09:42:14Z</time>
      </trkpt>
      <trkpt lat="43.39508" lon="6.68876">
        <ele>113.092285</ele>
        <time>2013-10-13T09:42:18Z</time>
      </trkpt>
      <trkpt lat="43.39514" lon="6.6887">
        <ele>111.169556</ele>
        <time>2013-10-13T09:42:20Z</time>
      </trkpt>
      <trkpt lat="43.39526" lon="6.6885">
        <ele>107.805054</ele>
        <time>2013-10-13T09:42:25Z</time>
      </trkpt>
      <trkpt lat="43.39533" lon="6.68831">
        <ele>106.843628</ele>
        <time>2013-10-13T09:42:30Z</time>
      </trkpt>
      <trkpt lat="43.39515" lon="6.68785">
        <ele>106.363037</ele>
        <time>2013-10-13T09:42:41Z</time>
      </trkpt>
      <trkpt lat="43.39512" lon="6.68781">
        <ele>106.363037</ele>
        <time>2013-10-13T09:42:42Z</time>
      </trkpt>
      <trkpt lat="43.39502" lon="6.6877">
        <ele>106.363037</ele>
        <time>2013-10-13T09:42:45Z</time>
      </trkpt>
      <trkpt lat="43.39481" lon="6.68746">
        <ele>104.921021</ele>
        <time>2013-10-13T09:42:50Z</time>
      </trkpt>
      <trkpt lat="43.3946" lon="6.68691">
        <ele>104.921021</ele>
        <time>2013-10-13T09:42:59Z</time>
      </trkpt>
      <trkpt lat="43.3946" lon="6.68686">
        <ele>104.921021</ele>
        <time>2013-10-13T09:43:00Z</time>
      </trkpt>
      <trkpt lat="43.39462" lon="6.68651">
        <ele>102.037109</ele>
        <time>2013-10-13T09:43:05Z</time>
      </trkpt>
      <trkpt lat="43.39477" lon="6.68569">
        <ele>98.672485</ele>
        <time>2013-10-13T09:43:16Z</time>
      </trkpt>
      <trkpt lat="43.39481" lon="6.68544">
        <ele>96.749878</ele>
        <time>2013-10-13T09:43:21Z</time>
      </trkpt>
      <trkpt lat="43.39479" lon="6.68531">
        <ele>96.269287</ele>
        <time>2013-10-13T09:43:24Z</time>
      </trkpt>
      <trkpt lat="43.39465" lon="6.68522">
        <ele>92.904541</ele>
        <time>2013-10-13T09:43:29Z</time>
      </trkpt>
      <trkpt lat="43.39443" lon="6.68516">
        <ele>89.539917</ele>
        <time>2013-10-13T09:43:35Z</time>
      </trkpt>
      <trkpt lat="43.39433" lon="6.68507">
        <ele>86.656006</ele>
        <time>2013-10-13T09:43:37Z</time>
      </trkpt>
      <trkpt lat="43.39418" lon="6.68488">
        <ele>85.213989</ele>
        <time>2013-10-13T09:43:40Z</time>
      </trkpt>
      <trkpt lat="43.39407" lon="6.68477">
        <ele>84.252686</ele>
        <time>2013-10-13T09:43:42Z</time>
      </trkpt>
      <trkpt lat="43.39389" lon="6.68446">
        <ele>82.330078</ele>
        <time>2013-10-13T09:43:46Z</time>
      </trkpt>
      <trkpt lat="43.39383" lon="6.68432">
        <ele>81.849365</ele>
        <time>2013-10-13T09:43:48Z</time>
      </trkpt>
      <trkpt lat="43.39359" lon="6.68385">
        <ele>78.004028</ele>
        <time>2013-10-13T09:43:56Z</time>
      </trkpt>
      <trkpt lat="43.39356" lon="6.68365">
        <ele>74.158813</ele>
        <time>2013-10-13T09:43:59Z</time>
      </trkpt>
      <trkpt lat="43.39353" lon="6.68352">
        <ele>72.716919</ele>
        <time>2013-10-13T09:44:01Z</time>
      </trkpt>
      <trkpt lat="43.39343" lon="6.68335">
        <ele>70.313477</ele>
        <time>2013-10-13T09:44:05Z</time>
      </trkpt>
      <trkpt lat="43.39317" lon="6.68336">
        <ele>72.236206</ele>
        <time>2013-10-13T09:44:13Z</time>
      </trkpt>
      <trkpt lat="43.3931" lon="6.68334">
        <ele>72.236206</ele>
        <time>2013-10-13T09:44:15Z</time>
      </trkpt>
      <trkpt lat="43.39308" lon="6.68309">
        <ele>71.755493</ele>
        <time>2013-10-13T09:44:22Z</time>
      </trkpt>
      <trkpt lat="43.39312" lon="6.68275">
        <ele>72.236206</ele>
        <time>2013-10-13T09:44:31Z</time>
      </trkpt>
      <trkpt lat="43.39312" lon="6.68276">
        <ele>71.755493</ele>
        <time>2013-10-13T09:44:46Z</time>
      </trkpt>
      <trkpt lat="43.39308" lon="6.68268">
        <ele>74.158813</ele>
        <time>2013-10-13T09:45:02Z</time>
      </trkpt>
      <trkpt lat="43.393" lon="6.6826">
        <ele>77.042847</ele>
        <time>2013-10-13T09:45:18Z</time>
      </trkpt>
      <trkpt lat="43.39293" lon="6.68255">
        <ele>77.523438</ele>
        <time>2013-10-13T09:45:39Z</time>
      </trkpt>
      <trkpt lat="43.39277" lon="6.68243">
        <ele>79.926636</ele>
        <time>2013-10-13T09:45:50Z</time>
      </trkpt>
      <trkpt lat="43.39269" lon="6.68239">
        <ele>81.849365</ele>
        <time>2013-10-13T09:46:03Z</time>
      </trkpt>
      <trkpt lat="43.39269" lon="6.68203">
        <ele>81.849365</ele>
        <time>2013-10-13T09:46:14Z</time>
      </trkpt>
      <trkpt lat="43.3927" lon="6.68198">
        <ele>80.888184</ele>
        <time>2013-10-13T09:46:15Z</time>
      </trkpt>
      <trkpt lat="43.39295" lon="6.68138">
        <ele>83.291382</ele>
        <time>2013-10-13T09:46:29Z</time>
      </trkpt>
      <trkpt lat="43.39322" lon="6.68097">
        <ele>85.69458</ele>
        <time>2013-10-13T09:46:43Z</time>
      </trkpt>
      <trkpt lat="43.39325" lon="6.68062">
        <ele>87.617188</ele>
        <time>2013-10-13T09:46:56Z</time>
      </trkpt>
      <trkpt lat="43.39332" lon="6.68017">
        <ele>86.656006</ele>
        <time>2013-10-13T09:47:11Z</time>
      </trkpt>
      <trkpt lat="43.39332" lon="6.67982">
        <ele>83.771973</ele>
        <time>2013-10-13T09:47:19Z</time>
      </trkpt>
      <trkpt lat="43.39329" lon="6.6797">
        <ele>81.849365</ele>
        <time>2013-10-13T09:47:23Z</time>
      </trkpt>
      <trkpt lat="43.39318" lon="6.67946">
        <ele>78.965454</ele>
        <time>2013-10-13T09:47:32Z</time>
      </trkpt>
      <trkpt lat="43.39313" lon="6.67916">
        <ele>76.081421</ele>
        <time>2013-10-13T09:47:41Z</time>
      </trkpt>
      <trkpt lat="43.39304" lon="6.67891">
        <ele>73.678223</ele>
        <time>2013-10-13T09:47:54Z</time>
      </trkpt>
      <trkpt lat="43.393" lon="6.67883">
        <ele>71.755493</ele>
        <time>2013-10-13T09:47:59Z</time>
      </trkpt>
      <trkpt lat="43.39298" lon="6.67882">
        <ele>71.274902</ele>
        <time>2013-10-13T09:48:00Z</time>
      </trkpt>
      <trkpt lat="43.39298" lon="6.67871">
        <ele>69.352295</ele>
        <time>2013-10-13T09:48:05Z</time>
      </trkpt>
      <trkpt lat="43.39304" lon="6.67858">
        <ele>67.429688</ele>
        <time>2013-10-13T09:48:17Z</time>
      </trkpt>
      <trkpt lat="43.39311" lon="6.67849">
        <ele>64.545654</ele>
        <time>2013-10-13T09:48:33Z</time>
      </trkpt>
      <trkpt lat="43.39315" lon="6.67837">
        <ele>61.661743</ele>
        <time>2013-10-13T09:48:48Z</time>
      </trkpt>
      <trkpt lat="43.39315" lon="6.67824">
        <ele>58.297119</ele>
        <time>2013-10-13T09:49:01Z</time>
      </trkpt>
      <trkpt lat="43.39313" lon="6.67818">
        <ele>56.374512</ele>
        <time>2013-10-13T09:49:07Z</time>
      </trkpt>
      <trkpt lat="43.39311" lon="6.67813">
        <ele>54.451782</ele>
        <time>2013-10-13T09:49:10Z</time>
      </trkpt>
      <trkpt lat="43.3931" lon="6.67804">
        <ele>53.490479</ele>
        <time>2013-10-13T09:49:20Z</time>
      </trkpt>
      <trkpt lat="43.39314" lon="6.67789">
        <ele>51.087158</ele>
        <time>2013-10-13T09:49:37Z</time>
      </trkpt>
      <trkpt lat="43.3932" lon="6.67782">
        <ele>48.68396</ele>
        <time>2013-10-13T09:49:50Z</time>
      </trkpt>
      <trkpt lat="43.39327" lon="6.67776">
        <ele>47.241821</ele>
        <time>2013-10-13T09:49:59Z</time>
      </trkpt>
      <trkpt lat="43.39328" lon="6.67762">
        <ele>46.76123</ele>
        <time>2013-10-13T09:50:15Z</time>
      </trkpt>
      <trkpt lat="43.39331" lon="6.67754">
        <ele>46.76123</ele>
        <time>2013-10-13T09:50:21Z</time>
      </trkpt>
      <trkpt lat="43.39331" lon="6.67751">
        <ele>47.722534</ele>
        <time>2013-10-13T09:50:23Z</time>
      </trkpt>
      <trkpt lat="43.3933" lon="6.67744">
        <ele>47.722534</ele>
        <time>2013-10-13T09:50:28Z</time>
      </trkpt>
      <trkpt lat="43.39325" lon="6.67733">
        <ele>44.358032</ele>
        <time>2013-10-13T09:50:41Z</time>
      </trkpt>
      <trkpt lat="43.39319" lon="6.67719">
        <ele>41.473999</ele>
        <time>2013-10-13T09:50:58Z</time>
      </trkpt>
      <trkpt lat="43.39318" lon="6.67719">
        <ele>40.993408</ele>
        <time>2013-10-13T09:50:59Z</time>
      </trkpt>
      <trkpt lat="43.39308" lon="6.67713">
        <ele>36.66748</ele>
        <time>2013-10-13T09:51:08Z</time>
      </trkpt>
      <trkpt lat="43.39297" lon="6.67701">
        <ele>33.783447</ele>
        <time>2013-10-13T09:51:22Z</time>
      </trkpt>
      <trkpt lat="43.39291" lon="6.67694">
        <ele>31.860718</ele>
        <time>2013-10-13T09:51:35Z</time>
      </trkpt>
      <trkpt lat="43.39289" lon="6.67693">
        <ele>29.93811</ele>
        <time>2013-10-13T09:51:40Z</time>
      </trkpt>
      <trkpt lat="43.39283" lon="6.67684">
        <ele>27.054321</ele>
        <time>2013-10-13T09:51:52Z</time>
      </trkpt>
      <trkpt lat="43.39276" lon="6.67674">
        <ele>24.651001</ele>
        <time>2013-10-13T09:52:08Z</time>
      </trkpt>
      <trkpt lat="43.39274" lon="6.67672">
        <ele>23.208984</ele>
        <time>2013-10-13T09:52:10Z</time>
      </trkpt>
      <trkpt lat="43.39266" lon="6.67662">
        <ele>21.766968</ele>
        <time>2013-10-13T09:52:17Z</time>
      </trkpt>
      <trkpt lat="43.39265" lon="6.67662">
        <ele>22.728271</ele>
        <time>2013-10-13T09:52:18Z</time>
      </trkpt>
      <trkpt lat="43.39253" lon="6.67662">
        <ele>24.170288</ele>
        <time>2013-10-13T09:52:30Z</time>
      </trkpt>
      <trkpt lat="43.39228" lon="6.67668">
        <ele>21.766968</ele>
        <time>2013-10-13T09:52:42Z</time>
      </trkpt>
      <trkpt lat="43.39219" lon="6.67663">
        <ele>21.766968</ele>
        <time>2013-10-13T09:52:45Z</time>
      </trkpt>
      <trkpt lat="43.39221" lon="6.67646">
        <ele>20.805664</ele>
        <time>2013-10-13T09:52:51Z</time>
      </trkpt>
      <trkpt lat="43.39213" lon="6.67629">
        <ele>19.36377</ele>
        <time>2013-10-13T09:52:58Z</time>
      </trkpt>
      <trkpt lat="43.39218" lon="6.67624">
        <ele>18.883057</ele>
        <time>2013-10-13T09:53:01Z</time>
      </trkpt>
      <trkpt lat="43.39257" lon="6.67625">
        <ele>19.36377</ele>
        <time>2013-10-13T09:53:14Z</time>
      </trkpt>
      <trkpt lat="43.39295" lon="6.67617">
        <ele>20.324951</ele>
        <time>2013-10-13T09:53:27Z</time>
      </trkpt>
      <trkpt lat="43.3932" lon="6.67614">
        <ele>20.324951</ele>
        <time>2013-10-13T09:53:33Z</time>
      </trkpt>
      <trkpt lat="43.39345" lon="6.6761">
        <ele>19.36377</ele>
        <time>2013-10-13T09:53:39Z</time>
      </trkpt>
      <trkpt lat="43.39354" lon="6.67603">
        <ele>19.36377</ele>
        <time>2013-10-13T09:53:41Z</time>
      </trkpt>
      <trkpt lat="43.39398" lon="6.67575">
        <ele>20.805664</ele>
        <time>2013-10-13T09:53:53Z</time>
      </trkpt>
      <trkpt lat="43.39429" lon="6.6758">
        <ele>20.324951</ele>
        <time>2013-10-13T09:54:02Z</time>
      </trkpt>
      <trkpt lat="43.39449" lon="6.67578">
        <ele>19.84436</ele>
        <time>2013-10-13T09:54:08Z</time>
      </trkpt>
      <trkpt lat="43.39466" lon="6.67573">
        <ele>19.84436</ele>
        <time>2013-10-13T09:54:12Z</time>
      </trkpt>
      <trkpt lat="43.39479" lon="6.67558">
        <ele>19.36377</ele>
        <time>2013-10-13T09:54:16Z</time>
      </trkpt>
      <trkpt lat="43.39502" lon="6.67551">
        <ele>17.921753</ele>
        <time>2013-10-13T09:54:21Z</time>
      </trkpt>
      <trkpt lat="43.39509" lon="6.67552">
        <ele>18.402344</ele>
        <time>2013-10-13T09:54:23Z</time>
      </trkpt>
      <trkpt lat="43.39523" lon="6.67534">
        <ele>19.36377</ele>
        <time>2013-10-13T09:54:29Z</time>
      </trkpt>
      <trkpt lat="43.39537" lon="6.67521">
        <ele>19.36377</ele>
        <time>2013-10-13T09:54:33Z</time>
      </trkpt>
      <trkpt lat="43.396" lon="6.67491">
        <ele>18.402344</ele>
        <time>2013-10-13T09:54:49Z</time>
      </trkpt>
      <trkpt lat="43.39664" lon="6.67474">
        <ele>18.883057</ele>
        <time>2013-10-13T09:55:04Z</time>
      </trkpt>
      <trkpt lat="43.39675" lon="6.6747">
        <ele>18.883057</ele>
        <time>2013-10-13T09:55:07Z</time>
      </trkpt>
      <trkpt lat="43.39683" lon="6.67471">
        <ele>18.402344</ele>
        <time>2013-10-13T09:55:09Z</time>
      </trkpt>
      <trkpt lat="43.39705" lon="6.67479">
        <ele>15.518433</ele>
        <time>2013-10-13T09:55:15Z</time>
      </trkpt>
      <trkpt lat="43.39714" lon="6.67495">
        <ele>15.518433</ele>
        <time>2013-10-13T09:55:28Z</time>
      </trkpt>
      <trkpt lat="43.39717" lon="6.67497">
        <ele>15.518433</ele>
        <time>2013-10-13T09:55:36Z</time>
      </trkpt>
      <trkpt lat="43.39724" lon="6.67492">
        <ele>17.441162</ele>
        <time>2013-10-13T09:55:44Z</time>
      </trkpt>
      <trkpt lat="43.39727" lon="6.67491">
        <ele>16.960449</ele>
        <time>2013-10-13T09:55:46Z</time>
      </trkpt>
      <trkpt lat="43.39734" lon="6.67457">
        <ele>17.441162</ele>
        <time>2013-10-13T09:55:55Z</time>
      </trkpt>
      <trkpt lat="43.39734" lon="6.6745">
        <ele>18.883057</ele>
        <time>2013-10-13T09:55:57Z</time>
      </trkpt>
      <trkpt lat="43.39736" lon="6.67415">
        <ele>19.36377</ele>
        <time>2013-10-13T09:56:04Z</time>
      </trkpt>
      <trkpt lat="43.39746" lon="6.67332">
        <ele>19.36377</ele>
        <time>2013-10-13T09:56:18Z</time>
      </trkpt>
      <trkpt lat="43.39728" lon="6.67259">
        <ele>19.84436</ele>
        <time>2013-10-13T09:56:33Z</time>
      </trkpt>
      <trkpt lat="43.39701" lon="6.67232">
        <ele>20.324951</ele>
        <time>2013-10-13T09:56:45Z</time>
      </trkpt>
      <trkpt lat="43.39667" lon="6.67197">
        <ele>19.84436</ele>
        <time>2013-10-13T09:56:57Z</time>
      </trkpt>
      <trkpt lat="43.39659" lon="6.67195">
        <ele>19.36377</ele>
        <time>2013-10-13T09:56:59Z</time>
      </trkpt>
      <trkpt lat="43.39609" lon="6.67211">
        <ele>19.36377</ele>
        <time>2013-10-13T09:57:12Z</time>
      </trkpt>
      <trkpt lat="43.39574" lon="6.67226">
        <ele>18.883057</ele>
        <time>2013-10-13T09:57:22Z</time>
      </trkpt>
      <trkpt lat="43.3955" lon="6.67195">
        <ele>18.883057</ele>
        <time>2013-10-13T09:57:31Z</time>
      </trkpt>
      <trkpt lat="43.39511" lon="6.67141">
        <ele>19.36377</ele>
        <time>2013-10-13T09:57:46Z</time>
      </trkpt>
      <trkpt lat="43.39493" lon="6.67123">
        <ele>18.402344</ele>
        <time>2013-10-13T09:57:53Z</time>
      </trkpt>
      <trkpt lat="43.39477" lon="6.67101">
        <ele>19.36377</ele>
        <time>2013-10-13T09:57:59Z</time>
      </trkpt>
      <trkpt lat="43.39443" lon="6.67072">
        <ele>20.324951</ele>
        <time>2013-10-13T09:58:11Z</time>
      </trkpt>
      <trkpt lat="43.39421" lon="6.67028">
        <ele>19.84436</ele>
        <time>2013-10-13T09:58:22Z</time>
      </trkpt>
      <trkpt lat="43.39393" lon="6.66968">
        <ele>20.324951</ele>
        <time>2013-10-13T09:58:35Z</time>
      </trkpt>
      <trkpt lat="43.39344" lon="6.66927">
        <ele>21.286377</ele>
        <time>2013-10-13T09:58:48Z</time>
      </trkpt>
      <trkpt lat="43.39283" lon="6.66876">
        <ele>21.286377</ele>
        <time>2013-10-13T09:59:05Z</time>
      </trkpt>
      <trkpt lat="43.39271" lon="6.66841">
        <ele>22.247559</ele>
        <time>2013-10-13T09:59:12Z</time>
      </trkpt>
      <trkpt lat="43.39283" lon="6.66784">
        <ele>23.689575</ele>
        <time>2013-10-13T09:59:23Z</time>
      </trkpt>
      <trkpt lat="43.39302" lon="6.66732">
        <ele>25.131714</ele>
        <time>2013-10-13T09:59:37Z</time>
      </trkpt>
      <trkpt lat="43.3931" lon="6.66697">
        <ele>28.496216</ele>
        <time>2013-10-13T09:59:50Z</time>
      </trkpt>
      <trkpt lat="43.39313" lon="6.66678">
        <ele>30.418823</ele>
        <time>2013-10-13T09:59:57Z</time>
      </trkpt>
      <trkpt lat="43.39323" lon="6.66627">
        <ele>33.783447</ele>
        <time>2013-10-13T10:00:16Z</time>
      </trkpt>
      <trkpt lat="43.3934" lon="6.66566">
        <ele>35.225464</ele>
        <time>2013-10-13T10:00:36Z</time>
      </trkpt>
      <trkpt lat="43.39347" lon="6.66517">
        <ele>37.628662</ele>
        <time>2013-10-13T10:00:53Z</time>
      </trkpt>
      <trkpt lat="43.39378" lon="6.66491">
        <ele>40.032104</ele>
        <time>2013-10-13T10:01:10Z</time>
      </trkpt>
      <trkpt lat="43.39424" lon="6.66473">
        <ele>42.435425</ele>
        <time>2013-10-13T10:01:32Z</time>
      </trkpt>
      <trkpt lat="43.3945" lon="6.6646">
        <ele>45.319214</ele>
        <time>2013-10-13T10:01:45Z</time>
      </trkpt>
      <trkpt lat="43.39484" lon="6.6645">
        <ele>48.68396</ele>
        <time>2013-10-13T10:02:01Z</time>
      </trkpt>
      <trkpt lat="43.39518" lon="6.66439">
        <ele>52.048584</ele>
        <time>2013-10-13T10:02:18Z</time>
      </trkpt>
      <trkpt lat="43.39554" lon="6.66434">
        <ele>54.451782</ele>
        <time>2013-10-13T10:02:37Z</time>
      </trkpt>
      <trkpt lat="43.39596" lon="6.66444">
        <ele>54.932373</ele>
        <time>2013-10-13T10:02:54Z</time>
      </trkpt>
      <trkpt lat="43.39631" lon="6.66436">
        <ele>58.297119</ele>
        <time>2013-10-13T10:03:07Z</time>
      </trkpt>
      <trkpt lat="43.39659" lon="6.6642">
        <ele>61.661743</ele>
        <time>2013-10-13T10:03:23Z</time>
      </trkpt>
      <trkpt lat="43.39683" lon="6.66426">
        <ele>64.065063</ele>
        <time>2013-10-13T10:03:41Z</time>
      </trkpt>
      <trkpt lat="43.39695" lon="6.66447">
        <ele>65.026367</ele>
        <time>2013-10-13T10:03:51Z</time>
      </trkpt>
      <trkpt lat="43.39699" lon="6.66433">
        <ele>65.50708</ele>
        <time>2013-10-13T10:03:58Z</time>
      </trkpt>
      <trkpt lat="43.397" lon="6.66399">
        <ele>68.871582</ele>
        <time>2013-10-13T10:04:10Z</time>
      </trkpt>
      <trkpt lat="43.39723" lon="6.66389">
        <ele>70.794189</ele>
        <time>2013-10-13T10:04:24Z</time>
      </trkpt>
      <trkpt lat="43.39746" lon="6.66401">
        <ele>74.158813</ele>
        <time>2013-10-13T10:04:37Z</time>
      </trkpt>
      <trkpt lat="43.39777" lon="6.66407">
        <ele>77.042847</ele>
        <time>2013-10-13T10:04:54Z</time>
      </trkpt>
      <trkpt lat="43.39797" lon="6.66365">
        <ele>79.446045</ele>
        <time>2013-10-13T10:05:14Z</time>
      </trkpt>
      <trkpt lat="43.39795" lon="6.66313">
        <ele>79.926636</ele>
        <time>2013-10-13T10:05:30Z</time>
      </trkpt>
      <trkpt lat="43.39767" lon="6.6628">
        <ele>82.810791</ele>
        <time>2013-10-13T10:05:48Z</time>
      </trkpt>
      <trkpt lat="43.39766" lon="6.66268">
        <ele>84.252686</ele>
        <time>2013-10-13T10:05:53Z</time>
      </trkpt>
      <trkpt lat="43.39772" lon="6.66265">
        <ele>85.213989</ele>
        <time>2013-10-13T10:05:58Z</time>
      </trkpt>
      <trkpt lat="43.39784" lon="6.66269">
        <ele>88.098022</ele>
        <time>2013-10-13T10:06:06Z</time>
      </trkpt>
      <trkpt lat="43.39787" lon="6.66267">
        <ele>88.098022</ele>
        <time>2013-10-13T10:06:08Z</time>
      </trkpt>
      <trkpt lat="43.39779" lon="6.66236">
        <ele>90.02063</ele>
        <time>2013-10-13T10:06:24Z</time>
      </trkpt>
      <trkpt lat="43.39771" lon="6.66206">
        <ele>91.943237</ele>
        <time>2013-10-13T10:06:38Z</time>
      </trkpt>
      <trkpt lat="43.39778" lon="6.66206">
        <ele>92.904541</ele>
        <time>2013-10-13T10:06:42Z</time>
      </trkpt>
      <trkpt lat="43.39805" lon="6.66205">
        <ele>96.749878</ele>
        <time>2013-10-13T10:06:58Z</time>
      </trkpt>
      <trkpt lat="43.39824" lon="6.66168">
        <ele>99.633789</ele>
        <time>2013-10-13T10:07:18Z</time>
      </trkpt>
      <trkpt lat="43.39847" lon="6.66135">
        <ele>101.556396</ele>
        <time>2013-10-13T10:07:37Z</time>
      </trkpt>
      <trkpt lat="43.39874" lon="6.66102">
        <ele>103.959717</ele>
        <time>2013-10-13T10:07:56Z</time>
      </trkpt>
      <trkpt lat="43.39888" lon="6.66075">
        <ele>106.363037</ele>
        <time>2013-10-13T10:08:10Z</time>
      </trkpt>
      <trkpt lat="43.39896" lon="6.6606">
        <ele>110.208252</ele>
        <time>2013-10-13T10:08:19Z</time>
      </trkpt>
      <trkpt lat="43.39906" lon="6.6602">
        <ele>112.130981</ele>
        <time>2013-10-13T10:08:38Z</time>
      </trkpt>
      <trkpt lat="43.39914" lon="6.65981">
        <ele>115.976196</ele>
        <time>2013-10-13T10:08:53Z</time>
      </trkpt>
      <trkpt lat="43.39915" lon="6.65926">
        <ele>117.898804</ele>
        <time>2013-10-13T10:09:11Z</time>
      </trkpt>
      <trkpt lat="43.3991" lon="6.6588">
        <ele>121.26355</ele>
        <time>2013-10-13T10:09:28Z</time>
      </trkpt>
      <trkpt lat="43.39912" lon="6.65836">
        <ele>124.147339</ele>
        <time>2013-10-13T10:09:45Z</time>
      </trkpt>
      <trkpt lat="43.39935" lon="6.65817">
        <ele>126.069946</ele>
        <time>2013-10-13T10:10:00Z</time>
      </trkpt>
      <trkpt lat="43.39957" lon="6.65803">
        <ele>129.434692</ele>
        <time>2013-10-13T10:10:14Z</time>
      </trkpt>
      <trkpt lat="43.39958" lon="6.65802">
        <ele>129.434692</ele>
        <time>2013-10-13T10:10:15Z</time>
      </trkpt>
      <trkpt lat="43.39988" lon="6.65789">
        <ele>132.318604</ele>
        <time>2013-10-13T10:10:32Z</time>
      </trkpt>
      <trkpt lat="43.40014" lon="6.65759">
        <ele>134.241211</ele>
        <time>2013-10-13T10:10:50Z</time>
      </trkpt>
      <trkpt lat="43.40019" lon="6.65745">
        <ele>136.16394</ele>
        <time>2013-10-13T10:10:56Z</time>
      </trkpt>
      <trkpt lat="43.40032" lon="6.65706">
        <ele>138.567261</ele>
        <time>2013-10-13T10:11:12Z</time>
      </trkpt>
      <trkpt lat="43.40036" lon="6.65666">
        <ele>139.528442</ele>
        <time>2013-10-13T10:11:29Z</time>
      </trkpt>
      <trkpt lat="43.40036" lon="6.65655">
        <ele>141.45105</ele>
        <time>2013-10-13T10:11:34Z</time>
      </trkpt>
      <trkpt lat="43.4003" lon="6.65621">
        <ele>144.335205</ele>
        <time>2013-10-13T10:11:50Z</time>
      </trkpt>
      <trkpt lat="43.40024" lon="6.65587">
        <ele>146.257813</ele>
        <time>2013-10-13T10:12:07Z</time>
      </trkpt>
      <trkpt lat="43.40016" lon="6.65557">
        <ele>149.622314</ele>
        <time>2013-10-13T10:12:22Z</time>
      </trkpt>
      <trkpt lat="43.39998" lon="6.6552">
        <ele>152.506348</ele>
        <time>2013-10-13T10:12:41Z</time>
      </trkpt>
      <trkpt lat="43.39966" lon="6.65496">
        <ele>154.909546</ele>
        <time>2013-10-13T10:13:01Z</time>
      </trkpt>
      <trkpt lat="43.39933" lon="6.65483">
        <ele>157.312866</ele>
        <time>2013-10-13T10:13:22Z</time>
      </trkpt>
      <trkpt lat="43.39903" lon="6.65462">
        <ele>159.716187</ele>
        <time>2013-10-13T10:13:41Z</time>
      </trkpt>
      <trkpt lat="43.39889" lon="6.65427">
        <ele>162.119507</ele>
        <time>2013-10-13T10:13:58Z</time>
      </trkpt>
      <trkpt lat="43.39885" lon="6.65384">
        <ele>165.003418</ele>
        <time>2013-10-13T10:14:15Z</time>
      </trkpt>
      <trkpt lat="43.39874" lon="6.65348">
        <ele>167.406738</ele>
        <time>2013-10-13T10:14:31Z</time>
      </trkpt>
      <trkpt lat="43.39842" lon="6.65336">
        <ele>170.290649</ele>
        <time>2013-10-13T10:14:49Z</time>
      </trkpt>
      <trkpt lat="43.39824" lon="6.65304">
        <ele>172.69397</ele>
        <time>2013-10-13T10:15:06Z</time>
      </trkpt>
      <trkpt lat="43.39804" lon="6.6529">
        <ele>174.135864</ele>
        <time>2013-10-13T10:15:18Z</time>
      </trkpt>
      <trkpt lat="43.39783" lon="6.65317">
        <ele>174.616577</ele>
        <time>2013-10-13T10:15:32Z</time>
      </trkpt>
      <trkpt lat="43.39752" lon="6.65336">
        <ele>175.577881</ele>
        <time>2013-10-13T10:15:46Z</time>
      </trkpt>
      <trkpt lat="43.39717" lon="6.65373">
        <ele>177.981201</ele>
        <time>2013-10-13T10:16:05Z</time>
      </trkpt>
      <trkpt lat="43.39679" lon="6.65411">
        <ele>180.865234</ele>
        <time>2013-10-13T10:16:25Z</time>
      </trkpt>
      <trkpt lat="43.39644" lon="6.654">
        <ele>182.787842</ele>
        <time>2013-10-13T10:16:41Z</time>
      </trkpt>
      <trkpt lat="43.39598" lon="6.65346">
        <ele>184.229858</ele>
        <time>2013-10-13T10:17:03Z</time>
      </trkpt>
      <trkpt lat="43.39544" lon="6.65298">
        <ele>184.710571</ele>
        <time>2013-10-13T10:17:20Z</time>
      </trkpt>
      <trkpt lat="43.39506" lon="6.65274">
        <ele>188.075073</ele>
        <time>2013-10-13T10:17:33Z</time>
      </trkpt>
      <trkpt lat="43.39474" lon="6.65251">
        <ele>190.478394</ele>
        <time>2013-10-13T10:17:47Z</time>
      </trkpt>
      <trkpt lat="43.39461" lon="6.65242">
        <ele>191.439575</ele>
        <time>2013-10-13T10:17:53Z</time>
      </trkpt>
      <trkpt lat="43.39418" lon="6.65204">
        <ele>193.362305</ele>
        <time>2013-10-13T10:18:12Z</time>
      </trkpt>
      <trkpt lat="43.39388" lon="6.65152">
        <ele>191.920288</ele>
        <time>2013-10-13T10:18:26Z</time>
      </trkpt>
      <trkpt lat="43.39368" lon="6.65146">
        <ele>189.516968</ele>
        <time>2013-10-13T10:18:31Z</time>
      </trkpt>
      <trkpt lat="43.39346" lon="6.65171">
        <ele>189.516968</ele>
        <time>2013-10-13T10:18:38Z</time>
      </trkpt>
      <trkpt lat="43.39324" lon="6.6522">
        <ele>187.11377</ele>
        <time>2013-10-13T10:18:46Z</time>
      </trkpt>
      <trkpt lat="43.39317" lon="6.65231">
        <ele>186.633179</ele>
        <time>2013-10-13T10:18:48Z</time>
      </trkpt>
      <trkpt lat="43.393" lon="6.65252">
        <ele>182.787842</ele>
        <time>2013-10-13T10:18:53Z</time>
      </trkpt>
      <trkpt lat="43.39298" lon="6.65269">
        <ele>180.384521</ele>
        <time>2013-10-13T10:18:57Z</time>
      </trkpt>
      <trkpt lat="43.39298" lon="6.65284">
        <ele>177.02002</ele>
        <time>2013-10-13T10:19:01Z</time>
      </trkpt>
      <trkpt lat="43.39299" lon="6.653">
        <ele>173.655273</ele>
        <time>2013-10-13T10:19:05Z</time>
      </trkpt>
      <trkpt lat="43.39297" lon="6.65312">
        <ele>170.771362</ele>
        <time>2013-10-13T10:19:08Z</time>
      </trkpt>
      <trkpt lat="43.39289" lon="6.65331">
        <ele>166.926025</ele>
        <time>2013-10-13T10:19:12Z</time>
      </trkpt>
      <trkpt lat="43.3928" lon="6.65363">
        <ele>162.600098</ele>
        <time>2013-10-13T10:19:17Z</time>
      </trkpt>
      <trkpt lat="43.39273" lon="6.65378">
        <ele>159.716187</ele>
        <time>2013-10-13T10:19:20Z</time>
      </trkpt>
      <trkpt lat="43.39266" lon="6.65395">
        <ele>158.27417</ele>
        <time>2013-10-13T10:19:23Z</time>
      </trkpt>
      <trkpt lat="43.39261" lon="6.6541">
        <ele>156.351563</ele>
        <time>2013-10-13T10:19:25Z</time>
      </trkpt>
      <trkpt lat="43.39256" lon="6.65423">
        <ele>155.390259</ele>
        <time>2013-10-13T10:19:27Z</time>
      </trkpt>
      <trkpt lat="43.39246" lon="6.65454">
        <ele>152.986938</ele>
        <time>2013-10-13T10:19:32Z</time>
      </trkpt>
      <trkpt lat="43.39242" lon="6.65458">
        <ele>152.506348</ele>
        <time>2013-10-13T10:19:33Z</time>
      </trkpt>
      <trkpt lat="43.39204" lon="6.65497">
        <ele>152.506348</ele>
        <time>2013-10-13T10:19:42Z</time>
      </trkpt>
      <trkpt lat="43.39182" lon="6.65515">
        <ele>155.390259</ele>
        <time>2013-10-13T10:19:49Z</time>
      </trkpt>
      <trkpt lat="43.3916" lon="6.65539">
        <ele>158.27417</ele>
        <time>2013-10-13T10:20:02Z</time>
      </trkpt>
      <trkpt lat="43.39158" lon="6.65542">
        <ele>159.235474</ele>
        <time>2013-10-13T10:20:04Z</time>
      </trkpt>
      <trkpt lat="43.39148" lon="6.65553">
        <ele>161.638916</ele>
        <time>2013-10-13T10:20:11Z</time>
      </trkpt>
      <trkpt lat="43.39166" lon="6.6559">
        <ele>163.561523</ele>
        <time>2013-10-13T10:20:26Z</time>
      </trkpt>
      <trkpt lat="43.39164" lon="6.65621">
        <ele>165.484131</ele>
        <time>2013-10-13T10:20:41Z</time>
      </trkpt>
      <trkpt lat="43.39161" lon="6.65628">
        <ele>166.445313</ele>
        <time>2013-10-13T10:20:54Z</time>
      </trkpt>
      <trkpt lat="43.39158" lon="6.65639">
        <ele>166.926025</ele>
        <time>2013-10-13T10:21:10Z</time>
      </trkpt>
      <trkpt lat="43.39156" lon="6.65646">
        <ele>167.406738</ele>
        <time>2013-10-13T10:21:25Z</time>
      </trkpt>
      <trkpt lat="43.39156" lon="6.65649">
        <ele>166.445313</ele>
        <time>2013-10-13T10:21:42Z</time>
      </trkpt>
      <trkpt lat="43.39156" lon="6.65653">
        <ele>167.406738</ele>
        <time>2013-10-13T10:21:50Z</time>
      </trkpt>
      <trkpt lat="43.39157" lon="6.65658">
        <ele>167.406738</ele>
        <time>2013-10-13T10:21:54Z</time>
      </trkpt>
      <trkpt lat="43.3917" lon="6.65672">
        <ele>167.406738</ele>
        <time>2013-10-13T10:22:08Z</time>
      </trkpt>
      <trkpt lat="43.3918" lon="6.65681">
        <ele>166.926025</ele>
        <time>2013-10-13T10:22:23Z</time>
      </trkpt>
      <trkpt lat="43.39182" lon="6.65683">
        <ele>165.964722</ele>
        <time>2013-10-13T10:22:39Z</time>
      </trkpt>
      <trkpt lat="43.39181" lon="6.65683">
        <ele>166.445313</ele>
        <time>2013-10-13T10:22:48Z</time>
      </trkpt>
      <trkpt lat="43.39195" lon="6.65716">
        <ele>166.445313</ele>
        <time>2013-10-13T10:23:02Z</time>
      </trkpt>
      <trkpt lat="43.39197" lon="6.65719">
        <ele>167.406738</ele>
        <time>2013-10-13T10:23:04Z</time>
      </trkpt>
      <trkpt lat="43.39198" lon="6.65743">
        <ele>166.926025</ele>
        <time>2013-10-13T10:23:19Z</time>
      </trkpt>
      <trkpt lat="43.392" lon="6.65753">
        <ele>166.926025</ele>
        <time>2013-10-13T10:23:31Z</time>
      </trkpt>
      <trkpt lat="43.39211" lon="6.65772">
        <ele>164.522705</ele>
        <time>2013-10-13T10:23:42Z</time>
      </trkpt>
      <trkpt lat="43.39217" lon="6.65781">
        <ele>161.158203</ele>
        <time>2013-10-13T10:23:47Z</time>
      </trkpt>
      <trkpt lat="43.3922" lon="6.65788">
        <ele>157.793579</ele>
        <time>2013-10-13T10:23:52Z</time>
      </trkpt>
      <trkpt lat="43.39221" lon="6.65789">
        <ele>157.793579</ele>
        <time>2013-10-13T10:23:58Z</time>
      </trkpt>
      <trkpt lat="43.39222" lon="6.65806">
        <ele>153.948364</ele>
        <time>2013-10-13T10:24:08Z</time>
      </trkpt>
      <trkpt lat="43.39222" lon="6.65808">
        <ele>152.986938</ele>
        <time>2013-10-13T10:24:14Z</time>
      </trkpt>
      <trkpt lat="43.39224" lon="6.65819">
        <ele>151.544922</ele>
        <time>2013-10-13T10:24:19Z</time>
      </trkpt>
      <trkpt lat="43.39227" lon="6.65833">
        <ele>150.103027</ele>
        <time>2013-10-13T10:24:25Z</time>
      </trkpt>
      <trkpt lat="43.39232" lon="6.65857">
        <ele>146.257813</ele>
        <time>2013-10-13T10:24:34Z</time>
      </trkpt>
      <trkpt lat="43.39231" lon="6.65886">
        <ele>143.373657</ele>
        <time>2013-10-13T10:24:44Z</time>
      </trkpt>
      <trkpt lat="43.3923" lon="6.65889">
        <ele>142.893066</ele>
        <time>2013-10-13T10:24:48Z</time>
      </trkpt>
      <trkpt lat="43.39227" lon="6.65906">
        <ele>140.489868</ele>
        <time>2013-10-13T10:25:05Z</time>
      </trkpt>
      <trkpt lat="43.39227" lon="6.65908">
        <ele>138.086548</ele>
        <time>2013-10-13T10:25:07Z</time>
      </trkpt>
      <trkpt lat="43.39226" lon="6.65913">
        <ele>136.644653</ele>
        <time>2013-10-13T10:25:12Z</time>
      </trkpt>
      <trkpt lat="43.39222" lon="6.65922">
        <ele>134.241211</ele>
        <time>2013-10-13T10:25:28Z</time>
      </trkpt>
      <trkpt lat="43.39219" lon="6.65939">
        <ele>131.3573</ele>
        <time>2013-10-13T10:25:38Z</time>
      </trkpt>
      <trkpt lat="43.39213" lon="6.65945">
        <ele>129.434692</ele>
        <time>2013-10-13T10:25:52Z</time>
      </trkpt>
      <trkpt lat="43.39208" lon="6.65953">
        <ele>127.992554</ele>
        <time>2013-10-13T10:26:09Z</time>
      </trkpt>
      <trkpt lat="43.39207" lon="6.65954">
        <ele>127.031372</ele>
        <time>2013-10-13T10:26:11Z</time>
      </trkpt>
      <trkpt lat="43.39206" lon="6.65961">
        <ele>126.069946</ele>
        <time>2013-10-13T10:26:29Z</time>
      </trkpt>
      <trkpt lat="43.3921" lon="6.6597">
        <ele>123.186157</ele>
        <time>2013-10-13T10:26:42Z</time>
      </trkpt>
      <trkpt lat="43.39208" lon="6.65978">
        <ele>119.821411</ele>
        <time>2013-10-13T10:26:52Z</time>
      </trkpt>
      <trkpt lat="43.39208" lon="6.6598">
        <ele>118.860107</ele>
        <time>2013-10-13T10:26:54Z</time>
      </trkpt>
      <trkpt lat="43.39208" lon="6.65987">
        <ele>116.9375</ele>
        <time>2013-10-13T10:27:00Z</time>
      </trkpt>
      <trkpt lat="43.3921" lon="6.66001">
        <ele>114.053589</ele>
        <time>2013-10-13T10:27:13Z</time>
      </trkpt>
      <trkpt lat="43.39207" lon="6.66011">
        <ele>111.169556</ele>
        <time>2013-10-13T10:27:19Z</time>
      </trkpt>
      <trkpt lat="43.39203" lon="6.6602">
        <ele>108.766235</ele>
        <time>2013-10-13T10:27:29Z</time>
      </trkpt>
      <trkpt lat="43.39208" lon="6.66029">
        <ele>107.805054</ele>
        <time>2013-10-13T10:27:42Z</time>
      </trkpt>
      <trkpt lat="43.39218" lon="6.66038">
        <ele>104.921021</ele>
        <time>2013-10-13T10:27:53Z</time>
      </trkpt>
      <trkpt lat="43.39223" lon="6.6605">
        <ele>101.556396</ele>
        <time>2013-10-13T10:28:05Z</time>
      </trkpt>
      <trkpt lat="43.39222" lon="6.66059">
        <ele>98.672485</ele>
        <time>2013-10-13T10:28:18Z</time>
      </trkpt>
      <trkpt lat="43.39216" lon="6.6607">
        <ele>95.307739</ele>
        <time>2013-10-13T10:28:30Z</time>
      </trkpt>
      <trkpt lat="43.39217" lon="6.66075">
        <ele>93.385132</ele>
        <time>2013-10-13T10:28:36Z</time>
      </trkpt>
      <trkpt lat="43.39217" lon="6.66078">
        <ele>92.42395</ele>
        <time>2013-10-13T10:28:38Z</time>
      </trkpt>
      <trkpt lat="43.3922" lon="6.66081">
        <ele>91.462524</ele>
        <time>2013-10-13T10:28:42Z</time>
      </trkpt>
      <trkpt lat="43.39221" lon="6.66082">
        <ele>91.462524</ele>
        <time>2013-10-13T10:28:45Z</time>
      </trkpt>
      <trkpt lat="43.3922" lon="6.66089">
        <ele>90.501343</ele>
        <time>2013-10-13T10:28:49Z</time>
      </trkpt>
      <trkpt lat="43.39204" lon="6.66103">
        <ele>88.578735</ele>
        <time>2013-10-13T10:28:57Z</time>
      </trkpt>
      <trkpt lat="43.39204" lon="6.66117">
        <ele>88.098022</ele>
        <time>2013-10-13T10:29:01Z</time>
      </trkpt>
      <trkpt lat="43.39211" lon="6.66159">
        <ele>84.252686</ele>
        <time>2013-10-13T10:29:13Z</time>
      </trkpt>
      <trkpt lat="43.39211" lon="6.66171">
        <ele>82.810791</ele>
        <time>2013-10-13T10:29:18Z</time>
      </trkpt>
      <trkpt lat="43.39211" lon="6.66181">
        <ele>80.888184</ele>
        <time>2013-10-13T10:29:21Z</time>
      </trkpt>
      <trkpt lat="43.39209" lon="6.66193">
        <ele>78.965454</ele>
        <time>2013-10-13T10:29:30Z</time>
      </trkpt>
      <trkpt lat="43.39207" lon="6.66206">
        <ele>76.081421</ele>
        <time>2013-10-13T10:29:42Z</time>
      </trkpt>
      <trkpt lat="43.39206" lon="6.66212">
        <ele>75.120239</ele>
        <time>2013-10-13T10:29:47Z</time>
      </trkpt>
      <trkpt lat="43.39208" lon="6.66223">
        <ele>72.716919</ele>
        <time>2013-10-13T10:29:55Z</time>
      </trkpt>
      <trkpt lat="43.39208" lon="6.66224">
        <ele>71.755493</ele>
        <time>2013-10-13T10:29:56Z</time>
      </trkpt>
      <trkpt lat="43.39206" lon="6.6623">
        <ele>70.794189</ele>
        <time>2013-10-13T10:30:00Z</time>
      </trkpt>
      <trkpt lat="43.39203" lon="6.6625">
        <ele>67.910278</ele>
        <time>2013-10-13T10:30:16Z</time>
      </trkpt>
      <trkpt lat="43.3921" lon="6.6627">
        <ele>65.026367</ele>
        <time>2013-10-13T10:30:28Z</time>
      </trkpt>
      <trkpt lat="43.3921" lon="6.6628">
        <ele>64.545654</ele>
        <time>2013-10-13T10:30:35Z</time>
      </trkpt>
      <trkpt lat="43.39206" lon="6.66309">
        <ele>61.661743</ele>
        <time>2013-10-13T10:30:45Z</time>
      </trkpt>
      <trkpt lat="43.3921" lon="6.66367">
        <ele>60.219727</ele>
        <time>2013-10-13T10:30:55Z</time>
      </trkpt>
      <trkpt lat="43.39209" lon="6.66373">
        <ele>59.739136</ele>
        <time>2013-10-13T10:30:57Z</time>
      </trkpt>
      <trkpt lat="43.39201" lon="6.66371">
        <ele>58.77771</ele>
        <time>2013-10-13T10:31:03Z</time>
      </trkpt>
      <trkpt lat="43.39189" lon="6.66348">
        <ele>58.77771</ele>
        <time>2013-10-13T10:31:09Z</time>
      </trkpt>
      <trkpt lat="43.39138" lon="6.6632">
        <ele>60.219727</ele>
        <time>2013-10-13T10:31:23Z</time>
      </trkpt>
      <trkpt lat="43.39099" lon="6.66281">
        <ele>62.622925</ele>
        <time>2013-10-13T10:31:39Z</time>
      </trkpt>
      <trkpt lat="43.39061" lon="6.66233">
        <ele>65.987671</ele>
        <time>2013-10-13T10:31:56Z</time>
      </trkpt>
      <trkpt lat="43.39035" lon="6.66222">
        <ele>68.871582</ele>
        <time>2013-10-13T10:32:10Z</time>
      </trkpt>
      <trkpt lat="43.39016" lon="6.66206">
        <ele>72.236206</ele>
        <time>2013-10-13T10:32:25Z</time>
      </trkpt>
      <trkpt lat="43.3901" lon="6.66176">
        <ele>74.158813</ele>
        <time>2013-10-13T10:32:39Z</time>
      </trkpt>
      <trkpt lat="43.39013" lon="6.6611">
        <ele>77.042847</ele>
        <time>2013-10-13T10:32:58Z</time>
      </trkpt>
      <trkpt lat="43.39016" lon="6.66042">
        <ele>77.042847</ele>
        <time>2013-10-13T10:33:14Z</time>
      </trkpt>
      <trkpt lat="43.38995" lon="6.66015">
        <ele>77.042847</ele>
        <time>2013-10-13T10:33:23Z</time>
      </trkpt>
      <trkpt lat="43.38949" lon="6.65992">
        <ele>78.004028</ele>
        <time>2013-10-13T10:33:38Z</time>
      </trkpt>
      <trkpt lat="43.38927" lon="6.65966">
        <ele>81.368774</ele>
        <time>2013-10-13T10:33:48Z</time>
      </trkpt>
      <trkpt lat="43.38884" lon="6.65929">
        <ele>82.330078</ele>
        <time>2013-10-13T10:34:06Z</time>
      </trkpt>
      <trkpt lat="43.38835" lon="6.65909">
        <ele>82.330078</ele>
        <time>2013-10-13T10:34:22Z</time>
      </trkpt>
      <trkpt lat="43.38784" lon="6.65927">
        <ele>82.810791</ele>
        <time>2013-10-13T10:34:37Z</time>
      </trkpt>
      <trkpt lat="43.38769" lon="6.65965">
        <ele>79.926636</ele>
        <time>2013-10-13T10:34:42Z</time>
      </trkpt>
      <trkpt lat="43.38758" lon="6.65992">
        <ele>78.965454</ele>
        <time>2013-10-13T10:34:45Z</time>
      </trkpt>
      <trkpt lat="43.38727" lon="6.66032">
        <ele>78.965454</ele>
        <time>2013-10-13T10:34:52Z</time>
      </trkpt>
      <trkpt lat="43.38711" lon="6.6606">
        <ele>79.446045</ele>
        <time>2013-10-13T10:34:58Z</time>
      </trkpt>
      <trkpt lat="43.38698" lon="6.66076">
        <ele>79.926636</ele>
        <time>2013-10-13T10:35:02Z</time>
      </trkpt>
      <trkpt lat="43.38692" lon="6.66085">
        <ele>79.926636</ele>
        <time>2013-10-13T10:35:04Z</time>
      </trkpt>
      <trkpt lat="43.38666" lon="6.66149">
        <ele>82.810791</ele>
        <time>2013-10-13T10:35:17Z</time>
      </trkpt>
      <trkpt lat="43.38644" lon="6.66195">
        <ele>85.69458</ele>
        <time>2013-10-13T10:35:30Z</time>
      </trkpt>
      <trkpt lat="43.38599" lon="6.66197">
        <ele>85.213989</ele>
        <time>2013-10-13T10:35:42Z</time>
      </trkpt>
      <trkpt lat="43.38572" lon="6.66166">
        <ele>84.252686</ele>
        <time>2013-10-13T10:35:50Z</time>
      </trkpt>
      <trkpt lat="43.38567" lon="6.66152">
        <ele>83.771973</ele>
        <time>2013-10-13T10:35:52Z</time>
      </trkpt>
      <trkpt lat="43.38557" lon="6.66103">
        <ele>82.810791</ele>
        <time>2013-10-13T10:35:59Z</time>
      </trkpt>
      <trkpt lat="43.38562" lon="6.66073">
        <ele>82.330078</ele>
        <time>2013-10-13T10:36:04Z</time>
      </trkpt>
      <trkpt lat="43.38563" lon="6.66035">
        <ele>81.368774</ele>
        <time>2013-10-13T10:36:11Z</time>
      </trkpt>
      <trkpt lat="43.38543" lon="6.6602">
        <ele>82.810791</ele>
        <time>2013-10-13T10:36:16Z</time>
      </trkpt>
      <trkpt lat="43.38506" lon="6.65979">
        <ele>80.888184</ele>
        <time>2013-10-13T10:36:25Z</time>
      </trkpt>
      <trkpt lat="43.38486" lon="6.65922">
        <ele>78.484741</ele>
        <time>2013-10-13T10:36:32Z</time>
      </trkpt>
      <trkpt lat="43.38485" lon="6.65903">
        <ele>78.484741</ele>
        <time>2013-10-13T10:36:34Z</time>
      </trkpt>
      <trkpt lat="43.38494" lon="6.65861">
        <ele>77.042847</ele>
        <time>2013-10-13T10:36:40Z</time>
      </trkpt>
      <trkpt lat="43.38507" lon="6.65851">
        <ele>76.562134</ele>
        <time>2013-10-13T10:36:43Z</time>
      </trkpt>
      <trkpt lat="43.38504" lon="6.65821">
        <ele>74.158813</ele>
        <time>2013-10-13T10:36:49Z</time>
      </trkpt>
      <trkpt lat="43.38498" lon="6.6582">
        <ele>74.639526</ele>
        <time>2013-10-13T10:36:50Z</time>
      </trkpt>
      <trkpt lat="43.38488" lon="6.65818">
        <ele>74.639526</ele>
        <time>2013-10-13T10:36:52Z</time>
      </trkpt>
      <trkpt lat="43.38474" lon="6.65813">
        <ele>74.639526</ele>
        <time>2013-10-13T10:36:55Z</time>
      </trkpt>
      <trkpt lat="43.38437" lon="6.65794">
        <ele>73.197632</ele>
        <time>2013-10-13T10:37:04Z</time>
      </trkpt>
      <trkpt lat="43.38438" lon="6.65778">
        <ele>72.236206</ele>
        <time>2013-10-13T10:37:06Z</time>
      </trkpt>
      <trkpt lat="43.38438" lon="6.6576">
        <ele>72.716919</ele>
        <time>2013-10-13T10:37:08Z</time>
      </trkpt>
      <trkpt lat="43.3845" lon="6.65721">
        <ele>70.313477</ele>
        <time>2013-10-13T10:37:13Z</time>
      </trkpt>
      <trkpt lat="43.38475" lon="6.65683">
        <ele>69.352295</ele>
        <time>2013-10-13T10:37:19Z</time>
      </trkpt>
      <trkpt lat="43.38485" lon="6.6566">
        <ele>69.352295</ele>
        <time>2013-10-13T10:37:22Z</time>
      </trkpt>
      <trkpt lat="43.38492" lon="6.65586">
        <ele>67.910278</ele>
        <time>2013-10-13T10:37:31Z</time>
      </trkpt>
      <trkpt lat="43.38505" lon="6.65536">
        <ele>65.987671</ele>
        <time>2013-10-13T10:37:37Z</time>
      </trkpt>
      <trkpt lat="43.38513" lon="6.65511">
        <ele>64.545654</ele>
        <time>2013-10-13T10:37:43Z</time>
      </trkpt>
      <trkpt lat="43.38506" lon="6.65512">
        <ele>64.065063</ele>
        <time>2013-10-13T10:37:45Z</time>
      </trkpt>
      <trkpt lat="43.38467" lon="6.65518">
        <ele>68.871582</ele>
        <time>2013-10-13T10:37:57Z</time>
      </trkpt>
      <trkpt lat="43.38459" lon="6.65509">
        <ele>68.871582</ele>
        <time>2013-10-13T10:38:01Z</time>
      </trkpt>
      <trkpt lat="43.38462" lon="6.65497">
        <ele>69.832886</ele>
        <time>2013-10-13T10:38:05Z</time>
      </trkpt>
      <trkpt lat="43.38487" lon="6.65469">
        <ele>72.716919</ele>
        <time>2013-10-13T10:38:19Z</time>
      </trkpt>
      <trkpt lat="43.38516" lon="6.65436">
        <ele>73.197632</ele>
        <time>2013-10-13T10:38:34Z</time>
      </trkpt>
      <trkpt lat="43.3852" lon="6.65406">
        <ele>72.716919</ele>
        <time>2013-10-13T10:38:40Z</time>
      </trkpt>
      <trkpt lat="43.38501" lon="6.65373">
        <ele>75.120239</ele>
        <time>2013-10-13T10:38:54Z</time>
      </trkpt>
      <trkpt lat="43.38493" lon="6.65365">
        <ele>77.042847</ele>
        <time>2013-10-13T10:39:00Z</time>
      </trkpt>
      <trkpt lat="43.38485" lon="6.65347">
        <ele>80.407471</ele>
        <time>2013-10-13T10:39:12Z</time>
      </trkpt>
      <trkpt lat="43.38483" lon="6.6532">
        <ele>83.771973</ele>
        <time>2013-10-13T10:39:26Z</time>
      </trkpt>
      <trkpt lat="43.38482" lon="6.65311">
        <ele>84.252686</ele>
        <time>2013-10-13T10:39:37Z</time>
      </trkpt>
      <trkpt lat="43.38484" lon="6.65291">
        <ele>87.617188</ele>
        <time>2013-10-13T10:39:54Z</time>
      </trkpt>
      <trkpt lat="43.38491" lon="6.65261">
        <ele>90.501343</ele>
        <time>2013-10-13T10:40:16Z</time>
      </trkpt>
      <trkpt lat="43.38492" lon="6.6525">
        <ele>91.943237</ele>
        <time>2013-10-13T10:40:23Z</time>
      </trkpt>
      <trkpt lat="43.3849" lon="6.65231">
        <ele>92.904541</ele>
        <time>2013-10-13T10:40:42Z</time>
      </trkpt>
      <trkpt lat="43.38491" lon="6.65229">
        <ele>93.385132</ele>
        <time>2013-10-13T10:40:46Z</time>
      </trkpt>
      <trkpt lat="43.38494" lon="6.65221">
        <ele>93.865845</ele>
        <time>2013-10-13T10:40:58Z</time>
      </trkpt>
      <trkpt lat="43.38502" lon="6.65184">
        <ele>96.749878</ele>
        <time>2013-10-13T10:41:16Z</time>
      </trkpt>
      <trkpt lat="43.38525" lon="6.65156">
        <ele>98.191895</ele>
        <time>2013-10-13T10:41:34Z</time>
      </trkpt>
      <trkpt lat="43.38543" lon="6.65119">
        <ele>100.114502</ele>
        <time>2013-10-13T10:41:53Z</time>
      </trkpt>
      <trkpt lat="43.38561" lon="6.65094">
        <ele>102.998291</ele>
        <time>2013-10-13T10:42:10Z</time>
      </trkpt>
      <trkpt lat="43.38582" lon="6.65074">
        <ele>103.959717</ele>
        <time>2013-10-13T10:42:26Z</time>
      </trkpt>
      <trkpt lat="43.38588" lon="6.65043">
        <ele>107.324341</ele>
        <time>2013-10-13T10:42:41Z</time>
      </trkpt>
      <trkpt lat="43.38587" lon="6.65024">
        <ele>110.208252</ele>
        <time>2013-10-13T10:42:50Z</time>
      </trkpt>
      <trkpt lat="43.38585" lon="6.6498">
        <ele>113.572998</ele>
        <time>2013-10-13T10:43:11Z</time>
      </trkpt>
      <trkpt lat="43.38587" lon="6.64949">
        <ele>116.456787</ele>
        <time>2013-10-13T10:43:26Z</time>
      </trkpt>
      <trkpt lat="43.38588" lon="6.64917">
        <ele>119.821411</ele>
        <time>2013-10-13T10:43:43Z</time>
      </trkpt>
      <trkpt lat="43.38599" lon="6.64902">
        <ele>122.705444</ele>
        <time>2013-10-13T10:43:55Z</time>
      </trkpt>
      <trkpt lat="43.386" lon="6.64901">
        <ele>122.705444</ele>
        <time>2013-10-13T10:43:56Z</time>
      </trkpt>
      <trkpt lat="43.38622" lon="6.64883">
        <ele>126.069946</ele>
        <time>2013-10-13T10:44:14Z</time>
      </trkpt>
      <trkpt lat="43.38654" lon="6.64862">
        <ele>127.031372</ele>
        <time>2013-10-13T10:44:32Z</time>
      </trkpt>
      <trkpt lat="43.38676" lon="6.64854">
        <ele>130.395996</ele>
        <time>2013-10-13T10:44:43Z</time>
      </trkpt>
      <trkpt lat="43.38708" lon="6.64848">
        <ele>132.318604</ele>
        <time>2013-10-13T10:45:04Z</time>
      </trkpt>
      <trkpt lat="43.38735" lon="6.64838">
        <ele>134.721924</ele>
        <time>2013-10-13T10:45:22Z</time>
      </trkpt>
      <trkpt lat="43.38758" lon="6.64805">
        <ele>137.125244</ele>
        <time>2013-10-13T10:45:40Z</time>
      </trkpt>
      <trkpt lat="43.38769" lon="6.64756">
        <ele>140.009155</ele>
        <time>2013-10-13T10:45:58Z</time>
      </trkpt>
      <trkpt lat="43.3878" lon="6.64741">
        <ele>143.373657</ele>
        <time>2013-10-13T10:46:09Z</time>
      </trkpt>
      <trkpt lat="43.38802" lon="6.64739">
        <ele>146.738403</ele>
        <time>2013-10-13T10:46:25Z</time>
      </trkpt>
      <trkpt lat="43.38833" lon="6.64741">
        <ele>148.661011</ele>
        <time>2013-10-13T10:46:43Z</time>
      </trkpt>
      <trkpt lat="43.3884" lon="6.64744">
        <ele>150.583618</ele>
        <time>2013-10-13T10:46:49Z</time>
      </trkpt>
      <trkpt lat="43.38868" lon="6.64751">
        <ele>152.986938</ele>
        <time>2013-10-13T10:47:09Z</time>
      </trkpt>
      <trkpt lat="43.38901" lon="6.64729">
        <ele>154.428955</ele>
        <time>2013-10-13T10:47:30Z</time>
      </trkpt>
      <trkpt lat="43.38924" lon="6.64716">
        <ele>157.793579</ele>
        <time>2013-10-13T10:47:46Z</time>
      </trkpt>
      <trkpt lat="43.38961" lon="6.64698">
        <ele>157.793579</ele>
        <time>2013-10-13T10:48:06Z</time>
      </trkpt>
      <trkpt lat="43.38979" lon="6.64688">
        <ele>161.638916</ele>
        <time>2013-10-13T10:48:20Z</time>
      </trkpt>
      <trkpt lat="43.38997" lon="6.64669">
        <ele>165.003418</ele>
        <time>2013-10-13T10:48:34Z</time>
      </trkpt>
      <trkpt lat="43.39014" lon="6.64645">
        <ele>168.368042</ele>
        <time>2013-10-13T10:48:50Z</time>
      </trkpt>
      <trkpt lat="43.39043" lon="6.64622">
        <ele>170.771362</ele>
        <time>2013-10-13T10:49:12Z</time>
      </trkpt>
      <trkpt lat="43.39079" lon="6.64615">
        <ele>173.655273</ele>
        <time>2013-10-13T10:49:36Z</time>
      </trkpt>
      <trkpt lat="43.39102" lon="6.64609">
        <ele>177.50061</ele>
        <time>2013-10-13T10:49:52Z</time>
      </trkpt>
      <trkpt lat="43.39126" lon="6.64607">
        <ele>180.865234</ele>
        <time>2013-10-13T10:50:07Z</time>
      </trkpt>
      <trkpt lat="43.3917" lon="6.64609">
        <ele>182.307129</ele>
        <time>2013-10-13T10:50:31Z</time>
      </trkpt>
      <trkpt lat="43.39199" lon="6.646">
        <ele>186.633179</ele>
        <time>2013-10-13T10:50:49Z</time>
      </trkpt>
      <trkpt lat="43.39235" lon="6.64588">
        <ele>188.555786</ele>
        <time>2013-10-13T10:51:09Z</time>
      </trkpt>
      <trkpt lat="43.39284" lon="6.64577">
        <ele>190.478394</ele>
        <time>2013-10-13T10:51:32Z</time>
      </trkpt>
      <trkpt lat="43.39312" lon="6.64585">
        <ele>193.843018</ele>
        <time>2013-10-13T10:51:48Z</time>
      </trkpt>
      <trkpt lat="43.39334" lon="6.64614">
        <ele>195.765625</ele>
        <time>2013-10-13T10:52:07Z</time>
      </trkpt>
      <trkpt lat="43.39342" lon="6.64635">
        <ele>195.284912</ele>
        <time>2013-10-13T10:52:15Z</time>
      </trkpt>
      <trkpt lat="43.3935" lon="6.64636">
        <ele>195.284912</ele>
        <time>2013-10-13T10:52:20Z</time>
      </trkpt>
      <trkpt lat="43.39377" lon="6.64637">
        <ele>198.168945</ele>
        <time>2013-10-13T10:52:40Z</time>
      </trkpt>
      <trkpt lat="43.39384" lon="6.64638">
        <ele>198.649536</ele>
        <time>2013-10-13T10:52:52Z</time>
      </trkpt>
      <trkpt lat="43.39399" lon="6.64642">
        <ele>201.052856</ele>
        <time>2013-10-13T10:53:07Z</time>
      </trkpt>
      <trkpt lat="43.39403" lon="6.64647">
        <ele>201.052856</ele>
        <time>2013-10-13T10:53:25Z</time>
      </trkpt>
      <trkpt lat="43.39411" lon="6.64652">
        <ele>202.494873</ele>
        <time>2013-10-13T10:53:52Z</time>
      </trkpt>
      <trkpt lat="43.39418" lon="6.64656">
        <ele>202.494873</ele>
        <time>2013-10-13T10:54:08Z</time>
      </trkpt>
      <trkpt lat="43.3942" lon="6.64655">
        <ele>203.93689</ele>
        <time>2013-10-13T10:54:10Z</time>
      </trkpt>
      <trkpt lat="43.39429" lon="6.64656">
        <ele>202.975464</ele>
        <time>2013-10-13T10:54:15Z</time>
      </trkpt>
      <trkpt lat="43.39459" lon="6.64646">
        <ele>204.898071</ele>
        <time>2013-10-13T10:54:31Z</time>
      </trkpt>
      <trkpt lat="43.39483" lon="6.64632">
        <ele>206.820679</ele>
        <time>2013-10-13T10:54:52Z</time>
      </trkpt>
      <trkpt lat="43.395" lon="6.64623">
        <ele>209.224121</ele>
        <time>2013-10-13T10:55:07Z</time>
      </trkpt>
      <trkpt lat="43.3951" lon="6.64616">
        <ele>211.146729</ele>
        <time>2013-10-13T10:55:22Z</time>
      </trkpt>
      <trkpt lat="43.39518" lon="6.64611">
        <ele>213.069336</ele>
        <time>2013-10-13T10:55:39Z</time>
      </trkpt>
      <trkpt lat="43.39525" lon="6.64607">
        <ele>214.51123</ele>
        <time>2013-10-13T10:55:54Z</time>
      </trkpt>
      <trkpt lat="43.39539" lon="6.64599">
        <ele>217.395386</ele>
        <time>2013-10-13T10:56:14Z</time>
      </trkpt>
      <trkpt lat="43.39545" lon="6.64598">
        <ele>218.356567</ele>
        <time>2013-10-13T10:56:23Z</time>
      </trkpt>
      <trkpt lat="43.39555" lon="6.64597">
        <ele>221.240601</ele>
        <time>2013-10-13T10:56:37Z</time>
      </trkpt>
      <trkpt lat="43.39562" lon="6.64594">
        <ele>221.721191</ele>
        <time>2013-10-13T10:56:54Z</time>
      </trkpt>
      <trkpt lat="43.39571" lon="6.64589">
        <ele>222.682495</ele>
        <time>2013-10-13T10:57:12Z</time>
      </trkpt>
      <trkpt lat="43.39577" lon="6.64583">
        <ele>225.566528</ele>
        <time>2013-10-13T10:57:26Z</time>
      </trkpt>
      <trkpt lat="43.3959" lon="6.64573">
        <ele>228.450439</ele>
        <time>2013-10-13T10:57:47Z</time>
      </trkpt>
      <trkpt lat="43.39593" lon="6.64569">
        <ele>228.450439</ele>
        <time>2013-10-13T10:57:52Z</time>
      </trkpt>
      <trkpt lat="43.39605" lon="6.6455">
        <ele>231.814941</ele>
        <time>2013-10-13T10:58:11Z</time>
      </trkpt>
      <trkpt lat="43.39622" lon="6.64539">
        <ele>235.179688</ele>
        <time>2013-10-13T10:58:29Z</time>
      </trkpt>
      <trkpt lat="43.39646" lon="6.64532">
        <ele>235.660278</ele>
        <time>2013-10-13T10:58:53Z</time>
      </trkpt>
      <trkpt lat="43.39661" lon="6.64529">
        <ele>237.102295</ele>
        <time>2013-10-13T10:59:13Z</time>
      </trkpt>
      <trkpt lat="43.3967" lon="6.64527">
        <ele>239.024902</ele>
        <time>2013-10-13T10:59:30Z</time>
      </trkpt>
      <trkpt lat="43.39683" lon="6.64526">
        <ele>242.389648</ele>
        <time>2013-10-13T10:59:50Z</time>
      </trkpt>
      <trkpt lat="43.39697" lon="6.64521">
        <ele>244.312256</ele>
        <time>2013-10-13T11:00:07Z</time>
      </trkpt>
      <trkpt lat="43.39708" lon="6.64508">
        <ele>244.312256</ele>
        <time>2013-10-13T11:00:20Z</time>
      </trkpt>
      <trkpt lat="43.39741" lon="6.64511">
        <ele>245.273438</ele>
        <time>2013-10-13T11:00:35Z</time>
      </trkpt>
      <trkpt lat="43.39788" lon="6.64523">
        <ele>244.792847</ele>
        <time>2013-10-13T11:00:51Z</time>
      </trkpt>
      <trkpt lat="43.39791" lon="6.64526">
        <ele>244.312256</ele>
        <time>2013-10-13T11:00:52Z</time>
      </trkpt>
      <trkpt lat="43.39805" lon="6.64528">
        <ele>242.870239</ele>
        <time>2013-10-13T11:00:55Z</time>
      </trkpt>
      <trkpt lat="43.3982" lon="6.64518">
        <ele>241.428223</ele>
        <time>2013-10-13T11:00:59Z</time>
      </trkpt>
      <trkpt lat="43.39835" lon="6.64507">
        <ele>238.544312</ele>
        <time>2013-10-13T11:01:03Z</time>
      </trkpt>
      <trkpt lat="43.39845" lon="6.64497">
        <ele>237.582886</ele>
        <time>2013-10-13T11:01:06Z</time>
      </trkpt>
      <trkpt lat="43.39852" lon="6.64485">
        <ele>234.218384</ele>
        <time>2013-10-13T11:01:12Z</time>
      </trkpt>
      <trkpt lat="43.39873" lon="6.64459">
        <ele>231.334351</ele>
        <time>2013-10-13T11:01:23Z</time>
      </trkpt>
      <trkpt lat="43.39881" lon="6.6445">
        <ele>229.892334</ele>
        <time>2013-10-13T11:01:26Z</time>
      </trkpt>
      <trkpt lat="43.39895" lon="6.64443">
        <ele>230.85376</ele>
        <time>2013-10-13T11:01:29Z</time>
      </trkpt>
      <trkpt lat="43.39905" lon="6.6444">
        <ele>227.969727</ele>
        <time>2013-10-13T11:01:31Z</time>
      </trkpt>
      <trkpt lat="43.39913" lon="6.6444">
        <ele>226.527832</ele>
        <time>2013-10-13T11:01:33Z</time>
      </trkpt>
      <trkpt lat="43.39923" lon="6.64438">
        <ele>226.527832</ele>
        <time>2013-10-13T11:01:35Z</time>
      </trkpt>
      <trkpt lat="43.39942" lon="6.64422">
        <ele>225.085938</ele>
        <time>2013-10-13T11:01:40Z</time>
      </trkpt>
      <trkpt lat="43.39948" lon="6.64413">
        <ele>225.566528</ele>
        <time>2013-10-13T11:01:42Z</time>
      </trkpt>
      <trkpt lat="43.3996" lon="6.64382">
        <ele>227.489136</ele>
        <time>2013-10-13T11:01:49Z</time>
      </trkpt>
      <trkpt lat="43.39965" lon="6.6437">
        <ele>229.411743</ele>
        <time>2013-10-13T11:01:53Z</time>
      </trkpt>
      <trkpt lat="43.39994" lon="6.64354">
        <ele>226.527832</ele>
        <time>2013-10-13T11:02:02Z</time>
      </trkpt>
      <trkpt lat="43.40001" lon="6.64349">
        <ele>224.124512</ele>
        <time>2013-10-13T11:02:04Z</time>
      </trkpt>
      <trkpt lat="43.40018" lon="6.64343">
        <ele>221.721191</ele>
        <time>2013-10-13T11:02:08Z</time>
      </trkpt>
      <trkpt lat="43.40031" lon="6.64343">
        <ele>219.798584</ele>
        <time>2013-10-13T11:02:20Z</time>
      </trkpt>
      <trkpt lat="43.40039" lon="6.64342">
        <ele>219.317993</ele>
        <time>2013-10-13T11:02:32Z</time>
      </trkpt>
      <trkpt lat="43.40046" lon="6.64338">
        <ele>215.953247</ele>
        <time>2013-10-13T11:02:44Z</time>
      </trkpt>
      <trkpt lat="43.40049" lon="6.64332">
        <ele>212.588623</ele>
        <time>2013-10-13T11:02:52Z</time>
      </trkpt>
      <trkpt lat="43.40054" lon="6.64327">
        <ele>211.146729</ele>
        <time>2013-10-13T11:02:59Z</time>
      </trkpt>
      <trkpt lat="43.40063" lon="6.64315">
        <ele>208.262817</ele>
        <time>2013-10-13T11:03:10Z</time>
      </trkpt>
      <trkpt lat="43.40075" lon="6.64281">
        <ele>204.898071</ele>
        <time>2013-10-13T11:03:18Z</time>
      </trkpt>
      <trkpt lat="43.40077" lon="6.64264">
        <ele>202.014282</ele>
        <time>2013-10-13T11:03:24Z</time>
      </trkpt>
      <trkpt lat="43.40077" lon="6.64258">
        <ele>201.052856</ele>
        <time>2013-10-13T11:03:26Z</time>
      </trkpt>
      <trkpt lat="43.40077" lon="6.64254">
        <ele>200.572266</ele>
        <time>2013-10-13T11:03:27Z</time>
      </trkpt>
      <trkpt lat="43.40057" lon="6.64236">
        <ele>196.726929</ele>
        <time>2013-10-13T11:03:34Z</time>
      </trkpt>
      <trkpt lat="43.40054" lon="6.6423">
        <ele>196.246338</ele>
        <time>2013-10-13T11:03:35Z</time>
      </trkpt>
      <trkpt lat="43.40044" lon="6.64194">
        <ele>193.362305</ele>
        <time>2013-10-13T11:03:42Z</time>
      </trkpt>
      <trkpt lat="43.40037" lon="6.64159">
        <ele>191.920288</ele>
        <time>2013-10-13T11:03:53Z</time>
      </trkpt>
      <trkpt lat="43.40038" lon="6.64145">
        <ele>191.439575</ele>
        <time>2013-10-13T11:04:03Z</time>
      </trkpt>
      <trkpt lat="43.40043" lon="6.64158">
        <ele>191.920288</ele>
        <time>2013-10-13T11:04:19Z</time>
      </trkpt>
      <trkpt lat="43.40045" lon="6.64162">
        <ele>191.920288</ele>
        <time>2013-10-13T11:04:35Z</time>
      </trkpt>
      <trkpt lat="43.4004" lon="6.64158">
        <ele>191.439575</ele>
        <time>2013-10-13T11:05:29Z</time>
      </trkpt>
      <trkpt lat="43.4004" lon="6.64154">
        <ele>191.439575</ele>
        <time>2013-10-13T11:05:50Z</time>
      </trkpt>
      <trkpt lat="43.40037" lon="6.64147">
        <ele>192.881714</ele>
        <time>2013-10-13T11:06:03Z</time>
      </trkpt>
      <trkpt lat="43.40039" lon="6.64147">
        <ele>193.362305</ele>
        <time>2013-10-13T11:06:08Z</time>
      </trkpt>
      <trkpt lat="43.40039" lon="6.64146">
        <ele>191.920288</ele>
        <time>2013-10-13T11:06:10Z</time>
      </trkpt>
      <trkpt lat="43.40048" lon="6.64134">
        <ele>192.401123</ele>
        <time>2013-10-13T11:06:22Z</time>
      </trkpt>
      <trkpt lat="43.40066" lon="6.64114">
        <ele>191.439575</ele>
        <time>2013-10-13T11:06:48Z</time>
      </trkpt>
      <trkpt lat="43.40111" lon="6.64088">
        <ele>187.59436</ele>
        <time>2013-10-13T11:06:59Z</time>
      </trkpt>
      <trkpt lat="43.40138" lon="6.64077">
        <ele>185.671753</ele>
        <time>2013-10-13T11:07:04Z</time>
      </trkpt>
      <trkpt lat="43.40147" lon="6.64072">
        <ele>183.749023</ele>
        <time>2013-10-13T11:07:06Z</time>
      </trkpt>
      <trkpt lat="43.40167" lon="6.64052">
        <ele>181.345825</ele>
        <time>2013-10-13T11:07:11Z</time>
      </trkpt>
      <trkpt lat="43.40182" lon="6.64034">
        <ele>179.423218</ele>
        <time>2013-10-13T11:07:16Z</time>
      </trkpt>
      <trkpt lat="43.40214" lon="6.64048">
        <ele>177.50061</ele>
        <time>2013-10-13T11:07:25Z</time>
      </trkpt>
      <trkpt lat="43.4022" lon="6.6405">
        <ele>177.02002</ele>
        <time>2013-10-13T11:07:26Z</time>
      </trkpt>
      <trkpt lat="43.40235" lon="6.64057">
        <ele>176.058594</ele>
        <time>2013-10-13T11:07:29Z</time>
      </trkpt>
      <trkpt lat="43.40259" lon="6.64051">
        <ele>174.135864</ele>
        <time>2013-10-13T11:07:33Z</time>
      </trkpt>
      <trkpt lat="43.40288" lon="6.6405">
        <ele>173.655273</ele>
        <time>2013-10-13T11:07:37Z</time>
      </trkpt>
      <trkpt lat="43.40314" lon="6.64055">
        <ele>171.732666</ele>
        <time>2013-10-13T11:07:41Z</time>
      </trkpt>
      <trkpt lat="43.4034" lon="6.64047">
        <ele>169.810059</ele>
        <time>2013-10-13T11:07:45Z</time>
      </trkpt>
      <trkpt lat="43.40361" lon="6.64045">
        <ele>168.848755</ele>
        <time>2013-10-13T11:07:48Z</time>
      </trkpt>
      <trkpt lat="43.40368" lon="6.64046">
        <ele>168.848755</ele>
        <time>2013-10-13T11:07:49Z</time>
      </trkpt>
      <trkpt lat="43.40398" lon="6.64043">
        <ele>168.368042</ele>
        <time>2013-10-13T11:07:54Z</time>
      </trkpt>
      <trkpt lat="43.40409" lon="6.64038">
        <ele>168.368042</ele>
        <time>2013-10-13T11:07:56Z</time>
      </trkpt>
      <trkpt lat="43.40427" lon="6.64031">
        <ele>168.368042</ele>
        <time>2013-10-13T11:08:00Z</time>
      </trkpt>
      <trkpt lat="43.4046" lon="6.64022">
        <ele>171.252075</ele>
        <time>2013-10-13T11:08:09Z</time>
      </trkpt>
      <trkpt lat="43.4049" lon="6.64004">
        <ele>174.616577</ele>
        <time>2013-10-13T11:08:22Z</time>
      </trkpt>
      <trkpt lat="43.40532" lon="6.63985">
        <ele>176.058594</ele>
        <time>2013-10-13T11:08:44Z</time>
      </trkpt>
      <trkpt lat="43.40559" lon="6.63965">
        <ele>177.981201</ele>
        <time>2013-10-13T11:09:03Z</time>
      </trkpt>
      <trkpt lat="43.40562" lon="6.63956">
        <ele>178.942627</ele>
        <time>2013-10-13T11:09:07Z</time>
      </trkpt>
      <trkpt lat="43.40559" lon="6.63917">
        <ele>181.345825</ele>
        <time>2013-10-13T11:09:25Z</time>
      </trkpt>
      <trkpt lat="43.40543" lon="6.63884">
        <ele>183.268433</ele>
        <time>2013-10-13T11:09:42Z</time>
      </trkpt>
      <trkpt lat="43.4055" lon="6.63856">
        <ele>185.191162</ele>
        <time>2013-10-13T11:09:56Z</time>
      </trkpt>
      <trkpt lat="43.40552" lon="6.63814">
        <ele>187.11377</ele>
        <time>2013-10-13T11:10:14Z</time>
      </trkpt>
      <trkpt lat="43.40549" lon="6.63768">
        <ele>189.516968</ele>
        <time>2013-10-13T11:10:35Z</time>
      </trkpt>
      <trkpt lat="43.4055" lon="6.63751">
        <ele>190.958984</ele>
        <time>2013-10-13T11:10:43Z</time>
      </trkpt>
      <trkpt lat="43.40549" lon="6.63708">
        <ele>192.401123</ele>
        <time>2013-10-13T11:11:02Z</time>
      </trkpt>
      <trkpt lat="43.40542" lon="6.63664">
        <ele>195.284912</ele>
        <time>2013-10-13T11:11:20Z</time>
      </trkpt>
      <trkpt lat="43.40537" lon="6.63622">
        <ele>197.20752</ele>
        <time>2013-10-13T11:11:37Z</time>
      </trkpt>
      <trkpt lat="43.4054" lon="6.6358">
        <ele>200.572266</ele>
        <time>2013-10-13T11:11:53Z</time>
      </trkpt>
      <trkpt lat="43.40531" lon="6.63535">
        <ele>202.975464</ele>
        <time>2013-10-13T11:12:11Z</time>
      </trkpt>
      <trkpt lat="43.4052" lon="6.63498">
        <ele>203.93689</ele>
        <time>2013-10-13T11:12:26Z</time>
      </trkpt>
      <trkpt lat="43.40506" lon="6.63457">
        <ele>205.859497</ele>
        <time>2013-10-13T11:12:44Z</time>
      </trkpt>
      <trkpt lat="43.40501" lon="6.63436">
        <ele>207.301392</ele>
        <time>2013-10-13T11:12:54Z</time>
      </trkpt>
      <trkpt lat="43.40516" lon="6.63433">
        <ele>208.262817</ele>
        <time>2013-10-13T11:13:05Z</time>
      </trkpt>
      <trkpt lat="43.40537" lon="6.63461">
        <ele>211.146729</ele>
        <time>2013-10-13T11:13:26Z</time>
      </trkpt>
      <trkpt lat="43.40562" lon="6.63478">
        <ele>214.03064</ele>
        <time>2013-10-13T11:13:44Z</time>
      </trkpt>
      <trkpt lat="43.4058" lon="6.63491">
        <ele>217.395386</ele>
        <time>2013-10-13T11:13:58Z</time>
      </trkpt>
      <trkpt lat="43.40609" lon="6.63511">
        <ele>219.798584</ele>
        <time>2013-10-13T11:14:18Z</time>
      </trkpt>
      <trkpt lat="43.40634" lon="6.63539">
        <ele>222.201782</ele>
        <time>2013-10-13T11:14:40Z</time>
      </trkpt>
      <trkpt lat="43.40651" lon="6.63567">
        <ele>224.605225</ele>
        <time>2013-10-13T11:14:59Z</time>
      </trkpt>
      <trkpt lat="43.40671" lon="6.6359">
        <ele>226.527832</ele>
        <time>2013-10-13T11:15:17Z</time>
      </trkpt>
      <trkpt lat="43.40682" lon="6.63604">
        <ele>229.892334</ele>
        <time>2013-10-13T11:15:27Z</time>
      </trkpt>
      <trkpt lat="43.40704" lon="6.63629">
        <ele>231.814941</ele>
        <time>2013-10-13T11:15:49Z</time>
      </trkpt>
      <trkpt lat="43.40728" lon="6.63653">
        <ele>233.737671</ele>
        <time>2013-10-13T11:16:10Z</time>
      </trkpt>
      <trkpt lat="43.40755" lon="6.63653">
        <ele>237.102295</ele>
        <time>2013-10-13T11:16:29Z</time>
      </trkpt>
      <trkpt lat="43.40784" lon="6.63649">
        <ele>239.505493</ele>
        <time>2013-10-13T11:16:50Z</time>
      </trkpt>
      <trkpt lat="43.40804" lon="6.63644">
        <ele>240.947632</ele>
        <time>2013-10-13T11:17:05Z</time>
      </trkpt>
      <trkpt lat="43.40821" lon="6.63615">
        <ele>242.870239</ele>
        <time>2013-10-13T11:17:22Z</time>
      </trkpt>
      <trkpt lat="43.40843" lon="6.63588">
        <ele>245.273438</ele>
        <time>2013-10-13T11:17:41Z</time>
      </trkpt>
      <trkpt lat="43.4087" lon="6.63581">
        <ele>248.157593</ele>
        <time>2013-10-13T11:18:00Z</time>
      </trkpt>
      <trkpt lat="43.40895" lon="6.6356">
        <ele>250.560791</ele>
        <time>2013-10-13T11:18:20Z</time>
      </trkpt>
      <trkpt lat="43.40915" lon="6.63538">
        <ele>252.963989</ele>
        <time>2013-10-13T11:18:38Z</time>
      </trkpt>
      <trkpt lat="43.40936" lon="6.63502">
        <ele>255.36731</ele>
        <time>2013-10-13T11:19:01Z</time>
      </trkpt>
      <trkpt lat="43.40954" lon="6.63468">
        <ele>258.251343</ele>
        <time>2013-10-13T11:19:22Z</time>
      </trkpt>
      <trkpt lat="43.40964" lon="6.63436">
        <ele>259.693359</ele>
        <time>2013-10-13T11:19:40Z</time>
      </trkpt>
      <trkpt lat="43.40966" lon="6.63396">
        <ele>261.615967</ele>
        <time>2013-10-13T11:20:00Z</time>
      </trkpt>
      <trkpt lat="43.40962" lon="6.6336">
        <ele>264.980591</ele>
        <time>2013-10-13T11:20:18Z</time>
      </trkpt>
      <trkpt lat="43.40965" lon="6.63346">
        <ele>265.941895</ele>
        <time>2013-10-13T11:20:26Z</time>
      </trkpt>
      <trkpt lat="43.40986" lon="6.6334">
        <ele>268.825806</ele>
        <time>2013-10-13T11:20:42Z</time>
      </trkpt>
      <trkpt lat="43.41011" lon="6.63316">
        <ele>271.229126</ele>
        <time>2013-10-13T11:21:03Z</time>
      </trkpt>
      <trkpt lat="43.41037" lon="6.63292">
        <ele>272.671143</ele>
        <time>2013-10-13T11:21:23Z</time>
      </trkpt>
      <trkpt lat="43.41061" lon="6.63267">
        <ele>275.555054</ele>
        <time>2013-10-13T11:21:45Z</time>
      </trkpt>
      <trkpt lat="43.4105" lon="6.63268">
        <ele>276.99707</ele>
        <time>2013-10-13T11:21:53Z</time>
      </trkpt>
      <trkpt lat="43.41014" lon="6.63289">
        <ele>278.919678</ele>
        <time>2013-10-13T11:22:11Z</time>
      </trkpt>
      <trkpt lat="43.40977" lon="6.63302">
        <ele>279.400269</ele>
        <time>2013-10-13T11:22:27Z</time>
      </trkpt>
      <trkpt lat="43.40937" lon="6.63311">
        <ele>280.361694</ele>
        <time>2013-10-13T11:22:44Z</time>
      </trkpt>
      <trkpt lat="43.40918" lon="6.63354">
        <ele>282.284302</ele>
        <time>2013-10-13T11:22:59Z</time>
      </trkpt>
      <trkpt lat="43.40889" lon="6.63404">
        <ele>284.206909</ele>
        <time>2013-10-13T11:23:17Z</time>
      </trkpt>
      <trkpt lat="43.40851" lon="6.63424">
        <ele>286.610229</ele>
        <time>2013-10-13T11:23:33Z</time>
      </trkpt>
      <trkpt lat="43.40804" lon="6.63431">
        <ele>289.01355</ele>
        <time>2013-10-13T11:23:50Z</time>
      </trkpt>
      <trkpt lat="43.40765" lon="6.63419">
        <ele>289.974854</ele>
        <time>2013-10-13T11:24:07Z</time>
      </trkpt>
      <trkpt lat="43.4074" lon="6.63397">
        <ele>291.897461</ele>
        <time>2013-10-13T11:24:20Z</time>
      </trkpt>
      <trkpt lat="43.40726" lon="6.63355">
        <ele>294.300781</ele>
        <time>2013-10-13T11:24:35Z</time>
      </trkpt>
      <trkpt lat="43.40718" lon="6.63297">
        <ele>297.184692</ele>
        <time>2013-10-13T11:24:53Z</time>
      </trkpt>
      <trkpt lat="43.40704" lon="6.63249">
        <ele>299.1073</ele>
        <time>2013-10-13T11:25:09Z</time>
      </trkpt>
      <trkpt lat="43.40716" lon="6.63196">
        <ele>301.51062</ele>
        <time>2013-10-13T11:25:28Z</time>
      </trkpt>
      <trkpt lat="43.40735" lon="6.63157">
        <ele>303.91394</ele>
        <time>2013-10-13T11:25:43Z</time>
      </trkpt>
      <trkpt lat="43.40761" lon="6.6311">
        <ele>305.355957</ele>
        <time>2013-10-13T11:26:02Z</time>
      </trkpt>
      <trkpt lat="43.40771" lon="6.6306">
        <ele>307.278564</ele>
        <time>2013-10-13T11:26:19Z</time>
      </trkpt>
      <trkpt lat="43.40771" lon="6.63004">
        <ele>308.720459</ele>
        <time>2013-10-13T11:26:37Z</time>
      </trkpt>
      <trkpt lat="43.40741" lon="6.62961">
        <ele>309.681885</ele>
        <time>2013-10-13T11:26:55Z</time>
      </trkpt>
      <trkpt lat="43.40716" lon="6.62915">
        <ele>310.162476</ele>
        <time>2013-10-13T11:27:13Z</time>
      </trkpt>
      <trkpt lat="43.4071" lon="6.62909">
        <ele>312.085205</ele>
        <time>2013-10-13T11:27:16Z</time>
      </trkpt>
      <trkpt lat="43.40674" lon="6.62906">
        <ele>314.969116</ele>
        <time>2013-10-13T11:27:32Z</time>
      </trkpt>
      <trkpt lat="43.40635" lon="6.62909">
        <ele>317.372437</ele>
        <time>2013-10-13T11:27:49Z</time>
      </trkpt>
      <trkpt lat="43.40633" lon="6.62909">
        <ele>317.372437</ele>
        <time>2013-10-13T11:27:50Z</time>
      </trkpt>
      <trkpt lat="43.40581" lon="6.62909">
        <ele>319.775635</ele>
        <time>2013-10-13T11:28:13Z</time>
      </trkpt>
      <trkpt lat="43.40527" lon="6.62908">
        <ele>322.178955</ele>
        <time>2013-10-13T11:28:36Z</time>
      </trkpt>
      <trkpt lat="43.40489" lon="6.62942">
        <ele>322.659668</ele>
        <time>2013-10-13T11:28:56Z</time>
      </trkpt>
      <trkpt lat="43.40451" lon="6.62934">
        <ele>324.582275</ele>
        <time>2013-10-13T11:29:13Z</time>
      </trkpt>
      <trkpt lat="43.40403" lon="6.62909">
        <ele>327.466187</ele>
        <time>2013-10-13T11:29:35Z</time>
      </trkpt>
      <trkpt lat="43.40366" lon="6.62914">
        <ele>329.869507</ele>
        <time>2013-10-13T11:29:50Z</time>
      </trkpt>
      <trkpt lat="43.40336" lon="6.62943">
        <ele>330.35022</ele>
        <time>2013-10-13T11:30:05Z</time>
      </trkpt>
      <trkpt lat="43.40308" lon="6.63001">
        <ele>332.75354</ele>
        <time>2013-10-13T11:30:25Z</time>
      </trkpt>
      <trkpt lat="43.40279" lon="6.63042">
        <ele>333.714722</ele>
        <time>2013-10-13T11:30:42Z</time>
      </trkpt>
      <trkpt lat="43.40238" lon="6.63069">
        <ele>336.118164</ele>
        <time>2013-10-13T11:31:00Z</time>
      </trkpt>
      <trkpt lat="43.40188" lon="6.63088">
        <ele>337.079468</ele>
        <time>2013-10-13T11:31:20Z</time>
      </trkpt>
      <trkpt lat="43.40169" lon="6.63143">
        <ele>339.963379</ele>
        <time>2013-10-13T11:31:37Z</time>
      </trkpt>
      <trkpt lat="43.4017" lon="6.63219">
        <ele>340.924683</ele>
        <time>2013-10-13T11:31:56Z</time>
      </trkpt>
      <trkpt lat="43.40172" lon="6.6331">
        <ele>341.885986</ele>
        <time>2013-10-13T11:32:19Z</time>
      </trkpt>
      <trkpt lat="43.40165" lon="6.63381">
        <ele>343.808594</ele>
        <time>2013-10-13T11:32:37Z</time>
      </trkpt>
      <trkpt lat="43.40124" lon="6.63408">
        <ele>344.289429</ele>
        <time>2013-10-13T11:32:52Z</time>
      </trkpt>
      <trkpt lat="43.40064" lon="6.63423">
        <ele>345.25061</ele>
        <time>2013-10-13T11:33:10Z</time>
      </trkpt>
      <trkpt lat="43.39993" lon="6.63488">
        <ele>348.134644</ele>
        <time>2013-10-13T11:33:35Z</time>
      </trkpt>
      <trkpt lat="43.39938" lon="6.63508">
        <ele>350.057251</ele>
        <time>2013-10-13T11:33:53Z</time>
      </trkpt>
      <trkpt lat="43.39879" lon="6.63466">
        <ele>353.421875</ele>
        <time>2013-10-13T11:34:12Z</time>
      </trkpt>
      <trkpt lat="43.39831" lon="6.63442">
        <ele>353.902588</ele>
        <time>2013-10-13T11:34:30Z</time>
      </trkpt>
      <trkpt lat="43.39796" lon="6.63436">
        <ele>352.941162</ele>
        <time>2013-10-13T11:34:44Z</time>
      </trkpt>
      <trkpt lat="43.39756" lon="6.63419">
        <ele>354.383179</ele>
        <time>2013-10-13T11:34:59Z</time>
      </trkpt>
      <trkpt lat="43.39731" lon="6.634">
        <ele>356.305786</ele>
        <time>2013-10-13T11:35:11Z</time>
      </trkpt>
      <trkpt lat="43.39723" lon="6.6339">
        <ele>355.344482</ele>
        <time>2013-10-13T11:35:15Z</time>
      </trkpt>
      <trkpt lat="43.39702" lon="6.63402">
        <ele>350.537842</ele>
        <time>2013-10-13T11:35:22Z</time>
      </trkpt>
      <trkpt lat="43.39695" lon="6.63407">
        <ele>349.576538</ele>
        <time>2013-10-13T11:35:24Z</time>
      </trkpt>
      <trkpt lat="43.39688" lon="6.63415">
        <ele>348.615234</ele>
        <time>2013-10-13T11:35:26Z</time>
      </trkpt>
      <trkpt lat="43.39677" lon="6.63433">
        <ele>349.576538</ele>
        <time>2013-10-13T11:35:31Z</time>
      </trkpt>
      <trkpt lat="43.39659" lon="6.63455">
        <ele>347.173218</ele>
        <time>2013-10-13T11:35:40Z</time>
      </trkpt>
      <trkpt lat="43.39632" lon="6.63479">
        <ele>343.327881</ele>
        <time>2013-10-13T11:35:48Z</time>
      </trkpt>
      <trkpt lat="43.39617" lon="6.63491">
        <ele>339.963379</ele>
        <time>2013-10-13T11:35:53Z</time>
      </trkpt>
      <trkpt lat="43.39611" lon="6.63496">
        <ele>339.002075</ele>
        <time>2013-10-13T11:35:55Z</time>
      </trkpt>
      <trkpt lat="43.39606" lon="6.63503">
        <ele>337.560059</ele>
        <time>2013-10-13T11:35:57Z</time>
      </trkpt>
      <trkpt lat="43.3959" lon="6.63511">
        <ele>334.195435</ele>
        <time>2013-10-13T11:36:02Z</time>
      </trkpt>
      <trkpt lat="43.39583" lon="6.63512">
        <ele>332.75354</ele>
        <time>2013-10-13T11:36:04Z</time>
      </trkpt>
      <trkpt lat="43.39568" lon="6.63515">
        <ele>329.388916</ele>
        <time>2013-10-13T11:36:09Z</time>
      </trkpt>
      <trkpt lat="43.39554" lon="6.63518">
        <ele>326.504883</ele>
        <time>2013-10-13T11:36:14Z</time>
      </trkpt>
      <trkpt lat="43.39536" lon="6.63512">
        <ele>323.140381</ele>
        <time>2013-10-13T11:36:22Z</time>
      </trkpt>
      <trkpt lat="43.39523" lon="6.63517">
        <ele>320.256348</ele>
        <time>2013-10-13T11:36:28Z</time>
      </trkpt>
      <trkpt lat="43.39517" lon="6.63522">
        <ele>319.775635</ele>
        <time>2013-10-13T11:36:30Z</time>
      </trkpt>
      <trkpt lat="43.39496" lon="6.63528">
        <ele>316.411011</ele>
        <time>2013-10-13T11:36:35Z</time>
      </trkpt>
      <trkpt lat="43.39474" lon="6.63532">
        <ele>312.565796</ele>
        <time>2013-10-13T11:36:41Z</time>
      </trkpt>
      <trkpt lat="43.39463" lon="6.6354">
        <ele>310.162476</ele>
        <time>2013-10-13T11:36:45Z</time>
      </trkpt>
      <trkpt lat="43.39452" lon="6.63552">
        <ele>306.797852</ele>
        <time>2013-10-13T11:36:50Z</time>
      </trkpt>
      <trkpt lat="43.39444" lon="6.63566">
        <ele>302.952515</ele>
        <time>2013-10-13T11:36:58Z</time>
      </trkpt>
      <trkpt lat="43.39437" lon="6.63572">
        <ele>301.029907</ele>
        <time>2013-10-13T11:37:01Z</time>
      </trkpt>
      <trkpt lat="43.39429" lon="6.63577">
        <ele>297.184692</ele>
        <time>2013-10-13T11:37:04Z</time>
      </trkpt>
      <trkpt lat="43.39424" lon="6.6358">
        <ele>296.704102</ele>
        <time>2013-10-13T11:37:06Z</time>
      </trkpt>
      <trkpt lat="43.39419" lon="6.636">
        <ele>292.858765</ele>
        <time>2013-10-13T11:37:11Z</time>
      </trkpt>
      <trkpt lat="43.39418" lon="6.63605">
        <ele>293.820068</ele>
        <time>2013-10-13T11:37:12Z</time>
      </trkpt>
      <trkpt lat="43.39414" lon="6.63627">
        <ele>290.936157</ele>
        <time>2013-10-13T11:37:16Z</time>
      </trkpt>
      <trkpt lat="43.394" lon="6.63653">
        <ele>288.532959</ele>
        <time>2013-10-13T11:37:24Z</time>
      </trkpt>
      <trkpt lat="43.39389" lon="6.63678">
        <ele>285.648804</ele>
        <time>2013-10-13T11:37:31Z</time>
      </trkpt>
      <trkpt lat="43.39382" lon="6.63684">
        <ele>284.206909</ele>
        <time>2013-10-13T11:37:41Z</time>
      </trkpt>
      <trkpt lat="43.39379" lon="6.63686">
        <ele>280.842407</ele>
        <time>2013-10-13T11:37:46Z</time>
      </trkpt>
      <trkpt lat="43.39368" lon="6.63693">
        <ele>277.477661</ele>
        <time>2013-10-13T11:38:00Z</time>
      </trkpt>
      <trkpt lat="43.39368" lon="6.63694">
        <ele>276.99707</ele>
        <time>2013-10-13T11:38:02Z</time>
      </trkpt>
      <trkpt lat="43.39366" lon="6.63694">
        <ele>278.438965</ele>
        <time>2013-10-13T11:38:07Z</time>
      </trkpt>
      <trkpt lat="43.39362" lon="6.63696">
        <ele>276.516357</ele>
        <time>2013-10-13T11:38:09Z</time>
      </trkpt>
      <trkpt lat="43.39358" lon="6.63699">
        <ele>275.074463</ele>
        <time>2013-10-13T11:38:11Z</time>
      </trkpt>
      <trkpt lat="43.39349" lon="6.63712">
        <ele>271.229126</ele>
        <time>2013-10-13T11:38:16Z</time>
      </trkpt>
      <trkpt lat="43.39345" lon="6.63717">
        <ele>270.748413</ele>
        <time>2013-10-13T11:38:18Z</time>
      </trkpt>
      <trkpt lat="43.39337" lon="6.6373">
        <ele>267.383911</ele>
        <time>2013-10-13T11:38:22Z</time>
      </trkpt>
      <trkpt lat="43.39328" lon="6.63746">
        <ele>264.019287</ele>
        <time>2013-10-13T11:38:27Z</time>
      </trkpt>
      <trkpt lat="43.39326" lon="6.63749">
        <ele>264.019287</ele>
        <time>2013-10-13T11:38:28Z</time>
      </trkpt>
      <trkpt lat="43.39318" lon="6.6376">
        <ele>261.135254</ele>
        <time>2013-10-13T11:38:33Z</time>
      </trkpt>
      <trkpt lat="43.39312" lon="6.63765">
        <ele>259.212646</ele>
        <time>2013-10-13T11:38:36Z</time>
      </trkpt>
      <trkpt lat="43.39309" lon="6.63768">
        <ele>258.251343</ele>
        <time>2013-10-13T11:38:38Z</time>
      </trkpt>
      <trkpt lat="43.39305" lon="6.63769">
        <ele>256.809326</ele>
        <time>2013-10-13T11:38:41Z</time>
      </trkpt>
      <trkpt lat="43.39299" lon="6.63774">
        <ele>255.848022</ele>
        <time>2013-10-13T11:38:45Z</time>
      </trkpt>
      <trkpt lat="43.39297" lon="6.63778">
        <ele>254.406006</ele>
        <time>2013-10-13T11:38:47Z</time>
      </trkpt>
      <trkpt lat="43.39292" lon="6.63789">
        <ele>250.560791</ele>
        <time>2013-10-13T11:38:55Z</time>
      </trkpt>
      <trkpt lat="43.39286" lon="6.63792">
        <ele>247.196045</ele>
        <time>2013-10-13T11:39:07Z</time>
      </trkpt>
      <trkpt lat="43.39281" lon="6.63797">
        <ele>243.831543</ele>
        <time>2013-10-13T11:39:17Z</time>
      </trkpt>
      <trkpt lat="43.3928" lon="6.63802">
        <ele>240.947632</ele>
        <time>2013-10-13T11:39:21Z</time>
      </trkpt>
      <trkpt lat="43.3928" lon="6.63802">
        <ele>241.428223</ele>
        <time>2013-10-13T11:39:22Z</time>
      </trkpt>
      <trkpt lat="43.39277" lon="6.63819">
        <ele>238.544312</ele>
        <time>2013-10-13T11:39:31Z</time>
      </trkpt>
      <trkpt lat="43.39275" lon="6.63833">
        <ele>237.582886</ele>
        <time>2013-10-13T11:39:36Z</time>
      </trkpt>
      <trkpt lat="43.39272" lon="6.63852">
        <ele>234.218384</ele>
        <time>2013-10-13T11:39:40Z</time>
      </trkpt>
      <trkpt lat="43.3927" lon="6.63861">
        <ele>230.85376</ele>
        <time>2013-10-13T11:39:42Z</time>
      </trkpt>
      <trkpt lat="43.3927" lon="6.63866">
        <ele>230.85376</ele>
        <time>2013-10-13T11:39:43Z</time>
      </trkpt>
      <trkpt lat="43.39268" lon="6.63873">
        <ele>228.931152</ele>
        <time>2013-10-13T11:39:45Z</time>
      </trkpt>
      <trkpt lat="43.3926" lon="6.63891">
        <ele>225.566528</ele>
        <time>2013-10-13T11:39:50Z</time>
      </trkpt>
      <trkpt lat="43.39257" lon="6.63907">
        <ele>224.605225</ele>
        <time>2013-10-13T11:39:54Z</time>
      </trkpt>
      <trkpt lat="43.39251" lon="6.63912">
        <ele>223.163208</ele>
        <time>2013-10-13T11:39:56Z</time>
      </trkpt>
      <trkpt lat="43.3924" lon="6.63913">
        <ele>220.279175</ele>
        <time>2013-10-13T11:39:58Z</time>
      </trkpt>
      <trkpt lat="43.39221" lon="6.63918">
        <ele>218.356567</ele>
        <time>2013-10-13T11:40:01Z</time>
      </trkpt>
      <trkpt lat="43.39176" lon="6.63942">
        <ele>217.875977</ele>
        <time>2013-10-13T11:40:11Z</time>
      </trkpt>
      <trkpt lat="43.39154" lon="6.63953">
        <ele>221.240601</ele>
        <time>2013-10-13T11:40:20Z</time>
      </trkpt>
      <trkpt lat="43.39152" lon="6.63954">
        <ele>221.240601</ele>
        <time>2013-10-13T11:40:21Z</time>
      </trkpt>
      <trkpt lat="43.39135" lon="6.63961">
        <ele>224.605225</ele>
        <time>2013-10-13T11:40:29Z</time>
      </trkpt>
      <trkpt lat="43.39101" lon="6.63973">
        <ele>227.008545</ele>
        <time>2013-10-13T11:40:45Z</time>
      </trkpt>
      <trkpt lat="43.39063" lon="6.64008">
        <ele>227.969727</ele>
        <time>2013-10-13T11:41:01Z</time>
      </trkpt>
      <trkpt lat="43.39038" lon="6.64025">
        <ele>226.047119</ele>
        <time>2013-10-13T11:41:07Z</time>
      </trkpt>
      <trkpt lat="43.39024" lon="6.64036">
        <ele>223.163208</ele>
        <time>2013-10-13T11:41:10Z</time>
      </trkpt>
      <trkpt lat="43.39019" lon="6.6404">
        <ele>222.682495</ele>
        <time>2013-10-13T11:41:11Z</time>
      </trkpt>
      <trkpt lat="43.39001" lon="6.64059">
        <ele>219.798584</ele>
        <time>2013-10-13T11:41:15Z</time>
      </trkpt>
      <trkpt lat="43.38967" lon="6.64077">
        <ele>215.953247</ele>
        <time>2013-10-13T11:41:23Z</time>
      </trkpt>
      <trkpt lat="43.38962" lon="6.64078">
        <ele>213.550049</ele>
        <time>2013-10-13T11:41:24Z</time>
      </trkpt>
      <trkpt lat="43.38947" lon="6.6408">
        <ele>209.224121</ele>
        <time>2013-10-13T11:41:28Z</time>
      </trkpt>
      <trkpt lat="43.38935" lon="6.64071">
        <ele>206.340088</ele>
        <time>2013-10-13T11:41:32Z</time>
      </trkpt>
      <trkpt lat="43.38933" lon="6.6406">
        <ele>204.898071</ele>
        <time>2013-10-13T11:41:35Z</time>
      </trkpt>
      <trkpt lat="43.38937" lon="6.64042">
        <ele>203.456177</ele>
        <time>2013-10-13T11:41:45Z</time>
      </trkpt>
      <trkpt lat="43.38938" lon="6.64039">
        <ele>203.93689</ele>
        <time>2013-10-13T11:42:01Z</time>
      </trkpt>
      <trkpt lat="43.38944" lon="6.64027">
        <ele>202.494873</ele>
        <time>2013-10-13T11:42:18Z</time>
      </trkpt>
      <trkpt lat="43.38949" lon="6.64017">
        <ele>202.494873</ele>
        <time>2013-10-13T11:42:30Z</time>
      </trkpt>
      <trkpt lat="43.38955" lon="6.64011">
        <ele>202.014282</ele>
        <time>2013-10-13T11:42:43Z</time>
      </trkpt>
      <trkpt lat="43.38969" lon="6.63999">
        <ele>202.014282</ele>
        <time>2013-10-13T11:42:54Z</time>
      </trkpt>
      <trkpt lat="43.38992" lon="6.63984">
        <ele>201.533569</ele>
        <time>2013-10-13T11:43:07Z</time>
      </trkpt>
      <trkpt lat="43.39017" lon="6.63956">
        <ele>202.014282</ele>
        <time>2013-10-13T11:43:24Z</time>
      </trkpt>
      <trkpt lat="43.3903" lon="6.63937">
        <ele>202.494873</ele>
        <time>2013-10-13T11:43:38Z</time>
      </trkpt>
      <trkpt lat="43.39031" lon="6.63928">
        <ele>200.091675</ele>
        <time>2013-10-13T11:43:51Z</time>
      </trkpt>
      <trkpt lat="43.39032" lon="6.63922">
        <ele>198.649536</ele>
        <time>2013-10-13T11:44:00Z</time>
      </trkpt>
      <trkpt lat="43.39027" lon="6.63912">
        <ele>194.804321</ele>
        <time>2013-10-13T11:44:09Z</time>
      </trkpt>
      <trkpt lat="43.39026" lon="6.6391">
        <ele>194.804321</ele>
        <time>2013-10-13T11:44:10Z</time>
      </trkpt>
      <trkpt lat="43.39016" lon="6.63888">
        <ele>192.881714</ele>
        <time>2013-10-13T11:44:22Z</time>
      </trkpt>
      <trkpt lat="43.39004" lon="6.63877">
        <ele>191.920288</ele>
        <time>2013-10-13T11:44:28Z</time>
      </trkpt>
      <trkpt lat="43.38996" lon="6.63874">
        <ele>188.555786</ele>
        <time>2013-10-13T11:44:32Z</time>
      </trkpt>
      <trkpt lat="43.38986" lon="6.63868">
        <ele>186.633179</ele>
        <time>2013-10-13T11:44:36Z</time>
      </trkpt>
      <trkpt lat="43.38981" lon="6.63863">
        <ele>185.191162</ele>
        <time>2013-10-13T11:44:38Z</time>
      </trkpt>
      <trkpt lat="43.38972" lon="6.63855">
        <ele>180.865234</ele>
        <time>2013-10-13T11:44:42Z</time>
      </trkpt>
      <trkpt lat="43.3897" lon="6.63853">
        <ele>180.865234</ele>
        <time>2013-10-13T11:44:43Z</time>
      </trkpt>
      <trkpt lat="43.38961" lon="6.63842">
        <ele>177.02002</ele>
        <time>2013-10-13T11:44:51Z</time>
      </trkpt>
      <trkpt lat="43.38958" lon="6.63833">
        <ele>173.655273</ele>
        <time>2013-10-13T11:44:54Z</time>
      </trkpt>
      <trkpt lat="43.38956" lon="6.63823">
        <ele>170.771362</ele>
        <time>2013-10-13T11:44:56Z</time>
      </trkpt>
      <trkpt lat="43.38953" lon="6.63811">
        <ele>168.848755</ele>
        <time>2013-10-13T11:44:58Z</time>
      </trkpt>
      <trkpt lat="43.38933" lon="6.63779">
        <ele>167.887329</ele>
        <time>2013-10-13T11:45:06Z</time>
      </trkpt>
      <trkpt lat="43.3893" lon="6.63776">
        <ele>167.887329</ele>
        <time>2013-10-13T11:45:07Z</time>
      </trkpt>
      <trkpt lat="43.38892" lon="6.63733">
        <ele>167.887329</ele>
        <time>2013-10-13T11:45:21Z</time>
      </trkpt>
      <trkpt lat="43.38887" lon="6.63728">
        <ele>166.445313</ele>
        <time>2013-10-13T11:45:23Z</time>
      </trkpt>
      <trkpt lat="43.38884" lon="6.63722">
        <ele>165.003418</ele>
        <time>2013-10-13T11:45:25Z</time>
      </trkpt>
      <trkpt lat="43.38879" lon="6.63706">
        <ele>163.080811</ele>
        <time>2013-10-13T11:45:30Z</time>
      </trkpt>
      <trkpt lat="43.38865" lon="6.63691">
        <ele>157.793579</ele>
        <time>2013-10-13T11:45:36Z</time>
      </trkpt>
      <trkpt lat="43.38863" lon="6.63688">
        <ele>157.793579</ele>
        <time>2013-10-13T11:45:37Z</time>
      </trkpt>
      <trkpt lat="43.38848" lon="6.63669">
        <ele>154.428955</ele>
        <time>2013-10-13T11:45:44Z</time>
      </trkpt>
      <trkpt lat="43.38845" lon="6.63664">
        <ele>153.948364</ele>
        <time>2013-10-13T11:45:55Z</time>
      </trkpt>
      <trkpt lat="43.38842" lon="6.63661">
        <ele>152.506348</ele>
        <time>2013-10-13T11:46:18Z</time>
      </trkpt>
      <trkpt lat="43.38838" lon="6.63659">
        <ele>151.064209</ele>
        <time>2013-10-13T11:46:20Z</time>
      </trkpt>
      <trkpt lat="43.38818" lon="6.6364">
        <ele>151.544922</ele>
        <time>2013-10-13T11:46:27Z</time>
      </trkpt>
      <trkpt lat="43.38809" lon="6.63629">
        <ele>152.025757</ele>
        <time>2013-10-13T11:46:31Z</time>
      </trkpt>
      <trkpt lat="43.38794" lon="6.63595">
        <ele>150.583618</ele>
        <time>2013-10-13T11:46:37Z</time>
      </trkpt>
      <trkpt lat="43.38781" lon="6.63559">
        <ele>153.467651</ele>
        <time>2013-10-13T11:46:46Z</time>
      </trkpt>
      <trkpt lat="43.38779" lon="6.63521">
        <ele>156.832153</ele>
        <time>2013-10-13T11:46:58Z</time>
      </trkpt>
      <trkpt lat="43.38787" lon="6.63496">
        <ele>158.754761</ele>
        <time>2013-10-13T11:47:09Z</time>
      </trkpt>
      <trkpt lat="43.38769" lon="6.63481">
        <ele>156.351563</ele>
        <time>2013-10-13T11:47:15Z</time>
      </trkpt>
      <trkpt lat="43.38765" lon="6.6348">
        <ele>156.351563</ele>
        <time>2013-10-13T11:47:16Z</time>
      </trkpt>
      <trkpt lat="43.38757" lon="6.63479">
        <ele>155.870972</ele>
        <time>2013-10-13T11:47:18Z</time>
      </trkpt>
      <trkpt lat="43.38742" lon="6.63488">
        <ele>152.506348</ele>
        <time>2013-10-13T11:47:23Z</time>
      </trkpt>
      <trkpt lat="43.38732" lon="6.635">
        <ele>149.141602</ele>
        <time>2013-10-13T11:47:28Z</time>
      </trkpt>
      <trkpt lat="43.38726" lon="6.63506">
        <ele>146.257813</ele>
        <time>2013-10-13T11:47:32Z</time>
      </trkpt>
      <trkpt lat="43.38719" lon="6.63505">
        <ele>144.335205</ele>
        <time>2013-10-13T11:47:36Z</time>
      </trkpt>
      <trkpt lat="43.38713" lon="6.635">
        <ele>143.85437</ele>
        <time>2013-10-13T11:47:39Z</time>
      </trkpt>
      <trkpt lat="43.387" lon="6.63492">
        <ele>141.45105</ele>
        <time>2013-10-13T11:47:43Z</time>
      </trkpt>
      <trkpt lat="43.38685" lon="6.63484">
        <ele>139.047852</ele>
        <time>2013-10-13T11:47:47Z</time>
      </trkpt>
      <trkpt lat="43.3867" lon="6.63477">
        <ele>136.16394</ele>
        <time>2013-10-13T11:47:51Z</time>
      </trkpt>
      <trkpt lat="43.38668" lon="6.63474">
        <ele>136.644653</ele>
        <time>2013-10-13T11:47:52Z</time>
      </trkpt>
      <trkpt lat="43.3866" lon="6.63456">
        <ele>133.279907</ele>
        <time>2013-10-13T11:47:56Z</time>
      </trkpt>
      <trkpt lat="43.38658" lon="6.63452">
        <ele>133.279907</ele>
        <time>2013-10-13T11:47:57Z</time>
      </trkpt>
      <trkpt lat="43.38651" lon="6.63428">
        <ele>130.876709</ele>
        <time>2013-10-13T11:48:02Z</time>
      </trkpt>
      <trkpt lat="43.38647" lon="6.63416">
        <ele>128.954102</ele>
        <time>2013-10-13T11:48:05Z</time>
      </trkpt>
      <trkpt lat="43.38645" lon="6.6341">
        <ele>127.992554</ele>
        <time>2013-10-13T11:48:07Z</time>
      </trkpt>
      <trkpt lat="43.38638" lon="6.63397">
        <ele>125.589355</ele>
        <time>2013-10-13T11:48:10Z</time>
      </trkpt>
      <trkpt lat="43.38622" lon="6.63395">
        <ele>122.224731</ele>
        <time>2013-10-13T11:48:16Z</time>
      </trkpt>
      <trkpt lat="43.3861" lon="6.63402">
        <ele>118.860107</ele>
        <time>2013-10-13T11:48:20Z</time>
      </trkpt>
      <trkpt lat="43.38594" lon="6.63399">
        <ele>117.898804</ele>
        <time>2013-10-13T11:48:24Z</time>
      </trkpt>
      <trkpt lat="43.38569" lon="6.63395">
        <ele>115.495605</ele>
        <time>2013-10-13T11:48:30Z</time>
      </trkpt>
      <trkpt lat="43.38561" lon="6.6339">
        <ele>113.092285</ele>
        <time>2013-10-13T11:48:32Z</time>
      </trkpt>
      <trkpt lat="43.38538" lon="6.63396">
        <ele>108.766235</ele>
        <time>2013-10-13T11:48:37Z</time>
      </trkpt>
      <trkpt lat="43.38528" lon="6.63407">
        <ele>107.324341</ele>
        <time>2013-10-13T11:48:39Z</time>
      </trkpt>
      <trkpt lat="43.38523" lon="6.63412">
        <ele>106.363037</ele>
        <time>2013-10-13T11:48:40Z</time>
      </trkpt>
      <trkpt lat="43.38471" lon="6.63475">
        <ele>104.44043</ele>
        <time>2013-10-13T11:48:54Z</time>
      </trkpt>
      <trkpt lat="43.38433" lon="6.63516">
        <ele>102.5177</ele>
        <time>2013-10-13T11:49:03Z</time>
      </trkpt>
      <trkpt lat="43.38422" lon="6.63541">
        <ele>102.5177</ele>
        <time>2013-10-13T11:49:07Z</time>
      </trkpt>
      <trkpt lat="43.3842" lon="6.63555">
        <ele>102.037109</ele>
        <time>2013-10-13T11:49:09Z</time>
      </trkpt>
      <trkpt lat="43.38389" lon="6.63606">
        <ele>100.114502</ele>
        <time>2013-10-13T11:49:19Z</time>
      </trkpt>
      <trkpt lat="43.38382" lon="6.63617">
        <ele>98.191895</ele>
        <time>2013-10-13T11:49:22Z</time>
      </trkpt>
      <trkpt lat="43.38371" lon="6.63633">
        <ele>96.269287</ele>
        <time>2013-10-13T11:49:34Z</time>
      </trkpt>
      <trkpt lat="43.3837" lon="6.63636">
        <ele>96.269287</ele>
        <time>2013-10-13T11:49:36Z</time>
      </trkpt>
      <trkpt lat="43.38358" lon="6.63645">
        <ele>94.827148</ele>
        <time>2013-10-13T11:49:53Z</time>
      </trkpt>
      <trkpt lat="43.3834" lon="6.63653">
        <ele>95.788452</ele>
        <time>2013-10-13T11:50:12Z</time>
      </trkpt>
      <trkpt lat="43.38337" lon="6.63655">
        <ele>96.269287</ele>
        <time>2013-10-13T11:50:25Z</time>
      </trkpt>
      <trkpt lat="43.38324" lon="6.63673">
        <ele>96.749878</ele>
        <time>2013-10-13T11:50:37Z</time>
      </trkpt>
      <trkpt lat="43.38298" lon="6.63699">
        <ele>100.114502</ele>
        <time>2013-10-13T11:50:55Z</time>
      </trkpt>
      <trkpt lat="43.38266" lon="6.63722">
        <ele>102.5177</ele>
        <time>2013-10-13T11:51:16Z</time>
      </trkpt>
      <trkpt lat="43.38232" lon="6.63709">
        <ele>101.075684</ele>
        <time>2013-10-13T11:51:28Z</time>
      </trkpt>
      <trkpt lat="43.38188" lon="6.63673">
        <ele>102.037109</ele>
        <time>2013-10-13T11:51:46Z</time>
      </trkpt>
      <trkpt lat="43.38165" lon="6.63637">
        <ele>102.037109</ele>
        <time>2013-10-13T11:51:55Z</time>
      </trkpt>
      <trkpt lat="43.38159" lon="6.63609">
        <ele>100.114502</ele>
        <time>2013-10-13T11:52:00Z</time>
      </trkpt>
      <trkpt lat="43.38156" lon="6.63604">
        <ele>98.191895</ele>
        <time>2013-10-13T11:52:02Z</time>
      </trkpt>
      <trkpt lat="43.38144" lon="6.63599">
        <ele>98.191895</ele>
        <time>2013-10-13T11:52:08Z</time>
      </trkpt>
      <trkpt lat="43.38141" lon="6.636">
        <ele>99.153076</ele>
        <time>2013-10-13T11:52:10Z</time>
      </trkpt>
      <trkpt lat="43.38139" lon="6.63607">
        <ele>99.153076</ele>
        <time>2013-10-13T11:52:13Z</time>
      </trkpt>
      <trkpt lat="43.38138" lon="6.63674">
        <ele>98.672485</ele>
        <time>2013-10-13T11:52:29Z</time>
      </trkpt>
      <trkpt lat="43.38153" lon="6.63738">
        <ele>101.556396</ele>
        <time>2013-10-13T11:52:47Z</time>
      </trkpt>
      <trkpt lat="43.38165" lon="6.63763">
        <ele>104.921021</ele>
        <time>2013-10-13T11:53:00Z</time>
      </trkpt>
      <trkpt lat="43.38178" lon="6.63785">
        <ele>108.285645</ele>
        <time>2013-10-13T11:53:13Z</time>
      </trkpt>
      <trkpt lat="43.38199" lon="6.63818">
        <ele>110.208252</ele>
        <time>2013-10-13T11:53:34Z</time>
      </trkpt>
      <trkpt lat="43.38213" lon="6.63839">
        <ele>112.130981</ele>
        <time>2013-10-13T11:53:47Z</time>
      </trkpt>
      <trkpt lat="43.38207" lon="6.63845">
        <ele>113.572998</ele>
        <time>2013-10-13T11:53:54Z</time>
      </trkpt>
      <trkpt lat="43.38193" lon="6.63833">
        <ele>115.495605</ele>
        <time>2013-10-13T11:54:05Z</time>
      </trkpt>
      <trkpt lat="43.38166" lon="6.63818">
        <ele>117.418213</ele>
        <time>2013-10-13T11:54:26Z</time>
      </trkpt>
      <trkpt lat="43.38143" lon="6.63805">
        <ele>120.302124</ele>
        <time>2013-10-13T11:54:43Z</time>
      </trkpt>
      <trkpt lat="43.38115" lon="6.63799">
        <ele>123.186157</ele>
        <time>2013-10-13T11:55:02Z</time>
      </trkpt>
      <trkpt lat="43.38086" lon="6.63789">
        <ele>126.069946</ele>
        <time>2013-10-13T11:55:23Z</time>
      </trkpt>
      <trkpt lat="43.38065" lon="6.63776">
        <ele>129.434692</ele>
        <time>2013-10-13T11:55:40Z</time>
      </trkpt>
      <trkpt lat="43.38051" lon="6.63772">
        <ele>130.876709</ele>
        <time>2013-10-13T11:55:49Z</time>
      </trkpt>
      <trkpt lat="43.38021" lon="6.6376">
        <ele>133.760498</ele>
        <time>2013-10-13T11:56:08Z</time>
      </trkpt>
      <trkpt lat="43.37993" lon="6.63753">
        <ele>136.644653</ele>
        <time>2013-10-13T11:56:27Z</time>
      </trkpt>
      <trkpt lat="43.37957" lon="6.63754">
        <ele>139.047852</ele>
        <time>2013-10-13T11:56:50Z</time>
      </trkpt>
      <trkpt lat="43.37919" lon="6.63761">
        <ele>142.412476</ele>
        <time>2013-10-13T11:57:14Z</time>
      </trkpt>
      <trkpt lat="43.37889" lon="6.63763">
        <ele>143.85437</ele>
        <time>2013-10-13T11:57:32Z</time>
      </trkpt>
      <trkpt lat="43.37856" lon="6.63757">
        <ele>145.296387</ele>
        <time>2013-10-13T11:57:52Z</time>
      </trkpt>
      <trkpt lat="43.37826" lon="6.63756">
        <ele>148.18042</ele>
        <time>2013-10-13T11:58:12Z</time>
      </trkpt>
      <trkpt lat="43.37794" lon="6.63749">
        <ele>151.544922</ele>
        <time>2013-10-13T11:58:33Z</time>
      </trkpt>
      <trkpt lat="43.37767" lon="6.63745">
        <ele>154.428955</ele>
        <time>2013-10-13T11:58:52Z</time>
      </trkpt>
      <trkpt lat="43.3775" lon="6.63724">
        <ele>156.351563</ele>
        <time>2013-10-13T11:59:09Z</time>
      </trkpt>
      <trkpt lat="43.3775" lon="6.63719">
        <ele>157.312866</ele>
        <time>2013-10-13T11:59:11Z</time>
      </trkpt>
      <trkpt lat="43.37733" lon="6.6369">
        <ele>157.312866</ele>
        <time>2013-10-13T11:59:26Z</time>
      </trkpt>
      <trkpt lat="43.3771" lon="6.63646">
        <ele>157.312866</ele>
        <time>2013-10-13T11:59:40Z</time>
      </trkpt>
      <trkpt lat="43.3771" lon="6.63602">
        <ele>157.793579</ele>
        <time>2013-10-13T11:59:52Z</time>
      </trkpt>
      <trkpt lat="43.37727" lon="6.63569">
        <ele>158.27417</ele>
        <time>2013-10-13T12:00:03Z</time>
      </trkpt>
      <trkpt lat="43.37734" lon="6.63507">
        <ele>158.27417</ele>
        <time>2013-10-13T12:00:18Z</time>
      </trkpt>
      <trkpt lat="43.3774" lon="6.63442">
        <ele>160.196899</ele>
        <time>2013-10-13T12:00:36Z</time>
      </trkpt>
      <trkpt lat="43.37725" lon="6.63409">
        <ele>163.080811</ele>
        <time>2013-10-13T12:00:52Z</time>
      </trkpt>
      <trkpt lat="43.37712" lon="6.63365">
        <ele>165.484131</ele>
        <time>2013-10-13T12:01:12Z</time>
      </trkpt>
      <trkpt lat="43.37689" lon="6.6336">
        <ele>167.406738</ele>
        <time>2013-10-13T12:01:27Z</time>
      </trkpt>
      <trkpt lat="43.37654" lon="6.63363">
        <ele>170.290649</ele>
        <time>2013-10-13T12:01:48Z</time>
      </trkpt>
      <trkpt lat="43.37644" lon="6.63368">
        <ele>171.252075</ele>
        <time>2013-10-13T12:01:54Z</time>
      </trkpt>
      <trkpt lat="43.37651" lon="6.63383">
        <ele>173.174683</ele>
        <time>2013-10-13T12:02:03Z</time>
      </trkpt>
      <trkpt lat="43.37672" lon="6.63413">
        <ele>175.09729</ele>
        <time>2013-10-13T12:02:22Z</time>
      </trkpt>
      <trkpt lat="43.37679" lon="6.63446">
        <ele>177.50061</ele>
        <time>2013-10-13T12:02:39Z</time>
      </trkpt>
      <trkpt lat="43.37675" lon="6.63493">
        <ele>179.423218</ele>
        <time>2013-10-13T12:02:59Z</time>
      </trkpt>
      <trkpt lat="43.37649" lon="6.63548">
        <ele>180.384521</ele>
        <time>2013-10-13T12:03:18Z</time>
      </trkpt>
      <trkpt lat="43.37623" lon="6.63587">
        <ele>183.268433</ele>
        <time>2013-10-13T12:03:35Z</time>
      </trkpt>
      <trkpt lat="43.37606" lon="6.63604">
        <ele>183.749023</ele>
        <time>2013-10-13T12:03:46Z</time>
      </trkpt>
      <trkpt lat="43.37605" lon="6.63639">
        <ele>185.671753</ele>
        <time>2013-10-13T12:04:02Z</time>
      </trkpt>
      <trkpt lat="43.37612" lon="6.63664">
        <ele>188.555786</ele>
        <time>2013-10-13T12:04:16Z</time>
      </trkpt>
      <trkpt lat="43.37629" lon="6.63703">
        <ele>191.439575</ele>
        <time>2013-10-13T12:04:38Z</time>
      </trkpt>
      <trkpt lat="43.3763" lon="6.6374">
        <ele>194.32373</ele>
        <time>2013-10-13T12:05:01Z</time>
      </trkpt>
      <trkpt lat="43.37625" lon="6.6377">
        <ele>196.726929</ele>
        <time>2013-10-13T12:05:19Z</time>
      </trkpt>
      <trkpt lat="43.37636" lon="6.63793">
        <ele>199.61084</ele>
        <time>2013-10-13T12:05:35Z</time>
      </trkpt>
      <trkpt lat="43.37652" lon="6.63823">
        <ele>202.014282</ele>
        <time>2013-10-13T12:05:56Z</time>
      </trkpt>
      <trkpt lat="43.37664" lon="6.63849">
        <ele>205.378784</ele>
        <time>2013-10-13T12:06:14Z</time>
      </trkpt>
      <trkpt lat="43.3767" lon="6.63881">
        <ele>207.782104</ele>
        <time>2013-10-13T12:06:33Z</time>
      </trkpt>
      <trkpt lat="43.37677" lon="6.6391">
        <ele>210.666016</ele>
        <time>2013-10-13T12:06:51Z</time>
      </trkpt>
      <trkpt lat="43.37687" lon="6.63937">
        <ele>212.588623</ele>
        <time>2013-10-13T12:07:08Z</time>
      </trkpt>
      <trkpt lat="43.3769" lon="6.63967">
        <ele>209.704834</ele>
        <time>2013-10-13T12:07:18Z</time>
      </trkpt>
      <trkpt lat="43.37673" lon="6.63994">
        <ele>205.378784</ele>
        <time>2013-10-13T12:07:24Z</time>
      </trkpt>
      <trkpt lat="43.37668" lon="6.63994">
        <ele>205.378784</ele>
        <time>2013-10-13T12:07:25Z</time>
      </trkpt>
      <trkpt lat="43.37658" lon="6.63993">
        <ele>205.378784</ele>
        <time>2013-10-13T12:07:27Z</time>
      </trkpt>
      <trkpt lat="43.37637" lon="6.64002">
        <ele>204.898071</ele>
        <time>2013-10-13T12:07:32Z</time>
      </trkpt>
      <trkpt lat="43.3762" lon="6.64016">
        <ele>204.898071</ele>
        <time>2013-10-13T12:07:36Z</time>
      </trkpt>
      <trkpt lat="43.37596" lon="6.6403">
        <ele>201.533569</ele>
        <time>2013-10-13T12:07:41Z</time>
      </trkpt>
      <trkpt lat="43.37601" lon="6.64043">
        <ele>200.091675</ele>
        <time>2013-10-13T12:07:46Z</time>
      </trkpt>
      <trkpt lat="43.37613" lon="6.64046">
        <ele>199.130127</ele>
        <time>2013-10-13T12:07:48Z</time>
      </trkpt>
      <trkpt lat="43.37642" lon="6.64045">
        <ele>194.804321</ele>
        <time>2013-10-13T12:07:52Z</time>
      </trkpt>
      <trkpt lat="43.37648" lon="6.64045">
        <ele>194.32373</ele>
        <time>2013-10-13T12:07:53Z</time>
      </trkpt>
      <trkpt lat="43.37665" lon="6.64049">
        <ele>193.362305</ele>
        <time>2013-10-13T12:07:56Z</time>
      </trkpt>
      <trkpt lat="43.37673" lon="6.64054">
        <ele>189.997681</ele>
        <time>2013-10-13T12:07:58Z</time>
      </trkpt>
      <trkpt lat="43.37679" lon="6.64058">
        <ele>189.036377</ele>
        <time>2013-10-13T12:08:00Z</time>
      </trkpt>
      <trkpt lat="43.37673" lon="6.64073">
        <ele>188.075073</ele>
        <time>2013-10-13T12:08:04Z</time>
      </trkpt>
      <trkpt lat="43.37654" lon="6.64091">
        <ele>185.671753</ele>
        <time>2013-10-13T12:08:08Z</time>
      </trkpt>
      <trkpt lat="43.37633" lon="6.64105">
        <ele>182.787842</ele>
        <time>2013-10-13T12:08:13Z</time>
      </trkpt>
      <trkpt lat="43.37631" lon="6.64107">
        <ele>181.345825</ele>
        <time>2013-10-13T12:08:14Z</time>
      </trkpt>
      <trkpt lat="43.37637" lon="6.6412">
        <ele>179.423218</ele>
        <time>2013-10-13T12:08:19Z</time>
      </trkpt>
      <trkpt lat="43.37667" lon="6.64124">
        <ele>176.058594</ele>
        <time>2013-10-13T12:08:24Z</time>
      </trkpt>
      <trkpt lat="43.3769" lon="6.64113">
        <ele>173.655273</ele>
        <time>2013-10-13T12:08:29Z</time>
      </trkpt>
      <trkpt lat="43.37698" lon="6.64108">
        <ele>172.213257</ele>
        <time>2013-10-13T12:08:31Z</time>
      </trkpt>
      <trkpt lat="43.37703" lon="6.64107">
        <ele>171.252075</ele>
        <time>2013-10-13T12:08:32Z</time>
      </trkpt>
      <trkpt lat="43.37727" lon="6.64105">
        <ele>171.252075</ele>
        <time>2013-10-13T12:08:38Z</time>
      </trkpt>
      <trkpt lat="43.3774" lon="6.64102">
        <ele>170.290649</ele>
        <time>2013-10-13T12:08:41Z</time>
      </trkpt>
      <trkpt lat="43.37759" lon="6.64094">
        <ele>167.887329</ele>
        <time>2013-10-13T12:08:45Z</time>
      </trkpt>
      <trkpt lat="43.37792" lon="6.64093">
        <ele>165.003418</ele>
        <time>2013-10-13T12:08:52Z</time>
      </trkpt>
      <trkpt lat="43.37815" lon="6.64087">
        <ele>163.080811</ele>
        <time>2013-10-13T12:08:56Z</time>
      </trkpt>
      <trkpt lat="43.37826" lon="6.64086">
        <ele>162.600098</ele>
        <time>2013-10-13T12:08:58Z</time>
      </trkpt>
      <trkpt lat="43.37854" lon="6.64076">
        <ele>161.638916</ele>
        <time>2013-10-13T12:09:03Z</time>
      </trkpt>
      <trkpt lat="43.37869" lon="6.64075">
        <ele>160.196899</ele>
        <time>2013-10-13T12:09:06Z</time>
      </trkpt>
      <trkpt lat="43.37884" lon="6.64082">
        <ele>157.312866</ele>
        <time>2013-10-13T12:09:10Z</time>
      </trkpt>
      <trkpt lat="43.3789" lon="6.64084">
        <ele>155.870972</ele>
        <time>2013-10-13T12:09:12Z</time>
      </trkpt>
      <trkpt lat="43.37906" lon="6.64086">
        <ele>153.467651</ele>
        <time>2013-10-13T12:09:16Z</time>
      </trkpt>
      <trkpt lat="43.37915" lon="6.64088">
        <ele>152.506348</ele>
        <time>2013-10-13T12:09:18Z</time>
      </trkpt>
      <trkpt lat="43.37933" lon="6.64096">
        <ele>150.583618</ele>
        <time>2013-10-13T12:09:22Z</time>
      </trkpt>
      <trkpt lat="43.37955" lon="6.64102">
        <ele>147.699707</ele>
        <time>2013-10-13T12:09:28Z</time>
      </trkpt>
      <trkpt lat="43.37969" lon="6.64109">
        <ele>146.257813</ele>
        <time>2013-10-13T12:09:31Z</time>
      </trkpt>
      <trkpt lat="43.37999" lon="6.64131">
        <ele>144.815796</ele>
        <time>2013-10-13T12:09:37Z</time>
      </trkpt>
      <trkpt lat="43.38007" lon="6.64138">
        <ele>144.335205</ele>
        <time>2013-10-13T12:09:39Z</time>
      </trkpt>
      <trkpt lat="43.38048" lon="6.64172">
        <ele>140.009155</ele>
        <time>2013-10-13T12:09:48Z</time>
      </trkpt>
      <trkpt lat="43.38061" lon="6.64198">
        <ele>137.125244</ele>
        <time>2013-10-13T12:09:55Z</time>
      </trkpt>
      <trkpt lat="43.38065" lon="6.64219">
        <ele>133.760498</ele>
        <time>2013-10-13T12:10:00Z</time>
      </trkpt>
      <trkpt lat="43.38066" lon="6.64224">
        <ele>133.760498</ele>
        <time>2013-10-13T12:10:01Z</time>
      </trkpt>
      <trkpt lat="43.38067" lon="6.64239">
        <ele>131.3573</ele>
        <time>2013-10-13T12:10:05Z</time>
      </trkpt>
      <trkpt lat="43.38065" lon="6.64258">
        <ele>127.031372</ele>
        <time>2013-10-13T12:10:11Z</time>
      </trkpt>
      <trkpt lat="43.38065" lon="6.64261">
        <ele>127.992554</ele>
        <time>2013-10-13T12:10:12Z</time>
      </trkpt>
      <trkpt lat="43.38069" lon="6.64272">
        <ele>126.069946</ele>
        <time>2013-10-13T12:10:16Z</time>
      </trkpt>
      <trkpt lat="43.38073" lon="6.64279">
        <ele>126.069946</ele>
        <time>2013-10-13T12:10:26Z</time>
      </trkpt>
      <trkpt lat="43.38073" lon="6.64278">
        <ele>127.031372</ele>
        <time>2013-10-13T12:10:35Z</time>
      </trkpt>
      <trkpt lat="43.381" lon="6.64283">
        <ele>122.705444</ele>
        <time>2013-10-13T12:10:46Z</time>
      </trkpt>
      <trkpt lat="43.38117" lon="6.6427">
        <ele>121.744141</ele>
        <time>2013-10-13T12:10:56Z</time>
      </trkpt>
      <trkpt lat="43.38137" lon="6.64269">
        <ele>119.34082</ele>
        <time>2013-10-13T12:11:05Z</time>
      </trkpt>
      <trkpt lat="43.3814" lon="6.64269">
        <ele>117.898804</ele>
        <time>2013-10-13T12:11:06Z</time>
      </trkpt>
      <trkpt lat="43.38163" lon="6.64256">
        <ele>115.495605</ele>
        <time>2013-10-13T12:11:12Z</time>
      </trkpt>
      <trkpt lat="43.38174" lon="6.64249">
        <ele>114.053589</ele>
        <time>2013-10-13T12:11:15Z</time>
      </trkpt>
      <trkpt lat="43.38184" lon="6.64244">
        <ele>113.092285</ele>
        <time>2013-10-13T12:11:19Z</time>
      </trkpt>
      <trkpt lat="43.38202" lon="6.64225">
        <ele>109.727661</ele>
        <time>2013-10-13T12:11:25Z</time>
      </trkpt>
      <trkpt lat="43.38209" lon="6.64225">
        <ele>107.805054</ele>
        <time>2013-10-13T12:11:27Z</time>
      </trkpt>
      <trkpt lat="43.3822" lon="6.64234">
        <ele>106.363037</ele>
        <time>2013-10-13T12:11:30Z</time>
      </trkpt>
      <trkpt lat="43.38222" lon="6.64277">
        <ele>102.998291</ele>
        <time>2013-10-13T12:11:38Z</time>
      </trkpt>
      <trkpt lat="43.38226" lon="6.64298">
        <ele>102.5177</ele>
        <time>2013-10-13T12:11:43Z</time>
      </trkpt>
      <trkpt lat="43.38222" lon="6.64314">
        <ele>102.5177</ele>
        <time>2013-10-13T12:11:47Z</time>
      </trkpt>
      <trkpt lat="43.38211" lon="6.64326">
        <ele>102.037109</ele>
        <time>2013-10-13T12:11:50Z</time>
      </trkpt>
      <trkpt lat="43.38197" lon="6.64335">
        <ele>100.114502</ele>
        <time>2013-10-13T12:11:53Z</time>
      </trkpt>
      <trkpt lat="43.38173" lon="6.64352">
        <ele>95.788452</ele>
        <time>2013-10-13T12:11:58Z</time>
      </trkpt>
      <trkpt lat="43.3817" lon="6.64356">
        <ele>95.307739</ele>
        <time>2013-10-13T12:11:59Z</time>
      </trkpt>
      <trkpt lat="43.38151" lon="6.64374">
        <ele>94.346558</ele>
        <time>2013-10-13T12:12:05Z</time>
      </trkpt>
      <trkpt lat="43.38125" lon="6.6443">
        <ele>92.42395</ele>
        <time>2013-10-13T12:12:16Z</time>
      </trkpt>
      <trkpt lat="43.38102" lon="6.64438">
        <ele>90.981934</ele>
        <time>2013-10-13T12:12:21Z</time>
      </trkpt>
      <trkpt lat="43.38092" lon="6.64431">
        <ele>90.501343</ele>
        <time>2013-10-13T12:12:23Z</time>
      </trkpt>
      <trkpt lat="43.38042" lon="6.64437">
        <ele>88.578735</ele>
        <time>2013-10-13T12:12:32Z</time>
      </trkpt>
      <trkpt lat="43.38033" lon="6.64447">
        <ele>87.617188</ele>
        <time>2013-10-13T12:12:34Z</time>
      </trkpt>
      <trkpt lat="43.38002" lon="6.64455">
        <ele>88.098022</ele>
        <time>2013-10-13T12:12:40Z</time>
      </trkpt>
      <trkpt lat="43.3793" lon="6.64445">
        <ele>87.617188</ele>
        <time>2013-10-13T12:12:55Z</time>
      </trkpt>
      <trkpt lat="43.37891" lon="6.64452">
        <ele>87.617188</ele>
        <time>2013-10-13T12:13:04Z</time>
      </trkpt>
      <trkpt lat="43.37849" lon="6.6447">
        <ele>88.578735</ele>
        <time>2013-10-13T12:13:16Z</time>
      </trkpt>
      <trkpt lat="43.37786" lon="6.64512">
        <ele>90.02063</ele>
        <time>2013-10-13T12:13:35Z</time>
      </trkpt>
      <trkpt lat="43.37753" lon="6.64541">
        <ele>90.981934</ele>
        <time>2013-10-13T12:13:48Z</time>
      </trkpt>
      <trkpt lat="43.37741" lon="6.64568">
        <ele>93.385132</ele>
        <time>2013-10-13T12:14:02Z</time>
      </trkpt>
      <trkpt lat="43.3772" lon="6.6459">
        <ele>94.827148</ele>
        <time>2013-10-13T12:14:19Z</time>
      </trkpt>
      <trkpt lat="43.37673" lon="6.64598">
        <ele>96.269287</ele>
        <time>2013-10-13T12:14:41Z</time>
      </trkpt>
      <trkpt lat="43.37636" lon="6.6458">
        <ele>97.230469</ele>
        <time>2013-10-13T12:14:58Z</time>
      </trkpt>
      <trkpt lat="43.37579" lon="6.6459">
        <ele>96.749878</ele>
        <time>2013-10-13T12:15:14Z</time>
      </trkpt>
      <trkpt lat="43.37523" lon="6.64632">
        <ele>96.749878</ele>
        <time>2013-10-13T12:15:30Z</time>
      </trkpt>
      <trkpt lat="43.37469" lon="6.64675">
        <ele>98.191895</ele>
        <time>2013-10-13T12:15:49Z</time>
      </trkpt>
      <trkpt lat="43.37412" lon="6.64721">
        <ele>101.556396</ele>
        <time>2013-10-13T12:16:09Z</time>
      </trkpt>
      <trkpt lat="43.37351" lon="6.64766">
        <ele>102.037109</ele>
        <time>2013-10-13T12:16:28Z</time>
      </trkpt>
      <trkpt lat="43.37288" lon="6.64769">
        <ele>101.556396</ele>
        <time>2013-10-13T12:16:45Z</time>
      </trkpt>
      <trkpt lat="43.37274" lon="6.64764">
        <ele>101.556396</ele>
        <time>2013-10-13T12:16:49Z</time>
      </trkpt>
      <trkpt lat="43.37225" lon="6.64694">
        <ele>104.44043</ele>
        <time>2013-10-13T12:17:10Z</time>
      </trkpt>
      <trkpt lat="43.37186" lon="6.647">
        <ele>105.882446</ele>
        <time>2013-10-13T12:17:22Z</time>
      </trkpt>
      <trkpt lat="43.3715" lon="6.6472">
        <ele>106.363037</ele>
        <time>2013-10-13T12:17:35Z</time>
      </trkpt>
      <trkpt lat="43.3708" lon="6.64756">
        <ele>107.324341</ele>
        <time>2013-10-13T12:17:56Z</time>
      </trkpt>
      <trkpt lat="43.3701" lon="6.64771">
        <ele>108.766235</ele>
        <time>2013-10-13T12:18:17Z</time>
      </trkpt>
      <trkpt lat="43.36944" lon="6.64759">
        <ele>111.169556</ele>
        <time>2013-10-13T12:18:37Z</time>
      </trkpt>
      <trkpt lat="43.36893" lon="6.64782">
        <ele>113.572998</ele>
        <time>2013-10-13T12:18:55Z</time>
      </trkpt>
      <trkpt lat="43.36871" lon="6.64823">
        <ele>114.053589</ele>
        <time>2013-10-13T12:19:09Z</time>
      </trkpt>
      <trkpt lat="43.3686" lon="6.64861">
        <ele>116.9375</ele>
        <time>2013-10-13T12:19:21Z</time>
      </trkpt>
      <trkpt lat="43.36821" lon="6.64871">
        <ele>117.898804</ele>
        <time>2013-10-13T12:19:33Z</time>
      </trkpt>
      <trkpt lat="43.36765" lon="6.64881">
        <ele>118.860107</ele>
        <time>2013-10-13T12:19:51Z</time>
      </trkpt>
      <trkpt lat="43.3671" lon="6.64891">
        <ele>120.782837</ele>
        <time>2013-10-13T12:20:08Z</time>
      </trkpt>
      <trkpt lat="43.36649" lon="6.64919">
        <ele>123.666748</ele>
        <time>2013-10-13T12:20:30Z</time>
      </trkpt>
      <trkpt lat="43.36586" lon="6.64958">
        <ele>124.628052</ele>
        <time>2013-10-13T12:20:50Z</time>
      </trkpt>
      <trkpt lat="43.36563" lon="6.64995">
        <ele>127.992554</ele>
        <time>2013-10-13T12:21:04Z</time>
      </trkpt>
      <trkpt lat="43.36567" lon="6.65071">
        <ele>129.434692</ele>
        <time>2013-10-13T12:21:22Z</time>
      </trkpt>
      <trkpt lat="43.36583" lon="6.65145">
        <ele>129.434692</ele>
        <time>2013-10-13T12:21:40Z</time>
      </trkpt>
      <trkpt lat="43.36587" lon="6.65208">
        <ele>130.876709</ele>
        <time>2013-10-13T12:21:57Z</time>
      </trkpt>
      <trkpt lat="43.36581" lon="6.65284">
        <ele>132.799316</ele>
        <time>2013-10-13T12:22:17Z</time>
      </trkpt>
      <trkpt lat="43.36594" lon="6.65347">
        <ele>134.241211</ele>
        <time>2013-10-13T12:22:34Z</time>
      </trkpt>
      <trkpt lat="43.36596" lon="6.65429">
        <ele>136.16394</ele>
        <time>2013-10-13T12:22:54Z</time>
      </trkpt>
      <trkpt lat="43.36603" lon="6.65482">
        <ele>137.125244</ele>
        <time>2013-10-13T12:23:08Z</time>
      </trkpt>
      <trkpt lat="43.36612" lon="6.65514">
        <ele>140.489868</ele>
        <time>2013-10-13T12:23:22Z</time>
      </trkpt>
      <trkpt lat="43.3661" lon="6.65568">
        <ele>142.412476</ele>
        <time>2013-10-13T12:23:42Z</time>
      </trkpt>
      <trkpt lat="43.36617" lon="6.65609">
        <ele>143.85437</ele>
        <time>2013-10-13T12:23:55Z</time>
      </trkpt>
      <trkpt lat="43.36619" lon="6.65613">
        <ele>144.815796</ele>
        <time>2013-10-13T12:23:57Z</time>
      </trkpt>
      <trkpt lat="43.36639" lon="6.65669">
        <ele>147.218994</ele>
        <time>2013-10-13T12:24:23Z</time>
      </trkpt>
      <trkpt lat="43.36661" lon="6.65718">
        <ele>149.141602</ele>
        <time>2013-10-13T12:24:44Z</time>
      </trkpt>
      <trkpt lat="43.36677" lon="6.65749">
        <ele>152.025757</ele>
        <time>2013-10-13T12:24:58Z</time>
      </trkpt>
      <trkpt lat="43.36672" lon="6.65796">
        <ele>154.428955</ele>
        <time>2013-10-13T12:25:21Z</time>
      </trkpt>
      <trkpt lat="43.36652" lon="6.65838">
        <ele>156.351563</ele>
        <time>2013-10-13T12:25:42Z</time>
      </trkpt>
      <trkpt lat="43.36659" lon="6.65873">
        <ele>156.832153</ele>
        <time>2013-10-13T12:25:56Z</time>
      </trkpt>
      <trkpt lat="43.36674" lon="6.65871">
        <ele>159.235474</ele>
        <time>2013-10-13T12:26:05Z</time>
      </trkpt>
      <trkpt lat="43.36708" lon="6.65863">
        <ele>161.638916</ele>
        <time>2013-10-13T12:26:27Z</time>
      </trkpt>
      <trkpt lat="43.3672" lon="6.65884">
        <ele>164.522705</ele>
        <time>2013-10-13T12:26:44Z</time>
      </trkpt>
      <trkpt lat="43.36732" lon="6.65924">
        <ele>167.406738</ele>
        <time>2013-10-13T12:27:09Z</time>
      </trkpt>
      <trkpt lat="43.36734" lon="6.65935">
        <ele>169.329468</ele>
        <time>2013-10-13T12:27:16Z</time>
      </trkpt>
      <trkpt lat="43.36741" lon="6.65968">
        <ele>172.69397</ele>
        <time>2013-10-13T12:27:36Z</time>
      </trkpt>
      <trkpt lat="43.36751" lon="6.66012">
        <ele>173.174683</ele>
        <time>2013-10-13T12:27:57Z</time>
      </trkpt>
      <trkpt lat="43.3676" lon="6.66043">
        <ele>176.539307</ele>
        <time>2013-10-13T12:28:13Z</time>
      </trkpt>
      <trkpt lat="43.36756" lon="6.6609">
        <ele>178.942627</ele>
        <time>2013-10-13T12:28:34Z</time>
      </trkpt>
      <trkpt lat="43.36761" lon="6.66128">
        <ele>182.307129</ele>
        <time>2013-10-13T12:28:52Z</time>
      </trkpt>
      <trkpt lat="43.36749" lon="6.66146">
        <ele>183.749023</ele>
        <time>2013-10-13T12:29:03Z</time>
      </trkpt>
      <trkpt lat="43.3673" lon="6.66179">
        <ele>184.710571</ele>
        <time>2013-10-13T12:29:21Z</time>
      </trkpt>
      <trkpt lat="43.36711" lon="6.66225">
        <ele>186.633179</ele>
        <time>2013-10-13T12:29:43Z</time>
      </trkpt>
      <trkpt lat="43.3671" lon="6.66229">
        <ele>186.633179</ele>
        <time>2013-10-13T12:29:45Z</time>
      </trkpt>
      <trkpt lat="43.36708" lon="6.66241">
        <ele>186.633179</ele>
        <time>2013-10-13T12:29:58Z</time>
      </trkpt>
      <trkpt lat="43.36705" lon="6.6624">
        <ele>186.633179</ele>
        <time>2013-10-13T12:30:12Z</time>
      </trkpt>
      <trkpt lat="43.36704" lon="6.6624">
        <ele>187.59436</ele>
        <time>2013-10-13T12:30:23Z</time>
      </trkpt>
      <trkpt lat="43.36703" lon="6.66237">
        <ele>187.59436</ele>
        <time>2013-10-13T12:30:38Z</time>
      </trkpt>
      <trkpt lat="43.36704" lon="6.66237">
        <ele>186.633179</ele>
        <time>2013-10-13T12:30:58Z</time>
      </trkpt>
      <trkpt lat="43.36703" lon="6.66237">
        <ele>187.11377</ele>
        <time>2013-10-13T12:31:15Z</time>
      </trkpt>
      <trkpt lat="43.36703" lon="6.66238">
        <ele>187.11377</ele>
        <time>2013-10-13T12:31:32Z</time>
      </trkpt>
      <trkpt lat="43.36705" lon="6.66238">
        <ele>187.11377</ele>
        <time>2013-10-13T12:31:53Z</time>
      </trkpt>
      <trkpt lat="43.36703" lon="6.66237">
        <ele>187.59436</ele>
        <time>2013-10-13T12:32:26Z</time>
      </trkpt>
      <trkpt lat="43.36701" lon="6.66238">
        <ele>187.11377</ele>
        <time>2013-10-13T12:32:40Z</time>
      </trkpt>
      <trkpt lat="43.36701" lon="6.66238">
        <ele>187.11377</ele>
        <time>2013-10-13T12:32:59Z</time>
      </trkpt>
      <trkpt lat="43.36703" lon="6.6624">
        <ele>187.59436</ele>
        <time>2013-10-13T12:33:13Z</time>
      </trkpt>
      <trkpt lat="43.36705" lon="6.66241">
        <ele>187.11377</ele>
        <time>2013-10-13T12:33:26Z</time>
      </trkpt>
      <trkpt lat="43.36705" lon="6.66243">
        <ele>187.11377</ele>
        <time>2013-10-13T12:33:43Z</time>
      </trkpt>
      <trkpt lat="43.367" lon="6.66248">
        <ele>187.59436</ele>
        <time>2013-10-13T12:33:57Z</time>
      </trkpt>
      <trkpt lat="43.36698" lon="6.66262">
        <ele>186.633179</ele>
        <time>2013-10-13T12:34:08Z</time>
      </trkpt>
      <trkpt lat="43.36693" lon="6.66282">
        <ele>184.710571</ele>
        <time>2013-10-13T12:34:18Z</time>
      </trkpt>
      <trkpt lat="43.36693" lon="6.66283">
        <ele>185.191162</ele>
        <time>2013-10-13T12:34:20Z</time>
      </trkpt>
      <trkpt lat="43.3668" lon="6.66289">
        <ele>182.787842</ele>
        <time>2013-10-13T12:34:29Z</time>
      </trkpt>
      <trkpt lat="43.36673" lon="6.66295">
        <ele>180.384521</ele>
        <time>2013-10-13T12:34:33Z</time>
      </trkpt>
      <trkpt lat="43.36671" lon="6.66334">
        <ele>177.981201</ele>
        <time>2013-10-13T12:34:42Z</time>
      </trkpt>
      <trkpt lat="43.36671" lon="6.66346">
        <ele>178.461914</ele>
        <time>2013-10-13T12:34:44Z</time>
      </trkpt>
      <trkpt lat="43.3667" lon="6.66377">
        <ele>176.539307</ele>
        <time>2013-10-13T12:34:49Z</time>
      </trkpt>
      <trkpt lat="43.36677" lon="6.66423">
        <ele>173.655273</ele>
        <time>2013-10-13T12:35:01Z</time>
      </trkpt>
      <trkpt lat="43.36679" lon="6.66428">
        <ele>172.69397</ele>
        <time>2013-10-13T12:35:04Z</time>
      </trkpt>
      <trkpt lat="43.36681" lon="6.66432">
        <ele>172.213257</ele>
        <time>2013-10-13T12:35:21Z</time>
      </trkpt>
      <trkpt lat="43.36682" lon="6.66452">
        <ele>168.368042</ele>
        <time>2013-10-13T12:35:37Z</time>
      </trkpt>
      <trkpt lat="43.36683" lon="6.66463">
        <ele>166.445313</ele>
        <time>2013-10-13T12:35:52Z</time>
      </trkpt>
      <trkpt lat="43.36684" lon="6.66475">
        <ele>164.522705</ele>
        <time>2013-10-13T12:36:05Z</time>
      </trkpt>
      <trkpt lat="43.36685" lon="6.66486">
        <ele>161.158203</ele>
        <time>2013-10-13T12:36:15Z</time>
      </trkpt>
      <trkpt lat="43.36685" lon="6.66492">
        <ele>159.235474</ele>
        <time>2013-10-13T12:36:21Z</time>
      </trkpt>
      <trkpt lat="43.36688" lon="6.66507">
        <ele>156.351563</ele>
        <time>2013-10-13T12:36:36Z</time>
      </trkpt>
      <trkpt lat="43.36693" lon="6.66528">
        <ele>153.948364</ele>
        <time>2013-10-13T12:36:54Z</time>
      </trkpt>
      <trkpt lat="43.36695" lon="6.66543">
        <ele>152.506348</ele>
        <time>2013-10-13T12:37:10Z</time>
      </trkpt>
      <trkpt lat="43.367" lon="6.66557">
        <ele>152.986938</ele>
        <time>2013-10-13T12:37:21Z</time>
      </trkpt>
      <trkpt lat="43.36703" lon="6.66567">
        <ele>151.544922</ele>
        <time>2013-10-13T12:37:23Z</time>
      </trkpt>
      <trkpt lat="43.36707" lon="6.66581">
        <ele>150.583618</ele>
        <time>2013-10-13T12:37:26Z</time>
      </trkpt>
      <trkpt lat="43.36717" lon="6.66607">
        <ele>146.738403</ele>
        <time>2013-10-13T12:37:33Z</time>
      </trkpt>
      <trkpt lat="43.36721" lon="6.66626">
        <ele>143.85437</ele>
        <time>2013-10-13T12:37:38Z</time>
      </trkpt>
      <trkpt lat="43.36723" lon="6.66637">
        <ele>140.489868</ele>
        <time>2013-10-13T12:37:43Z</time>
      </trkpt>
      <trkpt lat="43.36724" lon="6.66639">
        <ele>140.970459</ele>
        <time>2013-10-13T12:37:44Z</time>
      </trkpt>
      <trkpt lat="43.36725" lon="6.66648">
        <ele>138.567261</ele>
        <time>2013-10-13T12:37:48Z</time>
      </trkpt>
      <trkpt lat="43.36726" lon="6.66659">
        <ele>135.683105</ele>
        <time>2013-10-13T12:37:59Z</time>
      </trkpt>
      <trkpt lat="43.36727" lon="6.66667">
        <ele>133.760498</ele>
        <time>2013-10-13T12:38:07Z</time>
      </trkpt>
      <trkpt lat="43.36729" lon="6.66676">
        <ele>133.279907</ele>
        <time>2013-10-13T12:38:20Z</time>
      </trkpt>
      <trkpt lat="43.36729" lon="6.6668">
        <ele>131.837891</ele>
        <time>2013-10-13T12:38:35Z</time>
      </trkpt>
      <trkpt lat="43.36731" lon="6.66697">
        <ele>129.915283</ele>
        <time>2013-10-13T12:38:43Z</time>
      </trkpt>
      <trkpt lat="43.36729" lon="6.66717">
        <ele>129.915283</ele>
        <time>2013-10-13T12:38:57Z</time>
      </trkpt>
      <trkpt lat="43.36728" lon="6.66729">
        <ele>128.954102</ele>
        <time>2013-10-13T12:39:07Z</time>
      </trkpt>
      <trkpt lat="43.3673" lon="6.66755">
        <ele>128.473389</ele>
        <time>2013-10-13T12:39:19Z</time>
      </trkpt>
      <trkpt lat="43.36727" lon="6.66792">
        <ele>126.550659</ele>
        <time>2013-10-13T12:39:27Z</time>
      </trkpt>
      <trkpt lat="43.36732" lon="6.66813">
        <ele>124.628052</ele>
        <time>2013-10-13T12:39:31Z</time>
      </trkpt>
      <trkpt lat="43.36732" lon="6.66828">
        <ele>122.705444</ele>
        <time>2013-10-13T12:39:34Z</time>
      </trkpt>
      <trkpt lat="43.36731" lon="6.6685">
        <ele>121.744141</ele>
        <time>2013-10-13T12:39:38Z</time>
      </trkpt>
      <trkpt lat="43.36714" lon="6.6687">
        <ele>119.34082</ele>
        <time>2013-10-13T12:39:44Z</time>
      </trkpt>
      <trkpt lat="43.3671" lon="6.66869">
        <ele>118.860107</ele>
        <time>2013-10-13T12:39:45Z</time>
      </trkpt>
      <trkpt lat="43.36703" lon="6.66867">
        <ele>117.898804</ele>
        <time>2013-10-13T12:39:47Z</time>
      </trkpt>
      <trkpt lat="43.36697" lon="6.66874">
        <ele>115.976196</ele>
        <time>2013-10-13T12:39:51Z</time>
      </trkpt>
      <trkpt lat="43.36696" lon="6.66877">
        <ele>115.495605</ele>
        <time>2013-10-13T12:39:55Z</time>
      </trkpt>
      <trkpt lat="43.36702" lon="6.66898">
        <ele>118.860107</ele>
        <time>2013-10-13T12:40:10Z</time>
      </trkpt>
      <trkpt lat="43.36707" lon="6.66927">
        <ele>120.782837</ele>
        <time>2013-10-13T12:40:28Z</time>
      </trkpt>
      <trkpt lat="43.36709" lon="6.66956">
        <ele>123.666748</ele>
        <time>2013-10-13T12:40:46Z</time>
      </trkpt>
      <trkpt lat="43.36709" lon="6.66973">
        <ele>124.147339</ele>
        <time>2013-10-13T12:41:04Z</time>
      </trkpt>
      <trkpt lat="43.3671" lon="6.66973">
        <ele>124.147339</ele>
        <time>2013-10-13T12:41:12Z</time>
      </trkpt>
      <trkpt lat="43.3671" lon="6.66984">
        <ele>124.628052</ele>
        <time>2013-10-13T12:41:17Z</time>
      </trkpt>
      <trkpt lat="43.36702" lon="6.67028">
        <ele>125.108765</ele>
        <time>2013-10-13T12:41:29Z</time>
      </trkpt>
      <trkpt lat="43.36698" lon="6.67042">
        <ele>124.628052</ele>
        <time>2013-10-13T12:41:32Z</time>
      </trkpt>
      <trkpt lat="43.36694" lon="6.67053">
        <ele>123.666748</ele>
        <time>2013-10-13T12:41:34Z</time>
      </trkpt>
      <trkpt lat="43.36684" lon="6.67091">
        <ele>122.705444</ele>
        <time>2013-10-13T12:41:41Z</time>
      </trkpt>
      <trkpt lat="43.36691" lon="6.67122">
        <ele>119.821411</ele>
        <time>2013-10-13T12:41:48Z</time>
      </trkpt>
      <trkpt lat="43.36694" lon="6.67145">
        <ele>116.456787</ele>
        <time>2013-10-13T12:41:53Z</time>
      </trkpt>
      <trkpt lat="43.36694" lon="6.67157">
        <ele>115.495605</ele>
        <time>2013-10-13T12:41:55Z</time>
      </trkpt>
      <trkpt lat="43.3669" lon="6.67211">
        <ele>114.053589</ele>
        <time>2013-10-13T12:42:04Z</time>
      </trkpt>
      <trkpt lat="43.36673" lon="6.67223">
        <ele>113.092285</ele>
        <time>2013-10-13T12:42:09Z</time>
      </trkpt>
      <trkpt lat="43.36667" lon="6.67225">
        <ele>112.130981</ele>
        <time>2013-10-13T12:42:11Z</time>
      </trkpt>
      <trkpt lat="43.36659" lon="6.67265">
        <ele>110.688843</ele>
        <time>2013-10-13T12:42:18Z</time>
      </trkpt>
      <trkpt lat="43.36655" lon="6.67289">
        <ele>109.246948</ele>
        <time>2013-10-13T12:42:23Z</time>
      </trkpt>
      <trkpt lat="43.36655" lon="6.67312">
        <ele>109.246948</ele>
        <time>2013-10-13T12:42:29Z</time>
      </trkpt>
      <trkpt lat="43.36692" lon="6.67342">
        <ele>111.169556</ele>
        <time>2013-10-13T12:42:45Z</time>
      </trkpt>
      <trkpt lat="43.36706" lon="6.67379">
        <ele>113.572998</ele>
        <time>2013-10-13T12:43:01Z</time>
      </trkpt>
      <trkpt lat="43.36706" lon="6.67412">
        <ele>115.495605</ele>
        <time>2013-10-13T12:43:12Z</time>
      </trkpt>
      <trkpt lat="43.3672" lon="6.67462">
        <ele>114.053589</ele>
        <time>2013-10-13T12:43:24Z</time>
      </trkpt>
      <trkpt lat="43.36749" lon="6.67537">
        <ele>114.53418</ele>
        <time>2013-10-13T12:43:42Z</time>
      </trkpt>
      <trkpt lat="43.36766" lon="6.6759">
        <ele>115.495605</ele>
        <time>2013-10-13T12:43:57Z</time>
      </trkpt>
      <trkpt lat="43.36761" lon="6.67624">
        <ele>118.379395</ele>
        <time>2013-10-13T12:44:11Z</time>
      </trkpt>
      <trkpt lat="43.36751" lon="6.67654">
        <ele>121.744141</ele>
        <time>2013-10-13T12:44:26Z</time>
      </trkpt>
      <trkpt lat="43.36749" lon="6.67677">
        <ele>124.147339</ele>
        <time>2013-10-13T12:44:37Z</time>
      </trkpt>
      <trkpt lat="43.36745" lon="6.67702">
        <ele>125.108765</ele>
        <time>2013-10-13T12:44:51Z</time>
      </trkpt>
      <trkpt lat="43.36748" lon="6.67727">
        <ele>128.954102</ele>
        <time>2013-10-13T12:45:03Z</time>
      </trkpt>
      <trkpt lat="43.36756" lon="6.6777">
        <ele>131.3573</ele>
        <time>2013-10-13T12:45:27Z</time>
      </trkpt>
      <trkpt lat="43.3676" lon="6.67789">
        <ele>134.721924</ele>
        <time>2013-10-13T12:45:41Z</time>
      </trkpt>
      <trkpt lat="43.36762" lon="6.67792">
        <ele>134.721924</ele>
        <time>2013-10-13T12:45:44Z</time>
      </trkpt>
      <trkpt lat="43.36765" lon="6.67811">
        <ele>138.086548</ele>
        <time>2013-10-13T12:45:57Z</time>
      </trkpt>
      <trkpt lat="43.36768" lon="6.67833">
        <ele>140.970459</ele>
        <time>2013-10-13T12:46:16Z</time>
      </trkpt>
      <trkpt lat="43.36768" lon="6.67847">
        <ele>144.335205</ele>
        <time>2013-10-13T12:46:28Z</time>
      </trkpt>
      <trkpt lat="43.36766" lon="6.6787">
        <ele>147.218994</ele>
        <time>2013-10-13T12:46:51Z</time>
      </trkpt>
      <trkpt lat="43.36765" lon="6.67886">
        <ele>150.583618</ele>
        <time>2013-10-13T12:47:05Z</time>
      </trkpt>
      <trkpt lat="43.36767" lon="6.67906">
        <ele>153.467651</ele>
        <time>2013-10-13T12:47:23Z</time>
      </trkpt>
      <trkpt lat="43.36772" lon="6.67934">
        <ele>155.870972</ele>
        <time>2013-10-13T12:47:45Z</time>
      </trkpt>
      <trkpt lat="43.36766" lon="6.67954">
        <ele>157.793579</ele>
        <time>2013-10-13T12:48:05Z</time>
      </trkpt>
      <trkpt lat="43.36756" lon="6.67979">
        <ele>157.793579</ele>
        <time>2013-10-13T12:48:19Z</time>
      </trkpt>
      <trkpt lat="43.36728" lon="6.68003">
        <ele>157.312866</ele>
        <time>2013-10-13T12:48:34Z</time>
      </trkpt>
      <trkpt lat="43.36698" lon="6.68023">
        <ele>158.27417</ele>
        <time>2013-10-13T12:48:50Z</time>
      </trkpt>
      <trkpt lat="43.36703" lon="6.68072">
        <ele>158.754761</ele>
        <time>2013-10-13T12:49:05Z</time>
      </trkpt>
      <trkpt lat="43.36723" lon="6.68126">
        <ele>161.158203</ele>
        <time>2013-10-13T12:49:22Z</time>
      </trkpt>
      <trkpt lat="43.36703" lon="6.6819">
        <ele>160.196899</ele>
        <time>2013-10-13T12:49:36Z</time>
      </trkpt>
      <trkpt lat="43.36701" lon="6.68194">
        <ele>159.235474</ele>
        <time>2013-10-13T12:49:37Z</time>
      </trkpt>
      <trkpt lat="43.36664" lon="6.68235">
        <ele>159.716187</ele>
        <time>2013-10-13T12:49:48Z</time>
      </trkpt>
      <trkpt lat="43.36623" lon="6.6824">
        <ele>159.716187</ele>
        <time>2013-10-13T12:49:58Z</time>
      </trkpt>
      <trkpt lat="43.36554" lon="6.68189">
        <ele>159.235474</ele>
        <time>2013-10-13T12:50:16Z</time>
      </trkpt>
      <trkpt lat="43.36537" lon="6.68155">
        <ele>159.716187</ele>
        <time>2013-10-13T12:50:23Z</time>
      </trkpt>
      <trkpt lat="43.36512" lon="6.68135">
        <ele>159.716187</ele>
        <time>2013-10-13T12:50:30Z</time>
      </trkpt>
      <trkpt lat="43.36464" lon="6.6812">
        <ele>159.235474</ele>
        <time>2013-10-13T12:50:40Z</time>
      </trkpt>
      <trkpt lat="43.36438" lon="6.6814">
        <ele>159.235474</ele>
        <time>2013-10-13T12:50:47Z</time>
      </trkpt>
      <trkpt lat="43.36438" lon="6.68159">
        <ele>160.196899</ele>
        <time>2013-10-13T12:50:50Z</time>
      </trkpt>
      <trkpt lat="43.36447" lon="6.68251">
        <ele>160.196899</ele>
        <time>2013-10-13T12:51:04Z</time>
      </trkpt>
      <trkpt lat="43.36447" lon="6.68278">
        <ele>160.67749</ele>
        <time>2013-10-13T12:51:08Z</time>
      </trkpt>
      <trkpt lat="43.36415" lon="6.68336">
        <ele>158.754761</ele>
        <time>2013-10-13T12:51:18Z</time>
      </trkpt>
      <trkpt lat="43.364" lon="6.68347">
        <ele>158.754761</ele>
        <time>2013-10-13T12:51:21Z</time>
      </trkpt>
      <trkpt lat="43.36373" lon="6.68357">
        <ele>158.27417</ele>
        <time>2013-10-13T12:51:26Z</time>
      </trkpt>
      <trkpt lat="43.36349" lon="6.68386">
        <ele>158.27417</ele>
        <time>2013-10-13T12:51:32Z</time>
      </trkpt>
      <trkpt lat="43.36337" lon="6.68423">
        <ele>156.832153</ele>
        <time>2013-10-13T12:51:39Z</time>
      </trkpt>
      <trkpt lat="43.36335" lon="6.68432">
        <ele>156.832153</ele>
        <time>2013-10-13T12:51:48Z</time>
      </trkpt>
      <trkpt lat="43.36338" lon="6.68448">
        <ele>159.235474</ele>
        <time>2013-10-13T12:52:01Z</time>
      </trkpt>
      <trkpt lat="43.36348" lon="6.6846">
        <ele>160.196899</ele>
        <time>2013-10-13T12:52:19Z</time>
      </trkpt>
      <trkpt lat="43.3636" lon="6.68472">
        <ele>161.158203</ele>
        <time>2013-10-13T12:52:30Z</time>
      </trkpt>
      <trkpt lat="43.36388" lon="6.68512">
        <ele>162.600098</ele>
        <time>2013-10-13T12:52:46Z</time>
      </trkpt>
      <trkpt lat="43.36418" lon="6.68543">
        <ele>165.484131</ele>
        <time>2013-10-13T12:52:59Z</time>
      </trkpt>
      <trkpt lat="43.36456" lon="6.68577">
        <ele>166.926025</ele>
        <time>2013-10-13T12:53:16Z</time>
      </trkpt>
      <trkpt lat="43.36482" lon="6.6863">
        <ele>165.003418</ele>
        <time>2013-10-13T12:53:30Z</time>
      </trkpt>
      <trkpt lat="43.36493" lon="6.68654">
        <ele>165.003418</ele>
        <time>2013-10-13T12:53:35Z</time>
      </trkpt>
      <trkpt lat="43.36506" lon="6.68678">
        <ele>163.080811</ele>
        <time>2013-10-13T12:53:40Z</time>
      </trkpt>
      <trkpt lat="43.36513" lon="6.68694">
        <ele>162.119507</ele>
        <time>2013-10-13T12:53:43Z</time>
      </trkpt>
      <trkpt lat="43.36522" lon="6.68736">
        <ele>160.67749</ele>
        <time>2013-10-13T12:53:50Z</time>
      </trkpt>
      <trkpt lat="43.3652" lon="6.68754">
        <ele>159.716187</ele>
        <time>2013-10-13T12:53:53Z</time>
      </trkpt>
      <trkpt lat="43.36517" lon="6.68776">
        <ele>159.716187</ele>
        <time>2013-10-13T12:53:57Z</time>
      </trkpt>
      <trkpt lat="43.36489" lon="6.6881">
        <ele>159.716187</ele>
        <time>2013-10-13T12:54:07Z</time>
      </trkpt>
      <trkpt lat="43.36471" lon="6.68812">
        <ele>156.351563</ele>
        <time>2013-10-13T12:54:13Z</time>
      </trkpt>
      <trkpt lat="43.36463" lon="6.68822">
        <ele>152.986938</ele>
        <time>2013-10-13T12:54:16Z</time>
      </trkpt>
      <trkpt lat="43.36434" lon="6.68841">
        <ele>151.064209</ele>
        <time>2013-10-13T12:54:24Z</time>
      </trkpt>
      <trkpt lat="43.36403" lon="6.68837">
        <ele>149.141602</ele>
        <time>2013-10-13T12:54:34Z</time>
      </trkpt>
      <trkpt lat="43.36384" lon="6.68845">
        <ele>152.506348</ele>
        <time>2013-10-13T12:54:43Z</time>
      </trkpt>
      <trkpt lat="43.36378" lon="6.68848">
        <ele>152.506348</ele>
        <time>2013-10-13T12:54:46Z</time>
      </trkpt>
      <trkpt lat="43.36358" lon="6.68893">
        <ele>154.909546</ele>
        <time>2013-10-13T12:55:01Z</time>
      </trkpt>
      <trkpt lat="43.36334" lon="6.68935">
        <ele>154.909546</ele>
        <time>2013-10-13T12:55:15Z</time>
      </trkpt>
      <trkpt lat="43.36316" lon="6.6895">
        <ele>154.428955</ele>
        <time>2013-10-13T12:55:22Z</time>
      </trkpt>
      <trkpt lat="43.36303" lon="6.6896">
        <ele>152.025757</ele>
        <time>2013-10-13T12:55:25Z</time>
      </trkpt>
      <trkpt lat="43.3629" lon="6.68985">
        <ele>152.986938</ele>
        <time>2013-10-13T12:55:33Z</time>
      </trkpt>
      <trkpt lat="43.36289" lon="6.68996">
        <ele>154.909546</ele>
        <time>2013-10-13T12:55:49Z</time>
      </trkpt>
      <trkpt lat="43.36286" lon="6.69007">
        <ele>158.27417</ele>
        <time>2013-10-13T12:56:02Z</time>
      </trkpt>
      <trkpt lat="43.36284" lon="6.69014">
        <ele>159.716187</ele>
        <time>2013-10-13T12:56:10Z</time>
      </trkpt>
      <trkpt lat="43.36282" lon="6.6902">
        <ele>161.638916</ele>
        <time>2013-10-13T12:56:17Z</time>
      </trkpt>
      <trkpt lat="43.36279" lon="6.69031">
        <ele>163.561523</ele>
        <time>2013-10-13T12:56:32Z</time>
      </trkpt>
      <trkpt lat="43.36274" lon="6.69046">
        <ele>165.003418</ele>
        <time>2013-10-13T12:56:50Z</time>
      </trkpt>
      <trkpt lat="43.36274" lon="6.69051">
        <ele>165.964722</ele>
        <time>2013-10-13T12:56:55Z</time>
      </trkpt>
      <trkpt lat="43.36274" lon="6.69059">
        <ele>165.964722</ele>
        <time>2013-10-13T12:56:59Z</time>
      </trkpt>
      <trkpt lat="43.3627" lon="6.6912">
        <ele>165.003418</ele>
        <time>2013-10-13T12:57:14Z</time>
      </trkpt>
      <trkpt lat="43.36285" lon="6.69157">
        <ele>166.445313</ele>
        <time>2013-10-13T12:57:25Z</time>
      </trkpt>
      <trkpt lat="43.36287" lon="6.6921">
        <ele>163.080811</ele>
        <time>2013-10-13T12:57:33Z</time>
      </trkpt>
      <trkpt lat="43.36309" lon="6.69226">
        <ele>160.67749</ele>
        <time>2013-10-13T12:57:39Z</time>
      </trkpt>
      <trkpt lat="43.36339" lon="6.69241">
        <ele>156.832153</ele>
        <time>2013-10-13T12:57:44Z</time>
      </trkpt>
      <trkpt lat="43.36366" lon="6.6927">
        <ele>152.986938</ele>
        <time>2013-10-13T12:57:48Z</time>
      </trkpt>
      <trkpt lat="43.36379" lon="6.69281">
        <ele>152.025757</ele>
        <time>2013-10-13T12:57:50Z</time>
      </trkpt>
      <trkpt lat="43.36394" lon="6.69289">
        <ele>151.064209</ele>
        <time>2013-10-13T12:57:52Z</time>
      </trkpt>
      <trkpt lat="43.36422" lon="6.693">
        <ele>146.738403</ele>
        <time>2013-10-13T12:57:56Z</time>
      </trkpt>
      <trkpt lat="43.36429" lon="6.69303">
        <ele>146.257813</ele>
        <time>2013-10-13T12:57:57Z</time>
      </trkpt>
      <trkpt lat="43.36445" lon="6.69318">
        <ele>144.815796</ele>
        <time>2013-10-13T12:58:00Z</time>
      </trkpt>
      <trkpt lat="43.36457" lon="6.69351">
        <ele>144.335205</ele>
        <time>2013-10-13T12:58:04Z</time>
      </trkpt>
      <trkpt lat="43.36458" lon="6.69416">
        <ele>144.335205</ele>
        <time>2013-10-13T12:58:16Z</time>
      </trkpt>
      <trkpt lat="43.36456" lon="6.69426">
        <ele>143.85437</ele>
        <time>2013-10-13T12:58:18Z</time>
      </trkpt>
      <trkpt lat="43.36455" lon="6.69438">
        <ele>142.412476</ele>
        <time>2013-10-13T12:58:20Z</time>
      </trkpt>
    </trkseg>
  </trk>
</gpx>